Provisional Data: Tuscarora Creek near Woodhull, NY


Please select a monitoring station.
Please select start date.
Please select start date.

Toggle Unit: C/F Toggle Unit: C/F
Sample Time Temperature (C) Temperature (F) Specific Conductivity (mS/cm) pH   Turbidity (NTU+) DO (mg/L)
5/4/2021 12:00:00 AM 11.56 52.808 0.236 7.5 19.23 10.29
5/4/2021 12:15:00 AM 11.54 52.772 0.236 7.49 17.48 10.29
5/4/2021 12:30:00 AM 11.52 52.736 0.236 7.49 21.05 10.3
5/4/2021 12:45:00 AM 11.49 52.682 0.235 7.48 20.54 10.3
5/4/2021 1:00:00 AM 11.47 52.646 0.235 7.48 22.78 10.3
5/4/2021 1:15:00 AM 11.45 52.61 0.235 7.48 23.06 10.31
5/4/2021 1:30:00 AM 11.44 52.592 0.234 7.48 22.23 10.32
5/4/2021 1:45:00 AM 11.41 52.538 0.234 7.47 25.29 10.32
5/4/2021 2:00:00 AM 11.39 52.502 0.234 7.47 28.18 10.32
5/4/2021 2:15:00 AM 11.38 52.484 0.234 7.47 22.7 10.33
5/4/2021 2:30:00 AM 11.36 52.448 0.233 7.46 22.47 10.34
5/4/2021 2:45:00 AM 11.34 52.412 0.233 7.47 21.04 10.34
5/4/2021 3:00:00 AM 11.32 52.376 0.232 7.47 27.46 10.34
5/4/2021 3:15:00 AM 11.3 52.34 0.232 7.47 22.5 10.34
5/4/2021 3:30:00 AM 11.29 52.322 0.232 7.46 21.85 10.35
5/4/2021 3:45:00 AM 11.27 52.286 0.231 7.46 19.31 10.36
5/4/2021 4:00:00 AM 11.26 52.268 0.23 7.46 26.6 10.36
5/4/2021 4:15:00 AM 11.25 52.25 0.23 7.46 26.22 10.36
5/4/2021 4:30:00 AM 11.24 52.232 0.229 7.45 49.23 10.37
5/4/2021 4:45:00 AM 11.23 52.214 0.229 7.45 24.96 10.38
5/4/2021 5:00:00 AM 11.22 52.196 0.23 7.44 52.84 10.38
5/4/2021 5:15:00 AM 11.2 52.16 0.229 7.44 31.28 10.39
5/4/2021 5:30:00 AM 11.19 52.142 0.229 7.45 27.24 10.39
5/4/2021 5:45:00 AM 11.17 52.106 0.229 7.44 30.47 10.4
5/4/2021 6:00:00 AM 11.15 52.07 0.229 7.45 31.08 10.4
5/4/2021 6:15:00 AM 11.13 52.034 0.229 7.44 39.56 10.41
5/4/2021 6:30:00 AM 11.12 52.016 0.229 7.45 35.95 10.42
5/4/2021 6:45:00 AM 11.11 51.998 0.231 7.44 25.63 10.44
5/4/2021 7:00:00 AM 11.1 51.98 0.233 7.45 36.44 10.45
5/4/2021 7:15:00 AM 11.09 51.962 0.234 7.46 24.96 10.48
5/4/2021 7:30:00 AM 11.1 51.98 0.236 7.46 26.25 10.51
5/4/2021 7:45:00 AM 11.09 51.962 0.237 7.48 27.25 10.53
5/4/2021 8:00:00 AM 11.09 51.962 0.239 7.49 23.86 10.54
5/4/2021 8:15:00 AM 11.1 51.98 0.24 7.5 21.26 10.58
5/4/2021 8:30:00 AM 11.12 52.016 0.24 7.51 29.16 10.62
5/4/2021 8:45:00 AM 11.15 52.07 0.239 7.52 22.83 10.65
5/4/2021 9:00:00 AM 11.2 52.16 0.238 7.54 25.54 10.69
5/4/2021 9:15:00 AM 11.25 52.25 0.237 7.56 30.23 10.73
5/4/2021 9:30:00 AM 11.33 52.394 0.235 7.58 23.86 10.73
5/4/2021 9:45:00 AM 11.41 52.538 0.234 7.6 22.3 10.76
5/4/2021 10:00:00 AM 11.49 52.682 0.232 7.63 29.78 10.79
5/4/2021 10:15:00 AM 11.6 52.88 0.231 7.65 22.02 10.81
5/4/2021 10:30:00 AM 11.74 53.132 0.229 7.67 23.14 10.84
5/4/2021 10:45:00 AM 11.89 53.402 0.228 7.69 22.32 10.83
5/4/2021 11:00:00 AM 12.13 53.834 0.228 7.71 23.77 10.84
5/4/2021 11:15:00 AM 12.36 54.248 0.227 7.74 37.3 10.82
5/4/2021 11:30:00 AM 12.69 54.842 0.226 7.74 28.24 10.82
5/4/2021 11:45:00 AM 12.93 55.274 0.226 7.75 26.04 10.76
5/4/2021 12:00:00 PM 13.07 55.526 0.226 7.76 24.53 10.71
5/4/2021 12:15:00 PM 13.2 55.76 0.226 7.77 20.3 10.68
5/4/2021 12:30:00 PM 13.39 56.102 0.225 7.8 43.66 10.69
5/4/2021 12:45:00 PM 13.47 56.246 0.225 7.79 27.23 10.65
5/4/2021 1:00:00 PM 13.6 56.48 0.225 7.8 29.62 10.61
5/4/2021 1:15:00 PM 13.81 56.858 0.225 7.82 29.61 10.59
5/4/2021 1:30:00 PM 13.86 56.948 0.225 7.81 21.87 10.54
5/4/2021 1:45:00 PM 14.06 57.308 0.226 7.82 24.78 10.53
5/4/2021 2:00:00 PM 14.22 57.596 0.227 7.82 25.3 10.48
5/4/2021 2:15:00 PM 14.39 57.902 0.228 7.83 24.16 10.44
5/4/2021 2:30:00 PM 14.44 57.992 0.23 7.81 17.44 10.38
5/4/2021 2:45:00 PM 14.5 58.1 0.231 7.81 23.02 10.29
5/4/2021 3:00:00 PM 14.65 58.37 0.231 7.81 18.66 10.28
5/4/2021 3:15:00 PM 14.77 58.586 0.232 7.82 22.37 10.26
5/4/2021 3:30:00 PM 14.78 58.604 0.232 7.8 24.23 10.18
5/4/2021 3:45:00 PM 14.85 58.73 0.231 7.79 17.42 10.14
5/4/2021 4:00:00 PM 14.93 58.874 0.231 7.8 22.68 10.13
5/4/2021 4:15:00 PM 15.04 59.072 0.231 7.81 18.41 10.18
5/4/2021 4:30:00 PM 15.11 59.198 0.231 7.81 21.15 10.15
5/4/2021 4:45:00 PM 15.2 59.36 0.23 7.82 23.8 10.12
5/4/2021 5:00:00 PM 15.27 59.486 0.23 7.79 24.38 10.05
5/4/2021 5:15:00 PM 15.32 59.576 0.23 7.81 20.8 10.05
5/4/2021 5:30:00 PM 15.3 59.54 0.23 7.78 22.3 9.97
5/4/2021 5:45:00 PM 15.31 59.558 0.229 7.78 20.76 9.94
5/4/2021 6:00:00 PM 15.31 59.558 0.229 7.76 18.8 9.9
5/4/2021 6:15:00 PM 15.32 59.576 0.229 7.75 19.71 9.86
5/4/2021 6:30:00 PM 15.32 59.576 0.229 7.74 19.82 9.84
5/4/2021 6:45:00 PM 15.32 59.576 0.23 7.74 20.09 9.82
5/4/2021 7:00:00 PM 15.32 59.576 0.23 7.73 22.63 9.81
5/4/2021 7:15:00 PM 15.31 59.558 0.23 7.71 20.27 9.74
5/4/2021 7:30:00 PM 15.29 59.522 0.23 7.69 23.49 9.68
5/4/2021 7:45:00 PM 15.26 59.468 0.23 7.67 20.57 9.63
5/4/2021 8:00:00 PM 15.23 59.414 0.23 7.65 20.91 9.57
5/4/2021 8:15:00 PM 15.19 59.342 0.23 7.63 21.37 9.54
5/4/2021 8:30:00 PM 15.16 59.288 0.23 7.61 19.66 9.53
5/4/2021 8:45:00 PM 15.13 59.234 0.23 7.58 18.27 9.5
5/4/2021 9:00:00 PM 15.09 59.162 0.23 7.59 19.2 9.51
5/4/2021 9:15:00 PM 15.05 59.09 0.23 7.57 20.33 9.5
5/4/2021 9:30:00 PM 15 59 0.23 7.58 19.48 9.52
5/4/2021 9:45:00 PM 14.95 58.91 0.231 7.57 22.23 9.51
5/4/2021 10:00:00 PM 14.9 58.82 0.231 7.56 20.35 9.51
5/4/2021 10:15:00 PM 14.84 58.712 0.231 7.55 20.42 9.51
5/4/2021 10:30:00 PM 14.79 58.622 0.231 7.54 16.09 9.51
5/4/2021 10:45:00 PM 14.74 58.532 0.232 7.53 19.89 9.52
5/4/2021 11:00:00 PM 14.68 58.424 0.232 7.53 21.14 9.53
5/4/2021 11:15:00 PM 14.62 58.316 0.232 7.55 20.6 9.56
5/4/2021 11:30:00 PM 14.56 58.208 0.232 7.55 22.91 9.58
5/4/2021 11:45:00 PM 14.5 58.1 0.231 7.55 22.19 9.59
5/5/2021 12:00:00 AM 14.43 57.974 0.231 7.55 44.11 9.6
5/5/2021 12:15:00 AM 14.36 57.848 0.231 7.55 25.43 9.62
5/5/2021 12:30:00 AM 14.3 57.74 0.23 7.55 21.68 9.63
5/5/2021 12:45:00 AM 14.23 57.614 0.231 7.55 41.02 9.63
5/5/2021 1:00:00 AM 14.17 57.506 0.231 7.55 21.44 9.64
5/5/2021 1:15:00 AM 14.1 57.38 0.231 7.53 25.82 9.66
5/5/2021 1:30:00 AM 14.04 57.272 0.231 7.54 22.79 9.69
5/5/2021 1:45:00 AM 13.98 57.164 0.231 7.53 20.23 9.7
5/5/2021 2:00:00 AM 13.91 57.038 0.231 7.53 21.57 9.72
5/5/2021 2:15:00 AM 13.85 56.93 0.232 7.53 22.94 9.74
5/5/2021 2:30:00 AM 13.78 56.804 0.233 7.53 25.24 9.74
5/5/2021 2:45:00 AM 13.72 56.696 0.235 7.53 27.25 9.76
5/5/2021 3:00:00 AM 13.66 56.588 0.235 7.53 23.17 9.77
5/5/2021 3:15:00 AM 13.6 56.48 0.234 7.52 19.99 9.79
5/5/2021 3:30:00 AM 13.54 56.372 0.234 7.52 20.63 9.81
5/5/2021 3:45:00 AM 13.48 56.264 0.233 7.52 21.05 9.83
5/5/2021 4:00:00 AM 13.42 56.156 0.232 7.52 22.92 9.85
5/5/2021 4:15:00 AM 13.37 56.066 0.231 7.51 27.87 9.87
5/5/2021 4:30:00 AM 13.31 55.958 0.23 7.51 19.23 9.89
5/5/2021 4:45:00 AM 13.25 55.85 0.229 7.53 28.98 9.92
5/5/2021 5:00:00 AM 13.19 55.742 0.228 7.53 41.92 9.92
5/5/2021 5:15:00 AM 13.14 55.652 0.227 7.53 23.53 9.94
5/5/2021 5:30:00 AM 13.1 55.58 0.227 7.54 34.07 9.95
5/5/2021 5:45:00 AM 13.06 55.508 0.227 7.54 39.61 9.96
5/5/2021 6:00:00 AM 13.01 55.418 0.226 7.55 42.41 9.99
5/5/2021 6:15:00 AM 12.96 55.328 0.226 7.56 28.57 10.01
5/5/2021 6:30:00 AM 12.92 55.256 0.225 7.56 58.57 10.02
5/5/2021 6:45:00 AM 12.87 55.166 0.226 7.57 58.05 10.06
5/5/2021 7:00:00 AM 12.81 55.058 0.228 7.57 38.88 10.09
5/5/2021 7:15:00 AM 12.77 54.986 0.231 7.57 61.22 10.11
5/5/2021 7:30:00 AM 12.73 54.914 0.233 7.58 35.35 10.13
5/5/2021 7:45:00 AM 12.7 54.86 0.235 7.59 36.4 10.18
5/5/2021 8:00:00 AM 12.66 54.788 0.235 7.6 40.31 10.19
5/5/2021 8:15:00 AM 12.63 54.734 0.235 7.6 47.38 10.21
5/5/2021 8:30:00 AM 12.6 54.68 0.234 7.61 33.5 10.21
5/5/2021 8:45:00 AM 12.57 54.626 0.233 7.61 31.85 10.2
5/5/2021 9:00:00 AM 12.54 54.572 0.232 7.6 36.27 10.2
5/5/2021 9:15:00 AM 12.51 54.518 0.231 7.61 42.71 10.21
5/5/2021 9:30:00 AM 12.49 54.482 0.229 7.62 35.05 10.27
5/5/2021 9:45:00 AM 12.48 54.464 0.228 7.64 39.59 10.31
5/5/2021 10:00:00 AM 12.47 54.446 0.227 7.64 25.35 10.36
5/5/2021 10:15:00 AM 12.44 54.392 0.227 7.64 30.02 10.39
5/5/2021 10:30:00 AM 12.43 54.374 0.226 7.66 26.2 10.42
5/5/2021 10:45:00 AM 12.43 54.374 0.226 7.66 27.68 10.45
5/5/2021 11:00:00 AM 12.41 54.338 0.226 7.68 21.69 10.47
5/5/2021 11:15:00 AM 12.41 54.338 0.226 7.69 36.52 10.53
5/5/2021 11:30:00 AM 12.43 54.374 0.226 7.71 27.2 10.56
5/5/2021 11:45:00 AM 12.44 54.392 0.226 7.72 21.71 10.59
5/5/2021 12:00:00 PM 12.43 54.374 0.226 7.73 22.28 10.6
5/5/2021 12:15:00 PM 12.43 54.374 0.227 7.73 23.08 10.63
5/5/2021 12:30:00 PM 12.45 54.41 0.227 7.76 24.66 10.68
5/5/2021 12:45:00 PM 12.45 54.41 0.227 7.77 21.71 10.71
5/5/2021 1:00:00 PM 12.41 54.338 0.228 7.75 22.18 10.68
5/5/2021 1:15:00 PM 12.39 54.302 0.228 7.76 21.92 10.69
5/5/2021 1:30:00 PM 12.4 54.32 0.228 7.77 22.93 10.71
5/5/2021 1:45:00 PM 12.39 54.302 0.227 7.78 21.29 10.72
5/5/2021 2:00:00 PM 12.37 54.266 0.227 7.78 22.39 10.72
5/5/2021 2:15:00 PM 12.37 54.266 0.227 7.78 19.46 10.74
5/5/2021 2:30:00 PM 12.35 54.23 0.226 7.78 20.85 10.72
5/5/2021 2:45:00 PM 12.37 54.266 0.226 7.8 20.59 10.75
5/5/2021 3:00:00 PM 12.39 54.302 0.226 7.81 19.86 10.77
5/5/2021 3:15:00 PM 12.36 54.248 0.226 7.79 20.98 10.71
5/5/2021 3:30:00 PM 12.33 54.194 0.226 7.78 21.3 10.67
5/5/2021 3:45:00 PM 12.32 54.176 0.226 7.77 23.72 10.68
5/5/2021 4:00:00 PM 12.32 54.176 0.226 7.78 22.16 10.71
5/5/2021 4:15:00 PM 12.32 54.176 0.226 7.8 17.87 10.75
5/5/2021 4:30:00 PM 12.29 54.122 0.226 7.8 17.1 10.75
5/5/2021 4:45:00 PM 12.27 54.086 0.226 7.8 19.72 10.74
5/5/2021 5:00:00 PM 12.29 54.122 0.225 7.8 23.66 10.79
5/5/2021 5:15:00 PM 12.27 54.086 0.225 7.81 23.51 10.78
5/5/2021 5:30:00 PM 12.24 54.032 0.225 7.81 24.06 10.76
5/5/2021 5:45:00 PM 12.2 53.96 0.225 7.79 17.8 10.75
5/5/2021 6:00:00 PM 12.14 53.852 0.225 7.78 20.42 10.71
5/5/2021 6:15:00 PM 12.08 53.744 0.225 7.77 21.11 10.7
5/5/2021 6:30:00 PM 12.02 53.636 0.225 7.76 21.46 10.65
5/5/2021 6:45:00 PM 11.98 53.564 0.225 7.76 17.38 10.68
5/5/2021 7:00:00 PM 11.92 53.456 0.225 7.75 22 10.65
5/5/2021 7:15:00 PM 11.88 53.384 0.225 7.74 21.25 10.65
5/5/2021 7:30:00 PM 11.83 53.294 0.225 7.72 20.9 10.61
5/5/2021 7:45:00 PM 11.76 53.168 0.225 7.7 19.25 10.56
5/5/2021 8:00:00 PM 11.7 53.06 0.225 7.67 19.12 10.52
5/5/2021 8:15:00 PM 11.64 52.952 0.225 7.66 20.78 10.49
5/5/2021 8:30:00 PM 11.58 52.844 0.225 7.64 17.76 10.48
5/5/2021 8:45:00 PM 11.52 52.736 0.225 7.63 16.86 10.47
5/5/2021 9:00:00 PM 11.45 52.61 0.225 7.63 15.86 10.46
5/5/2021 9:15:00 PM 11.4 52.52 0.225 7.61 16.29 10.46
5/5/2021 9:30:00 PM 11.34 52.412 0.225 7.62 16.54 10.46
5/5/2021 9:45:00 PM 11.27 52.286 0.225 7.61 18.84 10.47
5/5/2021 10:00:00 PM 11.21 52.178 0.225 7.6 16.28 10.48
5/5/2021 10:15:00 PM 11.14 52.052 0.225 7.59 17.75 10.5
5/5/2021 10:30:00 PM 11.08 51.944 0.225 7.59 18.05 10.51
5/5/2021 10:45:00 PM 11.01 51.818 0.225 7.59 17.51 10.53
5/5/2021 11:00:00 PM 10.94 51.692 0.225 7.59 26.04 10.53
5/5/2021 11:15:00 PM 10.87 51.566 0.226 7.59 17.5 10.55
5/5/2021 11:30:00 PM 10.81 51.458 0.226 7.58 16.95 10.55
5/5/2021 11:45:00 PM 10.74 51.332 0.226 7.57 13.55 10.57
5/6/2021 12:00:00 AM 10.67 51.206 0.226 7.57 15.76 10.59
5/6/2021 12:15:00 AM 10.61 51.098 0.226 7.54 18.76 10.61
5/6/2021 12:30:00 AM 10.54 50.972 0.226 7.53 18.94 10.63
5/6/2021 12:45:00 AM 10.48 50.864 0.226 7.53 16.46 10.65
5/6/2021 1:00:00 AM 10.41 50.738 0.226 7.52 15.62 10.66
5/6/2021 1:15:00 AM 10.35 50.63 0.226 7.53 18.22 10.68
5/6/2021 1:30:00 AM 10.29 50.522 0.226 7.52 20 10.68
5/6/2021 1:45:00 AM 10.24 50.432 0.226 7.52 18.48 10.69
5/6/2021 2:00:00 AM 10.19 50.342 0.226 7.52 33 10.7
5/6/2021 2:15:00 AM 10.14 50.252 0.226 7.51 26.92 10.72
5/6/2021 2:30:00 AM 10.08 50.144 0.226 7.52 19.65 10.74
5/6/2021 2:45:00 AM 10.03 50.054 0.227 7.52 17.37 10.77
5/6/2021 3:00:00 AM 9.97 49.946 0.227 7.52 19.61 10.78
5/6/2021 3:15:00 AM 9.92 49.856 0.227 7.52 21.29 10.8
5/6/2021 3:30:00 AM 9.87 49.766 0.227 7.52 22.8 10.82
5/6/2021 3:45:00 AM 9.82 49.676 0.227 7.51 21.26 10.83
5/6/2021 4:00:00 AM 9.78 49.604 0.227 7.52 18.51 10.84
5/6/2021 4:15:00 AM 9.73 49.514 0.227 7.52 19.12 10.84
5/6/2021 4:30:00 AM 9.68 49.424 0.227 7.51 18.67 10.85
5/6/2021 4:45:00 AM 9.64 49.352 0.227 7.53 19.8 10.87
5/6/2021 5:00:00 AM 9.59 49.262 0.227 7.53 17.76 10.88
5/6/2021 5:15:00 AM 9.54 49.172 0.227 7.53 17.74 10.89
5/6/2021 5:30:00 AM 9.49 49.082 0.227 7.53 17.7 10.9
5/6/2021 5:45:00 AM 9.45 49.01 0.227 7.52 18.29 10.92
5/6/2021 6:00:00 AM 9.41 48.938 0.227 7.52 20.2 10.95
5/6/2021 6:15:00 AM 9.37 48.866 0.227 7.53 17.25 10.97
5/6/2021 6:30:00 AM 9.3 48.74 0.228 7.52 20.36 11
5/6/2021 6:45:00 AM 9.25 48.65 0.228 7.55 18.44 11.06
5/6/2021 7:00:00 AM 9.2 48.56 0.227 7.55 14.96 11.11
5/6/2021 7:15:00 AM 9.16 48.488 0.227 7.56 16.1 11.17
5/6/2021 7:30:00 AM 9.13 48.434 0.227 7.59 21.67 11.24
5/6/2021 7:45:00 AM 9.12 48.416 0.228 7.6 17.47 11.29
5/6/2021 8:00:00 AM 9.11 48.398 0.228 7.6 17.65 11.34
5/6/2021 8:15:00 AM 9.11 48.398 0.228 7.64 18.87 11.39
5/6/2021 8:30:00 AM 9.15 48.47 0.228 7.66 16.78 11.46
5/6/2021 8:45:00 AM 9.17 48.506 0.227 7.68 15.58 11.5
5/6/2021 9:00:00 AM 9.33 48.794 0.227 7.71 14.73 11.58
5/6/2021 9:15:00 AM 9.54 49.172 0.227 7.74 16.36 11.62
5/6/2021 9:30:00 AM 9.75 49.55 0.228 7.77 15.29 11.64
5/6/2021 9:45:00 AM 9.8 49.64 0.228 7.79 15.37 11.64
5/6/2021 10:00:00 AM 9.85 49.73 0.228 7.79 15.28 11.64
5/6/2021 10:15:00 AM 9.98 49.964 0.228 7.81 16.08 11.67
5/6/2021 10:30:00 AM 9.97 49.946 0.228 7.82 15.41 11.66
5/6/2021 10:45:00 AM 9.91 49.838 0.229 7.83 16.36 11.66
5/6/2021 11:00:00 AM 10.09 50.162 0.228 7.84 15.41 11.68
5/6/2021 11:15:00 AM 10.28 50.504 0.229 7.86 15.11 11.67
5/6/2021 11:30:00 AM 10.39 50.702 0.229 7.87 16.91 11.66
5/6/2021 11:45:00 AM 10.75 51.35 0.229 7.88 16 11.65
5/6/2021 12:00:00 PM 11 51.8 0.23 7.9 15.52 11.63
5/6/2021 12:15:00 PM 11.17 52.106 0.23 7.92 14.38 11.59
5/6/2021 12:30:00 PM 11.29 52.322 0.23 7.92 14.98 11.5
5/6/2021 12:45:00 PM 11.36 52.448 0.23 7.93 14.54 11.45
5/6/2021 1:00:00 PM 11.54 52.772 0.231 7.94 14.93 11.46
5/6/2021 1:15:00 PM 11.65 52.97 0.231 7.97 14.71 11.44
5/6/2021 1:30:00 PM 12.04 53.672 0.231 7.97 15.14 11.4
5/6/2021 1:45:00 PM 12.1 53.78 0.231 7.99 13.12 11.34
5/6/2021 2:00:00 PM 12.24 54.032 0.232 8 14.81 11.33
5/6/2021 2:15:00 PM 12.36 54.248 0.232 8 15.62 11.29
5/6/2021 2:30:00 PM 12.54 54.572 0.232 8.01 16.02 11.22
5/6/2021 2:45:00 PM 12.74 54.932 0.232 8.03 15 11.23
5/6/2021 3:00:00 PM 12.8 55.04 0.232 8.04 15.26 11.18
5/6/2021 3:15:00 PM 12.87 55.166 0.232 8.04 14.1 11.15
5/6/2021 3:30:00 PM 12.94 55.292 0.232 8.04 15.73 11.1
5/6/2021 3:45:00 PM 13 55.4 0.232 8.05 13.79 11.08
5/6/2021 4:00:00 PM 13 55.4 0.232 8.05 18.42 11.07
5/6/2021 4:15:00 PM 12.99 55.382 0.232 8.04 16 11.04
5/6/2021 4:30:00 PM 13 55.4 0.232 8.05 16.77 11.04
5/6/2021 4:45:00 PM 13.01 55.418 0.232 8.05 12.8 11.02
5/6/2021 5:00:00 PM 13 55.4 0.232 8.04 15.18 11.01
5/6/2021 5:15:00 PM 12.99 55.382 0.232 8.04 17.33 10.99
5/6/2021 5:30:00 PM 12.97 55.346 0.233 8.02 15.52 10.96
5/6/2021 5:45:00 PM 12.94 55.292 0.233 8.02 16.84 10.92
5/6/2021 6:00:00 PM 12.9 55.22 0.233 8 16.04 10.89
5/6/2021 6:15:00 PM 12.85 55.13 0.233 7.99 17.37 10.86
5/6/2021 6:30:00 PM 12.8 55.04 0.233 7.96 15.67 10.83
5/6/2021 6:45:00 PM 12.77 54.986 0.233 7.95 15.31 10.81
5/6/2021 7:00:00 PM 12.7 54.86 0.232 7.92 18.03 10.74
5/6/2021 7:15:00 PM 12.64 54.752 0.233 7.89 16.37 10.67
5/6/2021 7:30:00 PM 12.55 54.59 0.233 7.87 16.72 10.6
5/6/2021 7:45:00 PM 12.48 54.464 0.233 7.83 15.51 10.52
5/6/2021 8:00:00 PM 12.39 54.302 0.233 7.8 16.74 10.46
5/6/2021 8:15:00 PM 12.3 54.14 0.233 7.76 15.82 10.41
5/6/2021 8:30:00 PM 12.2 53.96 0.233 7.72 13.9 10.36
5/6/2021 8:45:00 PM 12.11 53.798 0.234 7.71 17.95 10.32
5/6/2021 9:00:00 PM 12 53.6 0.234 7.68 25.38 10.3
5/6/2021 9:15:00 PM 11.89 53.402 0.234 7.66 16.92 10.29
5/6/2021 9:30:00 PM 11.78 53.204 0.235 7.65 20.03 10.3
5/6/2021 9:45:00 PM 11.67 53.006 0.235 7.64 16.71 10.31
5/6/2021 10:00:00 PM 11.55 52.79 0.235 7.63 15.41 10.33
5/6/2021 10:15:00 PM 11.45 52.61 0.234 7.62 21.47 10.34
5/6/2021 10:30:00 PM 11.35 52.43 0.234 7.6 17.19 10.34
5/6/2021 10:45:00 PM 11.24 52.232 0.234 7.6 17.65 10.36
5/6/2021 11:00:00 PM 11.13 52.034 0.234 7.59 18.92 10.39
5/6/2021 11:15:00 PM 11.02 51.836 0.234 7.58 19.32 10.42
5/6/2021 11:30:00 PM 10.9 51.62 0.234 7.59 17.39 10.44
5/6/2021 11:45:00 PM 10.79 51.422 0.234 7.57 20.19 10.46
5/7/2021 12:00:00 AM 10.67 51.206 0.235 7.57 16.49 10.48
5/7/2021 12:15:00 AM 10.56 51.008 0.235 7.56 17.35 10.51
5/7/2021 12:30:00 AM 10.45 50.81 0.235 7.57 17.24 10.56
5/7/2021 12:45:00 AM 10.33 50.594 0.235 7.56 16.04 10.58
5/7/2021 1:00:00 AM 10.23 50.414 0.236 7.56 20.29 10.6
5/7/2021 1:15:00 AM 10.12 50.216 0.236 7.55 18.35 10.61
5/7/2021 1:30:00 AM 10.01 50.018 0.236 7.56 15.2 10.66
5/7/2021 1:45:00 AM 9.91 49.838 0.236 7.55 16.58 10.69
5/7/2021 2:00:00 AM 9.8 49.64 0.236 7.55 15.59 10.71
5/7/2021 2:15:00 AM 9.7 49.46 0.236 7.55 27.81 10.74
5/7/2021 2:30:00 AM 9.61 49.298 0.236 7.52 19.67 10.74
5/7/2021 2:45:00 AM 9.52 49.136 0.236 7.51 17.33 10.79
5/7/2021 3:00:00 AM 9.43 48.974 0.236 7.51 24.77 10.8
5/7/2021 3:15:00 AM 9.34 48.812 0.236 7.51 15.3 10.85
5/7/2021 3:30:00 AM 9.27 48.686 0.236 7.5 16.27 10.87
5/7/2021 3:45:00 AM 9.19 48.542 0.236 7.5 27.05 10.89
5/7/2021 4:00:00 AM 9.12 48.416 0.236 7.49 16.04 10.9
5/7/2021 4:15:00 AM 9.04 48.272 0.236 7.48 14.61 10.92
5/7/2021 4:30:00 AM 8.97 48.146 0.236 7.49 13.89 10.93
5/7/2021 4:45:00 AM 8.91 48.038 0.236 7.49 14.65 10.95
5/7/2021 5:00:00 AM 8.85 47.93 0.237 7.49 14.32 10.98
5/7/2021 5:15:00 AM 8.79 47.822 0.237 7.49 14.18 11.01
5/7/2021 5:30:00 AM 8.73 47.714 0.237 7.48 15.84 11.02
5/7/2021 5:45:00 AM 8.67 47.606 0.237 7.49 14.27 11.04
5/7/2021 6:00:00 AM 8.61 47.498 0.237 7.48 12.57 11.06
5/7/2021 6:15:00 AM 8.55 47.39 0.237 7.49 13.66 11.08
5/7/2021 6:30:00 AM 8.48 47.264 0.237 7.49 13.91 11.11
5/7/2021 6:45:00 AM 8.42 47.156 0.237 7.5 12.28 11.17
5/7/2021 7:00:00 AM 8.38 47.084 0.237 7.52 13.06 11.28
5/7/2021 7:15:00 AM 8.36 47.048 0.237 7.54 13.08 11.37
5/7/2021 7:30:00 AM 8.34 47.012 0.237 7.56 14.61 11.48
5/7/2021 7:45:00 AM 8.33 46.994 0.237 7.58 13.77 11.56
5/7/2021 8:00:00 AM 8.32 46.976 0.237 7.61 14.03 11.63
5/7/2021 8:15:00 AM 8.36 47.048 0.237 7.65 13.37 11.72
5/7/2021 8:30:00 AM 8.4 47.12 0.238 7.67 13.18 11.78
5/7/2021 8:45:00 AM 8.43 47.174 0.238 7.69 12.23 11.83
5/7/2021 9:00:00 AM 8.48 47.264 0.237 7.73 12.32 11.88
5/7/2021 9:15:00 AM 8.58 47.444 0.237 7.76 12.55 11.95
5/7/2021 9:30:00 AM 8.66 47.588 0.237 7.78 14.98 11.99
5/7/2021 9:45:00 AM 8.71 47.678 0.237 7.81 14.17 12.01
5/7/2021 10:00:00 AM 8.77 47.786 0.237 7.83 12.22 12.02
5/7/2021 10:15:00 AM 8.87 47.966 0.237 7.84 14.12 12.04
5/7/2021 10:30:00 AM 8.95 48.11 0.237 7.88 12.58 12.05
5/7/2021 10:45:00 AM 9.04 48.272 0.237 7.89 12.23 12.05
5/7/2021 11:00:00 AM 9.27 48.686 0.237 7.91 11.69 12.12
5/7/2021 11:15:00 AM 9.58 49.244 0.237 7.94 10.58 12.1
5/7/2021 11:30:00 AM 9.66 49.388 0.237 7.96 10.78 12.08
5/7/2021 11:45:00 AM 9.88 49.784 0.238 7.99 12.73 12.11
5/7/2021 12:00:00 PM 10.21 50.378 0.238 8.02 13.65 12.06
5/7/2021 12:15:00 PM 10.29 50.522 0.238 8.03 12.62 12.03
5/7/2021 12:30:00 PM 10.26 50.468 0.238 8.04 12.65 11.95
5/7/2021 12:45:00 PM 10.29 50.522 0.238 8.03 13.96 11.88
5/7/2021 1:00:00 PM 10.29 50.522 0.238 8.05 12.68 11.86
5/7/2021 1:15:00 PM 10.33 50.594 0.238 8.07 10.66 11.86
5/7/2021 1:30:00 PM 10.43 50.774 0.238 8.08 11.42 11.88
5/7/2021 1:45:00 PM 10.48 50.864 0.238 8.08 13.99 11.87
5/7/2021 2:00:00 PM 10.54 50.972 0.238 8.09 14.66 11.87
5/7/2021 2:15:00 PM 10.63 51.134 0.238 8.11 12.46 11.82
5/7/2021 2:30:00 PM 10.69 51.242 0.238 8.12 10.49 11.74
5/7/2021 2:45:00 PM 10.74 51.332 0.239 8.09 13 11.66
5/7/2021 3:00:00 PM 10.78 51.404 0.239 8.09 11.41 11.54
5/7/2021 3:15:00 PM 10.79 51.422 0.239 8.05 13.02 11.45
5/7/2021 3:30:00 PM 10.8 51.44 0.24 8.03 14.68 11.38
5/7/2021 3:45:00 PM 10.8 51.44 0.24 8.01 11.58 11.32
5/7/2021 4:00:00 PM 10.8 51.44 0.24 7.99 10.86 11.27
5/7/2021 4:15:00 PM 10.82 51.476 0.239 7.97 14.04 11.24
5/7/2021 4:30:00 PM 10.84 51.512 0.239 7.97 15.12 11.23
5/7/2021 4:45:00 PM 10.84 51.512 0.239 7.96 14.52 11.21
5/7/2021 5:00:00 PM 10.84 51.512 0.239 7.95 12.48 11.19
5/7/2021 5:15:00 PM 10.86 51.548 0.238 7.94 17.47 11.17
5/7/2021 5:30:00 PM 10.85 51.53 0.239 7.92 15.17 11.13
5/7/2021 5:45:00 PM 10.82 51.476 0.238 7.89 14.17 11.03
5/7/2021 6:00:00 PM 10.78 51.404 0.238 7.84 14.01 10.96
5/7/2021 6:15:00 PM 10.75 51.35 0.238 7.83 13.89 10.91
5/7/2021 6:30:00 PM 10.7 51.26 0.238 7.8 16.27 10.89
5/7/2021 6:45:00 PM 10.65 51.17 0.238 7.8 13.66 10.9
5/7/2021 7:00:00 PM 10.59 51.062 0.238 7.76 14.8 10.86
5/7/2021 7:15:00 PM 10.54 50.972 0.238 7.76 15.12 10.85
5/7/2021 7:30:00 PM 10.49 50.882 0.238 7.75 15.76 10.83
5/7/2021 7:45:00 PM 10.43 50.774 0.238 7.73 14.99 10.8
5/7/2021 8:00:00 PM 10.38 50.684 0.238 7.7 15.6 10.78
5/7/2021 8:15:00 PM 10.33 50.594 0.237 7.68 13.99 10.74
5/7/2021 8:30:00 PM 10.28 50.504 0.237 7.68 14.54 10.71
5/7/2021 8:45:00 PM 10.23 50.414 0.237 7.66 13.32 10.69
5/7/2021 9:00:00 PM 10.18 50.324 0.237 7.65 15.95 10.67
5/7/2021 9:15:00 PM 10.12 50.216 0.237 7.64 15.39 10.68
5/7/2021 9:30:00 PM 10.06 50.108 0.237 7.64 16.27 10.69
5/7/2021 9:45:00 PM 10.01 50.018 0.238 7.63 17.79 10.7
5/7/2021 10:00:00 PM 9.94 49.892 0.239 7.64 19.48 10.72
5/7/2021 10:15:00 PM 9.88 49.784 0.241 7.63 15.99 10.74
5/7/2021 10:30:00 PM 9.82 49.676 0.241 7.63 15.13 10.76
5/7/2021 10:45:00 PM 9.76 49.568 0.241 7.63 15.68 10.76
5/7/2021 11:00:00 PM 9.7 49.46 0.241 7.63 14.76 10.78
5/7/2021 11:15:00 PM 9.65 49.37 0.24 7.63 16.32 10.79
5/7/2021 11:30:00 PM 9.59 49.262 0.239 7.63 17.29 10.81
5/7/2021 11:45:00 PM 9.52 49.136 0.238 7.62 17.66 10.83
5/8/2021 12:00:00 AM 9.45 49.01 0.237 7.64 19.73 10.86
5/8/2021 12:15:00 AM 9.39 48.902 0.235 7.64 19.63 10.89
5/8/2021 12:30:00 AM 9.33 48.794 0.234 7.62 31.45 10.91
5/8/2021 12:45:00 AM 9.27 48.686 0.232 7.64 30.65 10.95
5/8/2021 1:00:00 AM 9.21 48.578 0.23 7.64 31.16 10.96
5/8/2021 1:15:00 AM 9.16 48.488 0.229 7.65 35.1 10.98
5/8/2021 1:30:00 AM 9.1 48.38 0.228 7.64 35.08 11
5/8/2021 1:45:00 AM 9.05 48.29 0.227 7.65 65.98 11.01
5/8/2021 2:00:00 AM 8.99 48.182 0.225 7.64 36.48 11.03
5/8/2021 2:15:00 AM 8.94 48.092 0.225 7.65 49.67 11.04
5/8/2021 2:30:00 AM 8.89 48.002 0.227 7.64 50.23 11.06
5/8/2021 2:45:00 AM 8.84 47.912 0.229 7.64 33.75 11.08
5/8/2021 3:00:00 AM 8.79 47.822 0.231 7.63 44.57 11.1
5/8/2021 3:15:00 AM 8.75 47.75 0.232 7.64 66 11.11
5/8/2021 3:30:00 AM 8.71 47.678 0.232 7.63 28.94 11.13
5/8/2021 3:45:00 AM 8.67 47.606 0.231 7.63 38.46 11.13
5/8/2021 4:00:00 AM 8.64 47.552 0.23 7.63 56.85 11.14
5/8/2021 4:15:00 AM 8.61 47.498 0.229 7.62 42.17 11.15
5/8/2021 4:30:00 AM 8.58 47.444 0.228 7.62 42.08 11.15
5/8/2021 4:45:00 AM 8.55 47.39 0.227 7.62 29.73 11.15
5/8/2021 5:00:00 AM 8.52 47.336 0.226 7.61 28.4 11.16
5/8/2021 5:15:00 AM 8.49 47.282 0.225 7.6 36.3 11.16
5/8/2021 5:30:00 AM 8.46 47.228 0.224 7.61 40.08 11.16
5/8/2021 5:45:00 AM 8.43 47.174 0.223 7.61 31.79 11.17
5/8/2021 6:00:00 AM 8.4 47.12 0.223 7.6 35.53 11.18
5/8/2021 6:15:00 AM 8.38 47.084 0.222 7.6 30.53 11.18
5/8/2021 6:30:00 AM 8.35 47.03 0.222 7.6 27.95 11.21
5/8/2021 6:45:00 AM 8.34 47.012 0.222 7.61 28.08 11.23
5/8/2021 7:00:00 AM 8.32 46.976 0.222 7.61 33.64 11.26
5/8/2021 7:15:00 AM 8.31 46.958 0.222 7.62 31.15 11.31
5/8/2021 7:30:00 AM 8.31 46.958 0.222 7.63 29.3 11.36
5/8/2021 7:45:00 AM 8.31 46.958 0.223 7.64 23.81 11.39
5/8/2021 8:00:00 AM 8.31 46.958 0.223 7.65 27.1 11.42
5/8/2021 8:15:00 AM 8.32 46.976 0.223 7.66 23.9 11.45
5/8/2021 8:30:00 AM 8.31 46.958 0.223 7.66 26.11 11.43
5/8/2021 8:45:00 AM 8.33 46.994 0.223 7.68 26.14 11.51
5/8/2021 9:00:00 AM 8.33 46.994 0.222 7.69 20.63 11.54
5/8/2021 9:15:00 AM 8.35 47.03 0.222 7.71 20.71 11.59
5/8/2021 9:30:00 AM 8.38 47.084 0.222 7.72 17.98 11.65
5/8/2021 9:45:00 AM 8.39 47.102 0.221 7.74 25.86 11.67
5/8/2021 10:00:00 AM 8.39 47.102 0.221 7.75 20.12 11.66
5/8/2021 10:15:00 AM 8.42 47.156 0.221 7.77 19.6 11.72
5/8/2021 10:30:00 AM 8.43 47.174 0.221 7.76 20.22 11.7
5/8/2021 10:45:00 AM 8.46 47.228 0.221 7.77 18.54 11.73
5/8/2021 11:00:00 AM 8.5 47.3 0.221 7.8 16.99 11.79
5/8/2021 11:15:00 AM 8.52 47.336 0.221 7.8 17.44 11.8
5/8/2021 11:30:00 AM 8.58 47.444 0.22 7.84 18.54 11.86
5/8/2021 11:45:00 AM 8.64 47.552 0.22 7.86 18.29 11.92
5/8/2021 12:00:00 PM 8.69 47.642 0.22 7.88 18.09 11.94
5/8/2021 12:15:00 PM 8.75 47.75 0.22 7.89 17.41 11.97
5/8/2021 12:30:00 PM 8.81 47.858 0.22 7.91 17.9 11.99
5/8/2021 12:45:00 PM 8.85 47.93 0.22 7.93 17.46 11.98
5/8/2021 1:00:00 PM 8.87 47.966 0.22 7.93 17.73 11.96
5/8/2021 1:15:00 PM 8.96 48.128 0.22 7.95 16.2 11.97
5/8/2021 1:30:00 PM 9.06 48.308 0.22 7.97 16.82 12
5/8/2021 1:45:00 PM 9.29 48.722 0.22 8 16.91 12.07
5/8/2021 2:00:00 PM 9.43 48.974 0.22 8.03 17.58 12.07
5/8/2021 2:15:00 PM 9.65 49.37 0.22 8.06 16.54 12.04
5/8/2021 2:30:00 PM 9.74 49.532 0.22 8.07 17.85 12
5/8/2021 2:45:00 PM 9.84 49.712 0.22 8.08 18.71 11.99
5/8/2021 3:00:00 PM 9.93 49.874 0.22 8.08 17.68 11.93
5/8/2021 3:15:00 PM 9.98 49.964 0.22 8.08 16.41 11.89
5/8/2021 3:30:00 PM 9.91 49.838 0.22 8.04 18.17 11.74
5/8/2021 3:45:00 PM 10 50 0.221 8.04 17.54 11.79
5/8/2021 4:00:00 PM 10.17 50.306 0.221 8.08 17.02 11.8
5/8/2021 4:15:00 PM 10.33 50.594 0.221 8.08 16.32 11.8
5/8/2021 4:30:00 PM 10.47 50.846 0.221 8.1 16.94 11.8
5/8/2021 4:45:00 PM 10.58 51.044 0.221 8.1 14.55 11.73
5/8/2021 5:00:00 PM 10.56 51.008 0.221 8.04 17.8 11.54
5/8/2021 5:15:00 PM 10.51 50.918 0.221 7.99 15.59 11.41
5/8/2021 5:30:00 PM 10.52 50.936 0.221 7.99 16.15 11.41
5/8/2021 5:45:00 PM 10.52 50.936 0.221 7.98 16.31 11.41
5/8/2021 6:00:00 PM 10.52 50.936 0.222 7.98 16.68 11.4
5/8/2021 6:15:00 PM 10.55 50.99 0.222 8 14.84 11.43
5/8/2021 6:30:00 PM 10.55 50.99 0.223 7.96 15.73 11.34
5/8/2021 6:45:00 PM 10.55 50.99 0.223 7.95 16.39 11.26
5/8/2021 7:00:00 PM 10.54 50.972 0.224 7.9 17.67 11.12
5/8/2021 7:15:00 PM 10.54 50.972 0.224 7.86 16.07 11.04
5/8/2021 7:30:00 PM 10.56 51.008 0.223 7.85 16.26 11.04
5/8/2021 7:45:00 PM 10.54 50.972 0.223 7.83 15.94 11.03
5/8/2021 8:00:00 PM 10.51 50.918 0.223 7.81 16.19 10.98
5/8/2021 8:15:00 PM 10.49 50.882 0.223 7.78 15.7 10.93
5/8/2021 8:30:00 PM 10.46 50.828 0.224 7.74 16.44 10.86
5/8/2021 8:45:00 PM 10.41 50.738 0.224 7.73 15.59 10.82
5/8/2021 9:00:00 PM 10.36 50.648 0.224 7.7 15.6 10.78
5/8/2021 9:15:00 PM 10.31 50.558 0.224 7.68 17.53 10.76
5/8/2021 9:30:00 PM 10.24 50.432 0.225 7.67 16.42 10.74
5/8/2021 9:45:00 PM 10.16 50.288 0.225 7.66 15.85 10.74
5/8/2021 10:00:00 PM 10.07 50.126 0.225 7.64 16.22 10.75
5/8/2021 10:15:00 PM 9.99 49.982 0.225 7.62 16.61 10.77
5/8/2021 10:30:00 PM 9.91 49.838 0.226 7.63 15.87 10.8
5/8/2021 10:45:00 PM 9.83 49.694 0.226 7.62 17.35 10.8
5/8/2021 11:00:00 PM 9.74 49.532 0.226 7.61 17.74 10.82
5/8/2021 11:15:00 PM 9.65 49.37 0.227 7.61 29.01 10.81
5/8/2021 11:30:00 PM 9.57 49.226 0.227 7.59 19.07 10.83
5/8/2021 11:45:00 PM 9.48 49.064 0.227 7.6 19.37 10.86
5/9/2021 12:00:00 AM 9.38 48.884 0.227 7.59 20.81 10.88
5/9/2021 12:15:00 AM 9.29 48.722 0.226 7.59 21.35 10.92
5/9/2021 12:30:00 AM 9.19 48.542 0.226 7.59 24.03 10.95
5/9/2021 12:45:00 AM 9.1 48.38 0.226 7.58 20.71 10.95
5/9/2021 1:00:00 AM 9.01 48.218 0.226 7.57 17.64 10.97
5/9/2021 1:15:00 AM 8.92 48.056 0.226 7.57 19.03 11
5/9/2021 1:30:00 AM 8.82 47.876 0.227 7.57 17.76 11.03
5/9/2021 1:45:00 AM 8.74 47.732 0.227 7.56 15.76 11.05
5/9/2021 2:00:00 AM 8.65 47.57 0.227 7.57 15.7 11.08
5/9/2021 2:15:00 AM 8.56 47.408 0.228 7.56 15.19 11.09
5/9/2021 2:30:00 AM 8.47 47.246 0.228 7.56 16.19 11.11
5/9/2021 2:45:00 AM 8.38 47.084 0.228 7.56 15.67 11.13
5/9/2021 3:00:00 AM 8.3 46.94 0.228 7.55 16.43 11.15
5/9/2021 3:15:00 AM 8.22 46.796 0.228 7.53 16.24 11.19
5/9/2021 3:30:00 AM 8.14 46.652 0.227 7.53 16.03 11.21
5/9/2021 3:45:00 AM 8.05 46.49 0.227 7.52 15.13 11.25
5/9/2021 4:00:00 AM 7.98 46.364 0.227 7.52 15.81 11.26
5/9/2021 4:15:00 AM 7.9 46.22 0.227 7.51 14.59 11.28
5/9/2021 4:30:00 AM 7.82 46.076 0.227 7.51 20.48 11.3
5/9/2021 4:45:00 AM 7.75 45.95 0.228 7.5 15.64 11.32
5/9/2021 5:00:00 AM 7.68 45.824 0.228 7.5 15.64 11.36
5/9/2021 5:15:00 AM 7.61 45.698 0.228 7.49 16.41 11.38
5/9/2021 5:30:00 AM 7.55 45.59 0.228 7.48 15.92 11.4
5/9/2021 5:45:00 AM 7.48 45.464 0.228 7.49 15.82 11.43
5/9/2021 6:00:00 AM 7.41 45.338 0.229 7.5 13.89 11.45
5/9/2021 6:15:00 AM 7.36 45.248 0.229 7.5 15.56 11.48
5/9/2021 6:30:00 AM 7.31 45.158 0.23 7.5 15.62 11.55
5/9/2021 6:45:00 AM 7.26 45.068 0.23 7.53 15.9 11.65
5/9/2021 7:00:00 AM 7.23 45.014 0.23 7.55 15.02 11.76
5/9/2021 7:15:00 AM 7.2 44.96 0.23 7.56 16.69 11.87
5/9/2021 7:30:00 AM 7.18 44.924 0.23 7.6 13.7 11.97
5/9/2021 7:45:00 AM 7.18 44.924 0.23 7.63 13.9 12.07
5/9/2021 8:00:00 AM 7.2 44.96 0.23 7.67 15.08 12.17
5/9/2021 8:15:00 AM 7.23 45.014 0.23 7.7 13.13 12.25
5/9/2021 8:30:00 AM 7.26 45.068 0.229 7.74 13.74 12.32
5/9/2021 8:45:00 AM 7.36 45.248 0.229 7.77 14.67 12.4
5/9/2021 9:00:00 AM 7.51 45.518 0.229 7.81 13.41 12.49
5/9/2021 9:15:00 AM 7.58 45.644 0.229 7.84 12.81 12.52
5/9/2021 9:30:00 AM 7.66 45.788 0.23 7.88 12.56 12.54
5/9/2021 9:45:00 AM 7.73 45.914 0.23 7.91 12.28 12.57
5/9/2021 10:00:00 AM 7.83 46.094 0.23 7.95 14.52 12.59
5/9/2021 10:15:00 AM 7.94 46.292 0.23 7.99 12.9 12.61
5/9/2021 10:30:00 AM 8.03 46.454 0.229 8.02 11.86 12.63
5/9/2021 10:45:00 AM 8.11 46.598 0.229 8.04 11.37 12.64
5/9/2021 11:00:00 AM 8.23 46.814 0.229 8.05 15.53 12.66
5/9/2021 11:15:00 AM 8.33 46.994 0.229 8.11 12.04 12.65
5/9/2021 11:30:00 AM 8.42 47.156 0.229 8.13 13.13 12.62
5/9/2021 11:45:00 AM 8.49 47.282 0.229 8.15 10.79 12.61
5/9/2021 12:00:00 PM 8.57 47.426 0.229 8.17 13.55 12.58
5/9/2021 12:15:00 PM 8.64 47.552 0.229 8.17 11.76 12.55
5/9/2021 12:30:00 PM 8.71 47.678 0.229 8.18 11.46 12.55
5/9/2021 12:45:00 PM 8.79 47.822 0.228 8.2 10.74 12.53
5/9/2021 1:00:00 PM 8.88 47.984 0.228 8.22 11.32 12.53
5/9/2021 1:15:00 PM 8.91 48.038 0.229 8.22 13.68 12.45
5/9/2021 1:30:00 PM 8.93 48.074 0.229 8.22 11.75 12.4
5/9/2021 1:45:00 PM 8.97 48.146 0.23 8.22 11.99 12.37
5/9/2021 2:00:00 PM 9 48.2 0.23 8.23 11.81 12.33
5/9/2021 2:15:00 PM 9.02 48.236 0.229 8.23 11.78 12.29
5/9/2021 2:30:00 PM 9.04 48.272 0.229 8.22 12.27 12.27
5/9/2021 2:45:00 PM 9.06 48.308 0.229 8.22 11.6 12.21
5/9/2021 3:00:00 PM 9.07 48.326 0.229 8.21 12.9 12.16
5/9/2021 3:15:00 PM 9.06 48.308 0.229 8.17 12.98 12.08
5/9/2021 3:30:00 PM 9.06 48.308 0.228 8.15 14.46 12.05
5/9/2021 3:45:00 PM 9.05 48.29 0.228 8.15 12 12.03
5/9/2021 4:00:00 PM 9.02 48.236 0.227 8.14 12.61 12
5/9/2021 4:15:00 PM 9.01 48.218 0.227 8.1 13.26 11.92
5/9/2021 4:30:00 PM 8.99 48.182 0.227 8.09 13.07 11.9
5/9/2021 4:45:00 PM 8.95 48.11 0.227 8.06 14.6 11.85
5/9/2021 5:00:00 PM 8.91 48.038 0.227 8.03 14.98 11.8
5/9/2021 5:15:00 PM 8.86 47.948 0.227 8.01 14.53 11.76
5/9/2021 5:30:00 PM 8.8 47.84 0.228 7.97 14.96 11.71
5/9/2021 5:45:00 PM 8.76 47.768 0.23 7.94 16.79 11.67
5/9/2021 6:00:00 PM 8.69 47.642 0.231 7.9 15.65 11.63
5/9/2021 6:15:00 PM 8.62 47.516 0.231 7.88 15.62 11.59
5/9/2021 6:30:00 PM 8.54 47.372 0.229 7.85 16.8 11.53
5/9/2021 6:45:00 PM 8.42 47.156 0.228 7.82 18.36 11.47
5/9/2021 7:00:00 PM 8.27 46.886 0.228 7.79 18.95 11.46
5/9/2021 7:15:00 PM 8.12 46.616 0.227 7.76 17.55 11.43
5/9/2021 7:30:00 PM 7.94 46.292 0.226 7.73 33.68 11.41
5/9/2021 7:45:00 PM 7.78 46.004 0.224 7.73 33.34 11.39
5/9/2021 8:00:00 PM 7.65 45.77 0.221 7.71 41.53 11.42
5/9/2021 8:15:00 PM 7.49 45.482 0.217 7.68 52.89 11.43
5/9/2021 8:30:00 PM 7.33 45.194 0.214 7.67 49.55 11.46
5/9/2021 8:45:00 PM 7.17 44.906 0.212 7.64 70.45 11.49
5/9/2021 9:00:00 PM 7.06 44.708 0.21 7.61 101.1 11.53
5/9/2021 9:15:00 PM 6.92 44.456 0.21 7.59 114 11.6
5/9/2021 9:30:00 PM 6.8 44.24 0.209 7.56 149.18 11.64
5/9/2021 9:45:00 PM 6.66 43.988 0.207 7.54 136.57 11.66
5/9/2021 10:00:00 PM 6.54 43.772 0.207 7.53 119.72 11.72
5/9/2021 10:15:00 PM 6.45 43.61 0.208 7.51 118.62 11.76
5/9/2021 10:30:00 PM 6.38 43.484 0.208 7.5 108.89 11.79
5/9/2021 10:45:00 PM 6.33 43.394 0.208 7.49 105.5 11.83
5/9/2021 11:00:00 PM 6.27 43.286 0.207 7.49 71.23 11.84
5/9/2021 11:15:00 PM 6.21 43.178 0.206 7.48 74.21 11.86
5/9/2021 11:30:00 PM 6.16 43.088 0.205 7.48 74.61 11.87
5/9/2021 11:45:00 PM 6.11 42.998 0.204 7.45 85.07 11.89
5/10/2021 12:00:00 AM 6.08 42.944 0.204 7.48 64.62 11.91
5/10/2021 12:15:00 AM 6.04 42.872 0.203 7.47 52.54 11.93
5/10/2021 12:30:00 AM 6.02 42.836 0.203 7.47 51.64 11.94
5/10/2021 12:45:00 AM 5.99 42.782 0.202 7.48 55.66 11.93
5/10/2021 1:00:00 AM 5.97 42.746 0.201 7.48 50.88 11.95
5/10/2021 1:15:00 AM 5.95 42.71 0.201 7.48 58.01 11.97
5/10/2021 1:30:00 AM 5.93 42.674 0.2 7.49 47.33 11.97
5/10/2021 1:45:00 AM 5.92 42.656 0.199 7.49 59.19 11.97
5/10/2021 2:00:00 AM 5.92 42.656 0.198 7.47 61.43 12
5/10/2021 2:15:00 AM 5.91 42.638 0.198 7.5 56.83 11.99
5/10/2021 2:30:00 AM 5.9 42.62 0.197 7.49 60.59 11.99
5/10/2021 2:45:00 AM 5.89 42.602 0.195 7.49 76.89 11.99
5/10/2021 3:00:00 AM 5.87 42.566 0.194 7.49 79.68 12
5/10/2021 3:15:00 AM 5.87 42.566 0.193 7.49 81.99 12.02
5/10/2021 3:30:00 AM 5.86 42.548 0.191 7.48 90.53 12.01
5/10/2021 3:45:00 AM 5.86 42.548 0.19 7.48 79.56 12.02
5/10/2021 4:00:00 AM 5.86 42.548 0.189 7.48 78.52 12.02
5/10/2021 4:15:00 AM 5.86 42.548 0.189 7.48 108.74 12.03
5/10/2021 4:30:00 AM 5.87 42.566 0.188 7.48 66.17 12.02
5/10/2021 4:45:00 AM 5.87 42.566 0.188 7.47 93.17 12.01
5/10/2021 5:00:00 AM 5.88 42.584 0.187 7.47 80.82 12.01
5/10/2021 5:15:00 AM 5.88 42.584 0.187 7.46 68.88 12.02
5/10/2021 5:30:00 AM 5.89 42.602 0.186 7.47 77.97 12.02
5/10/2021 5:45:00 AM 5.9 42.62 0.186 7.47 70.92 12.01
5/10/2021 6:00:00 AM 5.91 42.638 0.185 7.45 62.52 12.01
5/10/2021 6:15:00 AM 5.93 42.674 0.185 7.47 81.42 11.99
5/10/2021 6:30:00 AM 5.94 42.692 0.184 7.47 67.34 12
5/10/2021 6:45:00 AM 5.96 42.728 0.184 7.47 60.21 12
5/10/2021 7:00:00 AM 5.98 42.764 0.183 7.45 66.59 12
5/10/2021 7:15:00 AM 6 42.8 0.183 7.47 57.55 11.99
5/10/2021 7:30:00 AM 6.03 42.854 0.182 7.46 87.86 11.98
5/10/2021 7:45:00 AM 6.06 42.908 0.182 7.47 70.98 11.98
5/10/2021 8:00:00 AM 6.1 42.98 0.181 7.46 56.44 11.98
5/10/2021 8:15:00 AM 6.15 43.07 0.181 7.48 49.03 12
5/10/2021 8:30:00 AM 6.2 43.16 0.181 7.49 53.21 12.01
5/10/2021 8:45:00 AM 6.28 43.304 0.18 7.5 51.36 12.04
5/10/2021 9:00:00 AM 6.37 43.466 0.18 7.51 47.42 12.05
5/10/2021 9:15:00 AM 6.47 43.646 0.18 7.52 53.45 12.04
5/10/2021 9:30:00 AM 6.52 43.736 0.179 7.52 35.57 12.03
5/10/2021 9:45:00 AM 6.73 44.114 0.179 7.52 45.32 12.03
5/10/2021 10:00:00 AM 6.86 44.348 0.179 7.54 43.19 12.03
5/10/2021 10:15:00 AM 6.94 44.492 0.179 7.55 45.72 12.05
5/10/2021 10:30:00 AM 7.12 44.816 0.178 7.56 48.57 12.03
5/10/2021 10:45:00 AM 7.4 45.32 0.178 7.58 50.43 12
5/10/2021 11:00:00 AM 7.64 45.752 0.178 7.58 49.56 11.98
5/10/2021 11:15:00 AM 7.89 46.202 0.178 7.59 44.28 11.91
5/10/2021 11:30:00 AM 8.14 46.652 0.177 7.6 45.84 11.89
5/10/2021 11:45:00 AM 8.35 47.03 0.176 7.61 41.89 11.82
5/10/2021 12:00:00 PM 8.5 47.3 0.175 7.6 48.38 11.7
5/10/2021 12:15:00 PM 8.81 47.858 0.174 7.61 57.59 11.66
5/10/2021 12:30:00 PM 8.93 48.074 0.173 7.59 68.76 11.55
5/10/2021 12:45:00 PM 9.12 48.416 0.171 7.58 92.61 11.45
5/10/2021 1:00:00 PM 9.28 48.704 0.169 7.58 88.83 11.38
5/10/2021 1:15:00 PM 9.51 49.118 0.167 7.57 118.2 11.28
5/10/2021 1:30:00 PM 9.65 49.37 0.166 7.57 163.94 11.2
5/10/2021 1:45:00 PM 9.75 49.55 0.166 7.55 165.81 11.15
5/10/2021 2:00:00 PM 9.85 49.73 0.165 7.55 184.82 11.11
5/10/2021 2:15:00 PM 9.99 49.982 0.164 7.54 200.55 11.06
5/10/2021 2:30:00 PM 10.15 50.27 0.163 7.51 189.93 11.01
5/10/2021 2:45:00 PM 10.23 50.414 0.162 7.53 199.33 10.97
5/10/2021 3:00:00 PM 10.35 50.63 0.161 7.52 170.72 10.93
5/10/2021 3:15:00 PM 10.56 51.008 0.16 7.51 193.38 10.92
5/10/2021 3:30:00 PM 10.68 51.224 0.159 7.49 167.39 10.88
5/10/2021 3:45:00 PM 10.77 51.386 0.159 7.51 215.23 10.85
5/10/2021 4:00:00 PM 10.9 51.62 0.159 7.49 152.44 10.81
5/10/2021 4:15:00 PM 10.94 51.692 0.159 7.48 177.69 10.8
5/10/2021 4:30:00 PM 10.96 51.728 0.159 7.49 116.09 10.78
5/10/2021 4:45:00 PM 10.99 51.782 0.159 7.48 137.76 10.77
5/10/2021 5:00:00 PM 11.05 51.89 0.16 7.49 126.37 10.76
5/10/2021 5:15:00 PM 11.07 51.926 0.16 7.49 92.62 10.76
5/10/2021 5:30:00 PM 11.12 52.016 0.161 7.49 129.15 10.75
5/10/2021 5:45:00 PM 11.12 52.016 0.161 7.47 105.62 10.75
5/10/2021 6:00:00 PM 11.1 51.98 0.162 7.48 89.33 10.74
5/10/2021 6:15:00 PM 11.06 51.908 0.162 7.47 86.81 10.74
5/10/2021 6:30:00 PM 11.01 51.818 0.163 7.48 84 10.74
5/10/2021 6:45:00 PM 10.98 51.764 0.164 7.47 86.65 10.73
5/10/2021 7:00:00 PM 10.92 51.656 0.165 7.47 55.72 10.72
5/10/2021 7:15:00 PM 10.85 51.53 0.165 7.46 54.6 10.72
5/10/2021 7:30:00 PM 10.78 51.404 0.166 7.45 67.74 10.73
5/10/2021 7:45:00 PM 10.69 51.242 0.166 7.47 71.12 10.76
5/10/2021 8:00:00 PM 10.59 51.062 0.167 7.46 67.42 10.76
5/10/2021 8:15:00 PM 10.48 50.864 0.168 7.45 74.61 10.78
5/10/2021 8:30:00 PM 10.37 50.666 0.168 7.42 94.76 10.79
5/10/2021 8:45:00 PM 10.27 50.486 0.169 7.45 54.21 10.78
5/10/2021 9:00:00 PM 10.16 50.288 0.169 7.43 62.35 10.8
5/10/2021 9:15:00 PM 10.04 50.072 0.17 7.43 57.74 10.83
5/10/2021 9:30:00 PM 9.93 49.874 0.17 7.42 48.01 10.85
5/10/2021 9:45:00 PM 9.83 49.694 0.171 7.42 40.23 10.87
5/10/2021 10:00:00 PM 9.73 49.514 0.171 7.43 46.48 10.88
5/10/2021 10:15:00 PM 9.62 49.316 0.172 7.42 44 10.9
5/10/2021 10:30:00 PM 9.52 49.136 0.173 7.41 40.54 10.93
5/10/2021 10:45:00 PM 9.42 48.956 0.173 7.41 40.18 10.97
5/10/2021 11:00:00 PM 9.32 48.776 0.174 7.42 43.7 11
5/10/2021 11:15:00 PM 9.22 48.596 0.174 7.41 46.63 11.01
5/10/2021 11:30:00 PM 9.12 48.416 0.175 7.4 49.5 11.03
5/10/2021 11:45:00 PM 9.02 48.236 0.175 7.4 44.27 11.06
5/11/2021 12:00:00 AM 8.93 48.074 0.176 7.41 38.26 11.09
5/11/2021 12:15:00 AM 8.83 47.894 0.176 7.4 35.64 11.12
5/11/2021 12:30:00 AM 8.73 47.714 0.177 7.4 29.36 11.15
5/11/2021 12:45:00 AM 8.64 47.552 0.177 7.39 28.56 11.17
5/11/2021 1:00:00 AM 8.55 47.39 0.177 7.4 41.77 11.18
5/11/2021 1:15:00 AM 8.46 47.228 0.178 7.39 36.06 11.2
5/11/2021 1:30:00 AM 8.37 47.066 0.179 7.39 47.97 11.22
5/11/2021 1:45:00 AM 8.29 46.922 0.179 7.39 32.17 11.25
5/11/2021 2:00:00 AM 8.22 46.796 0.18 7.39 42.51 11.29
5/11/2021 2:15:00 AM 8.14 46.652 0.18 7.39 32.46 11.31
5/11/2021 2:30:00 AM 8.06 46.508 0.181 7.38 31.84 11.33
5/11/2021 2:45:00 AM 7.98 46.364 0.181 7.38 25.02 11.34
5/11/2021 3:00:00 AM 7.9 46.22 0.181 7.38 30.08 11.36
5/11/2021 3:15:00 AM 7.82 46.076 0.182 7.39 29.29 11.38
5/11/2021 3:30:00 AM 7.74 45.932 0.182 7.39 32.46 11.41
5/11/2021 3:45:00 AM 7.67 45.806 0.183 7.39 28.18 11.44
5/11/2021 4:00:00 AM 7.6 45.68 0.183 7.39 29.55 11.46
5/11/2021 4:15:00 AM 7.53 45.554 0.183 7.38 26.07 11.49
5/11/2021 4:30:00 AM 7.45 45.41 0.184 7.38 27.46 11.5
5/11/2021 4:45:00 AM 7.38 45.284 0.184 7.38 26.02 11.52
5/11/2021 5:00:00 AM 7.31 45.158 0.184 7.38 37.48 11.53
5/11/2021 5:15:00 AM 7.24 45.032 0.185 7.38 22.53 11.54
5/11/2021 5:30:00 AM 7.17 44.906 0.185 7.38 31.18 11.57
5/11/2021 5:45:00 AM 7.1 44.78 0.185 7.38 26.63 11.61
5/11/2021 6:00:00 AM 7.04 44.672 0.186 7.37 32.52 11.63
5/11/2021 6:15:00 AM 6.99 44.582 0.186 7.38 29.06 11.66
5/11/2021 6:30:00 AM 6.94 44.492 0.187 7.39 22.08 11.7
5/11/2021 6:45:00 AM 6.9 44.42 0.187 7.35 30.49 11.72
5/11/2021 7:00:00 AM 6.85 44.33 0.187 7.4 25.86 11.76
5/11/2021 7:15:00 AM 6.82 44.276 0.188 7.4 24.29 11.81
5/11/2021 7:30:00 AM 6.8 44.24 0.188 7.38 24.66 11.86
5/11/2021 7:45:00 AM 6.8 44.24 0.188 7.42 24.34 11.9
5/11/2021 8:00:00 AM 6.82 44.276 0.188 7.43 23.33 11.95
5/11/2021 8:15:00 AM 6.85 44.33 0.189 7.44 24.21 12
5/11/2021 8:30:00 AM 6.9 44.42 0.189 7.46 17.57 12.05
5/11/2021 8:45:00 AM 6.96 44.528 0.189 7.47 21.6 12.08
5/11/2021 9:00:00 AM 7.05 44.69 0.19 7.5 19.07 12.13
5/11/2021 9:15:00 AM 7.17 44.906 0.19 7.5 20.89 12.14
5/11/2021 9:30:00 AM 7.32 45.176 0.19 7.53 22.47 12.16
5/11/2021 9:45:00 AM 7.43 45.374 0.191 7.54 20.47 12.17
5/11/2021 10:00:00 AM 7.48 45.464 0.191 7.57 20.42 12.16
5/11/2021 10:15:00 AM 7.53 45.554 0.192 7.56 18.55 12.16
5/11/2021 10:30:00 AM 7.59 45.662 0.192 7.57 19.94 12.14
5/11/2021 10:45:00 AM 7.67 45.806 0.192 7.6 19.61 12.15
5/11/2021 11:00:00 AM 7.9 46.22 0.193 7.6 16.21 12.13
5/11/2021 11:15:00 AM 8.13 46.634 0.192 7.62 20.56 12.15
5/11/2021 11:30:00 AM 8.2 46.76 0.193 7.63 17.16 12.09
5/11/2021 11:45:00 AM 8.29 46.922 0.193 7.61 23.91 12.05
5/11/2021 12:00:00 PM 8.47 47.246 0.194 7.64 18.49 12.03
5/11/2021 12:15:00 PM 8.56 47.408 0.194 7.65 19.17 12
5/11/2021 12:30:00 PM 8.83 47.894 0.194 7.67 16.78 12
5/11/2021 12:45:00 PM 9.17 48.506 0.195 7.66 19.27 11.98
5/11/2021 1:00:00 PM 9.51 49.118 0.195 7.69 22.46 11.97
5/11/2021 1:15:00 PM 9.52 49.136 0.196 7.7 23.32 11.86
5/11/2021 1:30:00 PM 9.59 49.262 0.196 7.69 18.72 11.79
5/11/2021 1:45:00 PM 9.57 49.226 0.197 7.69 19.01 11.75
5/11/2021 2:00:00 PM 9.65 49.37 0.197 7.7 15.83 11.74
5/11/2021 2:15:00 PM 9.8 49.64 0.198 7.71 19.22 11.76
5/11/2021 2:30:00 PM 9.95 49.91 0.198 7.72 24.79 11.75
5/11/2021 2:45:00 PM 10.21 50.378 0.198 7.74 16.52 11.71
5/11/2021 3:00:00 PM 10.36 50.648 0.199 7.75 15.45 11.69
5/11/2021 3:15:00 PM 10.51 50.918 0.2 7.75 22.21 11.67
5/11/2021 3:30:00 PM 10.58 51.044 0.2 7.75 20.99 11.63
5/11/2021 3:45:00 PM 10.71 51.278 0.2 7.76 23.68 11.61
5/11/2021 4:00:00 PM 10.85 51.53 0.2 7.78 18.99 11.58
5/11/2021 4:15:00 PM 10.92 51.656 0.201 7.77 19.02 11.53
5/11/2021 4:30:00 PM 10.99 51.782 0.201 7.79 19.83 11.51
5/11/2021 4:45:00 PM 11.03 51.854 0.201 7.79 15.63 11.47
5/11/2021 5:00:00 PM 11.04 51.872 0.202 7.79 18.01 11.44
5/11/2021 5:15:00 PM 11.06 51.908 0.201 7.75 15.45 11.38
5/11/2021 5:30:00 PM 11.05 51.89 0.202 7.76 19.92 11.35
5/11/2021 5:45:00 PM 11.04 51.872 0.202 7.76 16.46 11.32
5/11/2021 6:00:00 PM 10.99 51.782 0.203 7.72 19.31 11.26
5/11/2021 6:15:00 PM 10.96 51.728 0.203 7.72 18.58 11.23
5/11/2021 6:30:00 PM 10.92 51.656 0.203 7.7 16.5 11.18
5/11/2021 6:45:00 PM 10.86 51.548 0.203 7.68 17.11 11.11
5/11/2021 7:00:00 PM 10.8 51.44 0.203 7.64 16.91 11.04
5/11/2021 7:15:00 PM 10.75 51.35 0.204 7.63 18.3 11.01
5/11/2021 7:30:00 PM 10.69 51.242 0.203 7.62 17.63 10.99
5/11/2021 7:45:00 PM 10.62 51.116 0.203 7.6 18.69 10.95
5/11/2021 8:00:00 PM 10.53 50.954 0.204 7.58 19.36 10.94
5/11/2021 8:15:00 PM 10.42 50.756 0.204 7.58 21.3 10.92
5/11/2021 8:30:00 PM 10.32 50.576 0.204 7.54 20.43 10.88
5/11/2021 8:45:00 PM 10.2 50.36 0.204 7.51 18.46 10.86
5/11/2021 9:00:00 PM 10.09 50.162 0.204 7.53 18.27 10.86
5/11/2021 9:15:00 PM 9.99 49.982 0.204 7.52 16.3 10.88
5/11/2021 9:30:00 PM 9.88 49.784 0.204 7.51 19.29 10.89
5/11/2021 9:45:00 PM 9.78 49.604 0.204 7.51 22.44 10.9
5/11/2021 10:00:00 PM 9.68 49.424 0.204 7.5 23.75 10.9
5/11/2021 10:15:00 PM 9.58 49.244 0.203 7.48 21.54 10.9
5/11/2021 10:30:00 PM 9.46 49.028 0.204 7.49 19.31 10.95
5/11/2021 10:45:00 PM 9.35 48.83 0.203 7.48 19.31 10.97
5/11/2021 11:00:00 PM 9.24 48.632 0.204 7.47 17.78 11
5/11/2021 11:15:00 PM 9.14 48.452 0.204 7.47 16.31 11.01
5/11/2021 11:30:00 PM 9.04 48.272 0.205 7.46 18.76 11.02
5/11/2021 11:45:00 PM 8.94 48.092 0.205 7.45 14.52 11.05
5/12/2021 12:00:00 AM 8.85 47.93 0.205 7.47 15.28 11.09
5/12/2021 12:15:00 AM 8.75 47.75 0.205 7.46 17.93 11.13
5/12/2021 12:30:00 AM 8.65 47.57 0.205 7.45 17.22 11.14
5/12/2021 12:45:00 AM 8.55 47.39 0.206 7.45 16.6 11.16
5/12/2021 1:00:00 AM 8.46 47.228 0.206 7.45 19.84 11.18
5/12/2021 1:15:00 AM 8.37 47.066 0.206 7.45 16.84 11.21
5/12/2021 1:30:00 AM 8.28 46.904 0.206 7.44 16.29 11.24
5/12/2021 1:45:00 AM 8.2 46.76 0.206 7.44 16.11 11.26
5/12/2021 2:00:00 AM 8.11 46.598 0.206 7.45 16.41 11.3
5/12/2021 2:15:00 AM 8.04 46.472 0.206 7.45 16.33 11.32
5/12/2021 2:30:00 AM 7.95 46.31 0.207 7.44 16.09 11.32
5/12/2021 2:45:00 AM 7.87 46.166 0.207 7.45 17.68 11.34
5/12/2021 3:00:00 AM 7.79 46.022 0.207 7.44 21.06 11.36
5/12/2021 3:15:00 AM 7.72 45.896 0.207 7.44 20.45 11.39
5/12/2021 3:30:00 AM 7.65 45.77 0.207 7.44 19.97 11.42
5/12/2021 3:45:00 AM 7.58 45.644 0.208 7.44 25.93 11.45
5/12/2021 4:00:00 AM 7.54 45.572 0.208 7.45 18.14 11.47
5/12/2021 4:15:00 AM 7.49 45.482 0.208 7.44 17.54 11.49
5/12/2021 4:30:00 AM 7.42 45.356 0.208 7.44 16.24 11.49
5/12/2021 4:45:00 AM 7.37 45.266 0.208 7.44 16.66 11.51
5/12/2021 5:00:00 AM 7.31 45.158 0.208 7.4 17.03 11.52
5/12/2021 5:15:00 AM 7.25 45.05 0.208 7.43 14.78 11.53
5/12/2021 5:30:00 AM 7.19 44.942 0.209 7.43 15.92 11.56
5/12/2021 5:45:00 AM 7.13 44.834 0.209 7.43 17.21 11.59
5/12/2021 6:00:00 AM 7.07 44.726 0.209 7.43 16.79 11.63
5/12/2021 6:15:00 AM 7.02 44.636 0.209 7.39 16.27 11.65
5/12/2021 6:30:00 AM 6.98 44.564 0.209 7.43 16.23 11.71
5/12/2021 6:45:00 AM 6.94 44.492 0.209 7.44 16.31 11.77
5/12/2021 7:00:00 AM 6.91 44.438 0.209 7.44 16.08 11.82
5/12/2021 7:15:00 AM 6.89 44.402 0.209 7.46 15.83 11.9
5/12/2021 7:30:00 AM 6.89 44.402 0.209 7.47 14.6 11.97
5/12/2021 7:45:00 AM 6.9 44.42 0.209 7.48 15.26 12.05
5/12/2021 8:00:00 AM 6.93 44.474 0.209 7.51 14.24 12.13
5/12/2021 8:15:00 AM 6.96 44.528 0.209 7.53 14.73 12.19
5/12/2021 8:30:00 AM 7 44.6 0.21 7.56 15.63 12.24
5/12/2021 8:45:00 AM 7.08 44.744 0.21 7.57 13.91 12.29
5/12/2021 9:00:00 AM 7.19 44.942 0.21 7.6 14.97 12.33
5/12/2021 9:15:00 AM 7.33 45.194 0.21 7.63 13.34 12.37
5/12/2021 9:30:00 AM 7.49 45.482 0.21 7.65 13.81 12.43
5/12/2021 9:45:00 AM 7.67 45.806 0.21 7.68 15.61 12.44
5/12/2021 10:00:00 AM 7.88 46.184 0.211 7.7 14.87 12.45
5/12/2021 10:15:00 AM 8.11 46.598 0.211 7.73 15.42 12.48
5/12/2021 10:30:00 AM 8.35 47.03 0.211 7.76 16.11 12.46
5/12/2021 10:45:00 AM 8.6 47.48 0.211 7.78 15.2 12.46
5/12/2021 11:00:00 AM 8.86 47.948 0.211 7.81 14.35 12.46
5/12/2021 11:15:00 AM 9.11 48.398 0.211 7.83 13.49 12.4
5/12/2021 11:30:00 AM 9.25 48.65 0.212 7.84 13.3 12.35
5/12/2021 11:45:00 AM 9.34 48.812 0.212 7.84 12.81 12.27
5/12/2021 12:00:00 PM 9.57 49.226 0.212 7.87 13.84 12.25
5/12/2021 12:15:00 PM 9.69 49.442 0.212 7.88 15.12 12.18
5/12/2021 12:30:00 PM 9.86 49.748 0.212 7.89 14.54 12.18
5/12/2021 12:45:00 PM 10.12 50.216 0.212 7.92 13.41 12.14
5/12/2021 1:00:00 PM 10.38 50.684 0.213 7.94 15.21 12.12
5/12/2021 1:15:00 PM 10.56 51.008 0.213 7.96 13.55 12.07
5/12/2021 1:30:00 PM 10.88 51.584 0.213 7.98 14.76 12.02
5/12/2021 1:45:00 PM 11.11 51.998 0.213 8 13.65 11.99
5/12/2021 2:00:00 PM 11.17 52.106 0.214 8.01 12.62 11.94
5/12/2021 2:15:00 PM 11.25 52.25 0.214 8 14.52 11.89
5/12/2021 2:30:00 PM 11.43 52.574 0.214 8 14.93 11.79
5/12/2021 2:45:00 PM 11.53 52.754 0.214 8.01 14.04 11.76
5/12/2021 3:00:00 PM 11.55 52.79 0.214 8.02 12.57 11.7
5/12/2021 3:15:00 PM 11.78 53.204 0.215 8.03 13.2 11.73
5/12/2021 3:30:00 PM 11.8 53.24 0.215 8.01 14.56 11.62
5/12/2021 3:45:00 PM 12.06 53.708 0.215 8.06 15.13 11.66
5/12/2021 4:00:00 PM 12.19 53.942 0.215 8.08 12.18 11.63
5/12/2021 4:15:00 PM 12.27 54.086 0.216 8.05 12.21 11.54
5/12/2021 4:30:00 PM 12.45 54.41 0.215 8.06 15.06 11.53
5/12/2021 4:45:00 PM 12.54 54.572 0.216 8.1 13.25 11.53
5/12/2021 5:00:00 PM 12.59 54.662 0.216 8.07 14.37 11.49
5/12/2021 5:15:00 PM 12.62 54.716 0.216 8.07 13.84 11.38
5/12/2021 5:30:00 PM 12.68 54.824 0.216 8.05 14.58 11.33
5/12/2021 5:45:00 PM 12.66 54.788 0.216 8.03 13.83 11.27
5/12/2021 6:00:00 PM 12.66 54.788 0.216 8.02 13.79 11.21
5/12/2021 6:15:00 PM 12.63 54.734 0.216 7.98 15.67 11.15
5/12/2021 6:30:00 PM 12.58 54.644 0.216 7.96 14.36 11.08
5/12/2021 6:45:00 PM 12.5 54.5 0.216 7.92 14.36 11
5/12/2021 7:00:00 PM 12.43 54.374 0.216 7.89 15.35 10.93
5/12/2021 7:15:00 PM 12.35 54.23 0.216 7.85 15.58 10.86
5/12/2021 7:30:00 PM 12.26 54.068 0.216 7.8 15.22 10.78
5/12/2021 7:45:00 PM 12.18 53.924 0.216 7.77 16.01 10.72
5/12/2021 8:00:00 PM 12.07 53.726 0.216 7.71 17.34 10.65
5/12/2021 8:15:00 PM 11.96 53.528 0.217 7.68 15.88 10.6
5/12/2021 8:30:00 PM 11.84 53.312 0.217 7.65 14.91 10.56
5/12/2021 8:45:00 PM 11.72 53.096 0.217 7.62 14.15 10.53
5/12/2021 9:00:00 PM 11.6 52.88 0.217 7.6 15.49 10.51
5/12/2021 9:15:00 PM 11.48 52.664 0.217 7.59 15.61 10.5
5/12/2021 9:30:00 PM 11.37 52.466 0.217 7.55 15.94 10.48
5/12/2021 9:45:00 PM 11.24 52.232 0.217 7.55 15.98 10.49
5/12/2021 10:00:00 PM 11.11 51.998 0.217 7.53 15.91 10.52
5/12/2021 10:15:00 PM 10.98 51.764 0.217 7.52 15.2 10.54
5/12/2021 10:30:00 PM 10.86 51.548 0.217 7.51 17.76 10.54
5/12/2021 10:45:00 PM 10.73 51.314 0.217 7.5 15.06 10.56
5/12/2021 11:00:00 PM 10.61 51.098 0.217 7.51 15.65 10.6
5/12/2021 11:15:00 PM 10.48 50.864 0.217 7.5 17.62 10.63
5/12/2021 11:30:00 PM 10.35 50.63 0.217 7.49 13.78 10.66
5/12/2021 11:45:00 PM 10.21 50.378 0.217 7.48 15.9 10.67
5/13/2021 12:00:00 AM 10.08 50.144 0.217 7.48 17.83 10.71
5/13/2021 12:15:00 AM 9.95 49.91 0.217 7.47 16.75 10.76
5/13/2021 12:30:00 AM 9.81 49.658 0.217 7.48 14.91 10.8
5/13/2021 12:45:00 AM 9.69 49.442 0.217 7.48 14.95 10.82
5/13/2021 1:00:00 AM 9.56 49.208 0.217 7.47 13.61 10.85
5/13/2021 1:15:00 AM 9.43 48.974 0.217 7.47 15.19 10.89
5/13/2021 1:30:00 AM 9.31 48.758 0.217 7.47 14.68 10.93
5/13/2021 1:45:00 AM 9.19 48.542 0.217 7.47 15.72 10.97
5/13/2021 2:00:00 AM 9.08 48.344 0.217 7.46 15.37 10.98
5/13/2021 2:15:00 AM 8.97 48.146 0.217 7.47 24.06 11.01
5/13/2021 2:30:00 AM 8.86 47.948 0.216 7.46 18.09 11.04
5/13/2021 2:45:00 AM 8.76 47.768 0.216 7.46 15.61 11.08
5/13/2021 3:00:00 AM 8.66 47.588 0.216 7.46 15.46 11.12
5/13/2021 3:15:00 AM 8.56 47.408 0.216 7.46 15.6 11.13
5/13/2021 3:30:00 AM 8.46 47.228 0.216 7.46 14.33 11.16
5/13/2021 3:45:00 AM 8.37 47.066 0.216 7.46 15.81 11.18
5/13/2021 4:00:00 AM 8.27 46.886 0.216 7.46 15.42 11.22
5/13/2021 4:15:00 AM 8.18 46.724 0.216 7.45 16.75 11.26
5/13/2021 4:30:00 AM 8.09 46.562 0.216 7.45 20.41 11.28
5/13/2021 4:45:00 AM 8 46.4 0.216 7.45 17.96 11.3
5/13/2021 5:00:00 AM 7.92 46.256 0.216 7.44 17.19 11.32
5/13/2021 5:15:00 AM 7.83 46.094 0.216 7.43 15.03 11.34
5/13/2021 5:30:00 AM 7.75 45.95 0.216 7.43 16.25 11.37
5/13/2021 5:45:00 AM 7.66 45.788 0.216 7.42 15.23 11.4
5/13/2021 6:00:00 AM 7.58 45.644 0.216 7.42 13.94 11.44
5/13/2021 6:15:00 AM 7.51 45.518 0.216 7.42 15.15 11.49
5/13/2021 6:30:00 AM 7.44 45.392 0.216 7.43 14.6 11.56
5/13/2021 6:45:00 AM 7.38 45.284 0.216 7.43 13.31 11.63
5/13/2021 7:00:00 AM 7.33 45.194 0.216 7.45 14.23 11.71
5/13/2021 7:15:00 AM 7.3 45.14 0.216 7.47 15.57 11.83
5/13/2021 7:30:00 AM 7.28 45.104 0.216 7.49 13.87 11.95
5/13/2021 7:45:00 AM 7.28 45.104 0.216 7.53 14.66 12.06
5/13/2021 8:00:00 AM 7.31 45.158 0.216 7.55 13.2 12.16
5/13/2021 8:15:00 AM 7.34 45.212 0.216 7.58 13.08 12.26
5/13/2021 8:30:00 AM 7.41 45.338 0.215 7.62 13.6 12.35
5/13/2021 8:45:00 AM 7.46 45.428 0.215 7.64 14.47 12.4
5/13/2021 9:00:00 AM 7.56 45.608 0.215 7.68 12.25 12.48
5/13/2021 9:15:00 AM 7.71 45.878 0.215 7.71 15.31 12.55
5/13/2021 9:30:00 AM 7.89 46.202 0.216 7.77 14.65 12.61
5/13/2021 9:45:00 AM 8.1 46.58 0.216 7.82 12.27 12.68
5/13/2021 10:00:00 AM 8.33 46.994 0.216 7.86 12.8 12.73
5/13/2021 10:15:00 AM 8.58 47.444 0.216 7.91 13.31 12.72
5/13/2021 10:30:00 AM 8.84 47.912 0.216 7.95 12.48 12.76
5/13/2021 10:45:00 AM 9.13 48.434 0.216 8 15.13 12.74
5/13/2021 11:00:00 AM 9.4 48.92 0.216 8.04 12.62 12.77
5/13/2021 11:15:00 AM 9.53 49.154 0.217 8.05 12.91 12.64
5/13/2021 11:30:00 AM 9.77 49.586 0.217 8.06 12.93 12.59
5/13/2021 11:45:00 AM 9.9 49.82 0.217 8.09 13.33 12.55
5/13/2021 12:00:00 PM 10.01 50.018 0.217 8.12 14.33 12.48
5/13/2021 12:15:00 PM 10.27 50.486 0.217 8.15 13.89 12.48
5/13/2021 12:30:00 PM 10.29 50.522 0.217 8.17 13.28 12.39
5/13/2021 12:45:00 PM 10.65 51.17 0.217 8.21 17.27 12.45
5/13/2021 1:00:00 PM 10.69 51.242 0.218 8.25 12.74 12.4
5/13/2021 1:15:00 PM 10.9 51.62 0.217 8.27 12.62 12.4
5/13/2021 1:30:00 PM 11.24 52.232 0.218 8.33 12.99 12.42
5/13/2021 1:45:00 PM 11.42 52.556 0.218 8.37 13.11 12.39
5/13/2021 2:00:00 PM 11.66 52.988 0.218 8.37 15.8 12.27
5/13/2021 2:15:00 PM 11.77 53.186 0.218 8.34 14.13 12.05
5/13/2021 2:30:00 PM 12.07 53.726 0.218 8.37 13.86 12.04
5/13/2021 2:45:00 PM 12.27 54.086 0.218 8.38 13.34 12.05
5/13/2021 3:00:00 PM 12.68 54.824 0.218 8.43 15.01 12.11
5/13/2021 3:15:00 PM 12.98 55.364 0.219 8.47 13.95 12.13
5/13/2021 3:30:00 PM 13.12 55.616 0.219 8.48 14.15 12.03
5/13/2021 3:45:00 PM 13.19 55.742 0.219 8.48 13.76 11.91
5/13/2021 4:00:00 PM 13.34 56.012 0.219 8.5 15.31 11.98
5/13/2021 4:15:00 PM 13.28 55.904 0.219 8.49 15.13 11.83
5/13/2021 4:30:00 PM 13.37 56.066 0.219 8.49 12.82 11.79
5/13/2021 4:45:00 PM 13.47 56.246 0.219 8.5 12.49 11.77
5/13/2021 5:00:00 PM 13.48 56.264 0.219 8.49 10.58 11.61
5/13/2021 5:15:00 PM 13.51 56.318 0.219 8.48 13.29 11.56
5/13/2021 5:30:00 PM 13.57 56.426 0.22 8.48 14.1 11.5
5/13/2021 5:45:00 PM 13.62 56.516 0.22 8.47 13.3 11.44
5/13/2021 6:00:00 PM 13.61 56.498 0.22 8.44 12.52 11.36
5/13/2021 6:15:00 PM 13.57 56.426 0.22 8.39 12.5 11.26
5/13/2021 6:30:00 PM 13.54 56.372 0.22 8.36 13.14 11.15
5/13/2021 6:45:00 PM 13.5 56.3 0.22 8.3 15.23 11.01
5/13/2021 7:00:00 PM 13.44 56.192 0.22 8.23 14.13 10.89
5/13/2021 7:15:00 PM 13.4 56.12 0.22 8.16 13.14 10.79
5/13/2021 7:30:00 PM 13.32 55.976 0.22 8.07 13.5 10.7
5/13/2021 7:45:00 PM 13.25 55.85 0.22 8 13.68 10.57
5/13/2021 8:00:00 PM 13.15 55.67 0.221 7.92 12.78 10.47
5/13/2021 8:15:00 PM 13.04 55.472 0.221 7.85 14.88 10.38
5/13/2021 8:30:00 PM 12.92 55.256 0.221 7.79 13.67 10.3
5/13/2021 8:45:00 PM 12.8 55.04 0.221 7.74 12.49 10.25
5/13/2021 9:00:00 PM 12.67 54.806 0.221 7.69 12.3 10.2
5/13/2021 9:15:00 PM 12.55 54.59 0.221 7.65 15.86 10.16
5/13/2021 9:30:00 PM 12.42 54.356 0.221 7.62 13.02 10.16
5/13/2021 9:45:00 PM 12.29 54.122 0.221 7.6 13.95 10.16
5/13/2021 10:00:00 PM 12.16 53.888 0.221 7.58 12.68 10.19
5/13/2021 10:15:00 PM 12.03 53.654 0.221 7.58 13.94 10.19
5/13/2021 10:30:00 PM 11.89 53.402 0.221 7.57 14.59 10.21
5/13/2021 10:45:00 PM 11.76 53.168 0.221 7.55 12.6 10.24
5/13/2021 11:00:00 PM 11.62 52.916 0.221 7.53 16.55 10.26
5/13/2021 11:15:00 PM 11.48 52.664 0.221 7.51 13.67 10.28
5/13/2021 11:30:00 PM 11.33 52.394 0.221 7.52 14.07 10.31
5/13/2021 11:45:00 PM 11.19 52.142 0.221 7.5 13.69 10.35
5/14/2021 12:00:00 AM 11.05 51.89 0.221 7.49 13.32 10.38
5/14/2021 12:15:00 AM 10.92 51.656 0.221 7.5 14.82 10.41
5/14/2021 12:30:00 AM 10.77 51.386 0.221 7.49 14.48 10.44
5/14/2021 12:45:00 AM 10.64 51.152 0.221 7.48 13.71 10.49
5/14/2021 1:00:00 AM 10.5 50.9 0.221 7.49 14.41 10.53
5/14/2021 1:15:00 AM 10.36 50.648 0.221 7.47 21.58 10.53
5/14/2021 1:30:00 AM 10.23 50.414 0.221 7.48 21.02 10.56
5/14/2021 1:45:00 AM 10.1 50.18 0.221 7.48 15.31 10.62
5/14/2021 2:00:00 AM 9.98 49.964 0.221 7.47 15.89 10.67
5/14/2021 2:15:00 AM 9.86 49.748 0.221 7.48 16.1 10.71
5/14/2021 2:30:00 AM 9.75 49.55 0.221 7.48 14.71 10.73
5/14/2021 2:45:00 AM 9.63 49.334 0.221 7.46 19.12 10.73
5/14/2021 3:00:00 AM 9.52 49.136 0.221 7.47 14.78 10.78
5/14/2021 3:15:00 AM 9.41 48.938 0.221 7.47 15.91 10.82
5/14/2021 3:30:00 AM 9.3 48.74 0.222 7.46 13.1 10.86
5/14/2021 3:45:00 AM 9.2 48.56 0.222 7.47 14.99 10.87
5/14/2021 4:00:00 AM 9.1 48.38 0.222 7.47 15.26 10.9
5/14/2021 4:15:00 AM 9 48.2 0.221 7.47 15.76 10.93
5/14/2021 4:30:00 AM 8.89 48.002 0.222 7.47 15.27 10.97
5/14/2021 4:45:00 AM 8.8 47.84 0.222 7.47 15.3 10.99
5/14/2021 5:00:00 AM 8.71 47.678 0.221 7.46 14.59 11.02
5/14/2021 5:15:00 AM 8.61 47.498 0.221 7.46 14.2 11.06
5/14/2021 5:30:00 AM 8.52 47.336 0.221 7.46 14.6 11.06
5/14/2021 5:45:00 AM 8.43 47.174 0.221 7.46 14.9 11.09
5/14/2021 6:00:00 AM 8.34 47.012 0.221 7.46 13.7 11.14
5/14/2021 6:15:00 AM 8.26 46.868 0.221 7.46 15.13 11.21
5/14/2021 6:30:00 AM 8.18 46.724 0.221 7.46 14.37 11.31
5/14/2021 6:45:00 AM 8.12 46.616 0.221 7.48 13.81 11.41
5/14/2021 7:00:00 AM 8.06 46.508 0.222 7.49 14.76 11.54
5/14/2021 7:15:00 AM 8.02 46.436 0.222 7.52 14.88 11.68
5/14/2021 7:30:00 AM 7.99 46.382 0.222 7.55 15.56 11.8
5/14/2021 7:45:00 AM 7.99 46.382 0.222 7.58 16.44 11.96
5/14/2021 8:00:00 AM 8.01 46.418 0.222 7.62 16.07 12.1
5/14/2021 8:15:00 AM 8.05 46.49 0.222 7.67 15.78 12.23
5/14/2021 8:30:00 AM 8.11 46.598 0.222 7.72 16.36 12.37
5/14/2021 8:45:00 AM 8.19 46.742 0.222 7.77 15.21 12.47
5/14/2021 9:00:00 AM 8.3 46.94 0.222 7.83 15.1 12.56
5/14/2021 9:15:00 AM 8.46 47.228 0.222 7.88 15.56 12.65
5/14/2021 9:30:00 AM 8.64 47.552 0.222 7.94 14.11 12.76
5/14/2021 9:45:00 AM 8.85 47.93 0.222 8 14.54 12.83
5/14/2021 10:00:00 AM 9.09 48.362 0.222 8.06 14.85 12.86
5/14/2021 10:15:00 AM 9.33 48.794 0.222 8.13 16.46 12.95
5/14/2021 10:30:00 AM 9.62 49.316 0.222 8.17 12.58 12.98
5/14/2021 10:45:00 AM 9.9 49.82 0.222 8.22 16.72 13.01
5/14/2021 11:00:00 AM 10.16 50.288 0.222 8.29 14.34 13.01
5/14/2021 11:15:00 AM 10.48 50.864 0.222 8.33 14.25 13.05
5/14/2021 11:30:00 AM 10.74 51.332 0.223 8.37 13.86 12.99
5/14/2021 11:45:00 AM 11.1 51.98 0.223 8.43 15.49 13.01
5/14/2021 12:00:00 PM 10.97 51.746 0.223 8.42 13.98 12.79
5/14/2021 12:15:00 PM 11.22 52.196 0.223 8.45 12.78 12.83
5/14/2021 12:30:00 PM 11.5 52.7 0.224 8.49 12.47 12.83
5/14/2021 12:45:00 PM 11.23 52.214 0.224 8.5 12.5 12.75
5/14/2021 1:00:00 PM 11.16 52.088 0.223 8.53 12.15 12.75
5/14/2021 1:15:00 PM 11.33 52.394 0.223 8.56 14.18 12.77
5/14/2021 1:30:00 PM 11.54 52.772 0.223 8.6 13.64 12.82
5/14/2021 1:45:00 PM 11.65 52.97 0.223 8.61 14.67 12.73
5/14/2021 2:00:00 PM 11.98 53.564 0.223 8.65 12.44 12.59
5/14/2021 2:15:00 PM 12.14 53.852 0.224 8.66 12.23 12.52
5/14/2021 2:30:00 PM 12.36 54.248 0.224 8.67 14 12.54
5/14/2021 2:45:00 PM 12.48 54.464 0.224 8.7 11.97 12.56
5/14/2021 3:00:00 PM 12.58 54.644 0.224 8.71 14.7 12.56
5/14/2021 3:15:00 PM 12.87 55.166 0.224 8.74 14.21 12.57
5/14/2021 3:30:00 PM 13.15 55.67 0.224 8.77 14.34 12.51
5/14/2021 3:45:00 PM 13.35 56.03 0.224 8.78 14.13 12.46
5/14/2021 4:00:00 PM 13.51 56.318 0.225 8.79 12.47 12.39
5/14/2021 4:15:00 PM 13.7 56.66 0.225 8.82 11.87 12.39
5/14/2021 4:30:00 PM 13.84 56.912 0.225 8.82 11.8 12.32
5/14/2021 4:45:00 PM 13.95 57.11 0.225 8.84 11.47 12.27
5/14/2021 5:00:00 PM 13.94 57.092 0.225 8.83 12.13 12.1
5/14/2021 5:15:00 PM 13.88 56.984 0.225 8.82 11.88 11.98
5/14/2021 5:30:00 PM 13.82 56.876 0.225 8.8 11.88 11.86
5/14/2021 5:45:00 PM 13.77 56.786 0.225 8.79 12.01 11.66
5/14/2021 6:00:00 PM 13.73 56.714 0.225 8.76 12.64 11.55
5/14/2021 6:15:00 PM 13.72 56.696 0.225 8.75 11.63 11.55
5/14/2021 6:30:00 PM 13.7 56.66 0.225 8.73 12.3 11.52
5/14/2021 6:45:00 PM 13.65 56.57 0.225 8.71 12.64 11.42
5/14/2021 7:00:00 PM 13.55 56.39 0.225 8.66 12.27 11.2
5/14/2021 7:15:00 PM 13.49 56.282 0.225 8.6 12.84 11.06
5/14/2021 7:30:00 PM 13.43 56.174 0.225 8.54 13.15 10.91
5/14/2021 7:45:00 PM 13.36 56.048 0.225 8.46 13.87 10.75
5/14/2021 8:00:00 PM 13.3 55.94 0.225 8.38 12.38 10.62
5/14/2021 8:15:00 PM 13.22 55.796 0.225 8.29 11.79 10.48
5/14/2021 8:30:00 PM 13.13 55.634 0.226 8.17 13.96 10.33
5/14/2021 8:45:00 PM 13.03 55.454 0.226 8.07 14.04 10.23
5/14/2021 9:00:00 PM 12.93 55.274 0.226 7.96 14.69 10.16
5/14/2021 9:15:00 PM 12.82 55.076 0.226 7.88 14.49 10.11
5/14/2021 9:30:00 PM 12.7 54.86 0.226 7.81 15.76 10.08
5/14/2021 9:45:00 PM 12.59 54.662 0.226 7.75 15.19 10.04
5/14/2021 10:00:00 PM 12.5 54.5 0.226 7.71 14.92 10.02
5/14/2021 10:15:00 PM 12.41 54.338 0.226 7.68 15.34 10.04
5/14/2021 10:30:00 PM 12.32 54.176 0.226 7.64 14.26 10.05
5/14/2021 10:45:00 PM 12.23 54.014 0.226 7.62 14.02 10.04
5/14/2021 11:00:00 PM 12.13 53.834 0.226 7.6 15.51 10.05
5/14/2021 11:15:00 PM 12.02 53.636 0.226 7.58 14.44 10.06
5/14/2021 11:30:00 PM 11.92 53.456 0.226 7.58 15.57 10.07
5/14/2021 11:45:00 PM 11.8 53.24 0.226 7.56 13.53 10.11
5/15/2021 12:00:00 AM 11.69 53.042 0.227 7.55 14.99 10.13
5/15/2021 12:15:00 AM 11.57 52.826 0.227 7.54 15.25 10.15
5/15/2021 12:30:00 AM 11.46 52.628 0.227 7.53 16.48 10.18
5/15/2021 12:45:00 AM 11.35 52.43 0.227 7.52 14.29 10.19
5/15/2021 1:00:00 AM 11.23 52.214 0.227 7.51 14.27 10.22
5/15/2021 1:15:00 AM 11.11 51.998 0.227 7.5 15.33 10.26
5/15/2021 1:30:00 AM 11 51.8 0.227 7.49 14.56 10.29
5/15/2021 1:45:00 AM 10.88 51.584 0.226 7.5 18.43 10.32
5/15/2021 2:00:00 AM 10.77 51.386 0.227 7.5 15.44 10.34
5/15/2021 2:15:00 AM 10.66 51.188 0.227 7.49 17.2 10.37
5/15/2021 2:30:00 AM 10.55 50.99 0.226 7.49 15.49 10.41
5/15/2021 2:45:00 AM 10.44 50.792 0.226 7.48 14.12 10.45
5/15/2021 3:00:00 AM 10.33 50.594 0.226 7.48 13.9 10.48
5/15/2021 3:15:00 AM 10.21 50.378 0.226 7.49 14.38 10.5
5/15/2021 3:30:00 AM 10.11 50.198 0.226 7.49 13.67 10.53
5/15/2021 3:45:00 AM 10.01 50.018 0.226 7.48 16.01 10.57
5/15/2021 4:00:00 AM 9.91 49.838 0.226 7.48 15.53 10.61
5/15/2021 4:15:00 AM 9.82 49.676 0.226 7.49 13.74 10.63
5/15/2021 4:30:00 AM 9.74 49.532 0.226 7.47 14.62 10.66
5/15/2021 4:45:00 AM 9.67 49.406 0.226 7.49 13.28 10.67
5/15/2021 5:00:00 AM 9.59 49.262 0.227 7.48 15.22 10.69
5/15/2021 5:15:00 AM 9.51 49.118 0.227 7.48 14.61 10.72
5/15/2021 5:30:00 AM 9.41 48.938 0.227 7.49 16.42 10.75
5/15/2021 5:45:00 AM 9.33 48.794 0.227 7.46 17.47 10.78
5/15/2021 6:00:00 AM 9.24 48.632 0.227 7.48 15.52 10.84
5/15/2021 6:15:00 AM 9.15 48.47 0.227 7.49 14.29 10.88
5/15/2021 6:30:00 AM 9.06 48.308 0.227 7.5 16.04 10.96
5/15/2021 6:45:00 AM 8.99 48.182 0.227 7.52 13.54 11.06
5/15/2021 7:00:00 AM 8.92 48.056 0.227 7.55 14.02 11.24
5/15/2021 7:15:00 AM 8.87 47.966 0.226 7.58 11.91 11.42
5/15/2021 7:30:00 AM 8.84 47.912 0.226 7.61 13.33 11.62
5/15/2021 7:45:00 AM 8.82 47.876 0.226 7.66 11.73 11.79
5/15/2021 8:00:00 AM 8.84 47.912 0.226 7.7 12.51 11.99
5/15/2021 8:15:00 AM 8.88 47.984 0.226 7.77 12.74 12.15
5/15/2021 8:30:00 AM 8.95 48.11 0.226 7.84 12.21 12.3
5/15/2021 8:45:00 AM 9.03 48.254 0.226 7.89 11.37 12.42
5/15/2021 9:00:00 AM 9.15 48.47 0.226 7.95 12.09 12.59
5/15/2021 9:15:00 AM 9.31 48.758 0.226 8.04 11.49 12.71
5/15/2021 9:30:00 AM 9.51 49.118 0.226 8.1 12 12.8
5/15/2021 9:45:00 AM 9.73 49.514 0.227 8.17 11.34 12.89
5/15/2021 10:00:00 AM 9.98 49.964 0.227 8.24 11.08 13.05
5/15/2021 10:15:00 AM 10.26 50.468 0.227 8.3 13.59 13.06
5/15/2021 10:30:00 AM 10.51 50.918 0.227 8.38 11.2 13.1
5/15/2021 10:45:00 AM 10.8 51.44 0.227 8.44 11.29 13.14
5/15/2021 11:00:00 AM 11.1 51.98 0.227 8.48 12.51 13.2
5/15/2021 11:15:00 AM 11.37 52.466 0.228 8.54 11.35 13.22
5/15/2021 11:30:00 AM 11.67 53.006 0.228 8.59 13.47 13.26
5/15/2021 11:45:00 AM 11.91 53.438 0.228 8.64 11.95 13.2
5/15/2021 12:00:00 PM 12.17 53.906 0.228 8.68 14.89 13.24
5/15/2021 12:15:00 PM 12.38 54.284 0.228 8.71 14.36 13.2
5/15/2021 12:30:00 PM 12.61 54.698 0.228 8.75 10.72 13.14
5/15/2021 12:45:00 PM 12.86 55.148 0.228 8.79 12.15 13.15
5/15/2021 1:00:00 PM 12.93 55.274 0.228 8.81 14.2 13.03
5/15/2021 1:15:00 PM 13.21 55.778 0.228 8.84 12.14 13.04
5/15/2021 1:30:00 PM 13.47 56.246 0.229 8.88 10.56 13.02
5/15/2021 1:45:00 PM 13.56 56.408 0.228 8.91 12.31 12.95
5/15/2021 2:00:00 PM 13.67 56.606 0.228 8.93 12.16 12.86
5/15/2021 2:15:00 PM 13.68 56.624 0.228 8.94 13.24 12.66
5/15/2021 2:30:00 PM 13.79 56.822 0.228 8.95 11.87 12.61
5/15/2021 2:45:00 PM 14.01 57.218 0.229 8.98 13 12.66
5/15/2021 3:00:00 PM 14.1 57.38 0.229 9 11.99 12.52
5/15/2021 3:15:00 PM 14.11 57.398 0.229 9 11.7 12.41
5/15/2021 3:30:00 PM 14.23 57.614 0.229 9.01 11.78 12.35
5/15/2021 3:45:00 PM 14.35 57.83 0.229 9.03 11.12 12.3
5/15/2021 4:00:00 PM 14.35 57.83 0.229 9.03 11.19 12.19
5/15/2021 4:15:00 PM 14.38 57.884 0.229 9.03 11.2 12.14
5/15/2021 4:30:00 PM 14.43 57.974 0.229 9.04 11.04 12.1
5/15/2021 4:45:00 PM 14.43 57.974 0.229 9.04 11.09 11.98
5/15/2021 5:00:00 PM 14.45 58.01 0.229 9.03 11.92 11.89
5/15/2021 5:15:00 PM 14.53 58.154 0.229 9.04 11.71 11.91
5/15/2021 5:30:00 PM 14.52 58.136 0.229 9.03 11.73 11.68
5/15/2021 5:45:00 PM 14.55 58.19 0.229 9.01 12.04 11.59
5/15/2021 6:00:00 PM 14.6 58.28 0.229 9.01 10.27 11.58
5/15/2021 6:15:00 PM 14.59 58.262 0.229 9 11.46 11.49
5/15/2021 6:30:00 PM 14.58 58.244 0.229 8.98 11.11 11.3
5/15/2021 6:45:00 PM 14.58 58.244 0.229 8.95 10.83 11.18
5/15/2021 7:00:00 PM 14.56 58.208 0.229 8.93 9.8 11.06
5/15/2021 7:15:00 PM 14.54 58.172 0.229 8.9 11.45 10.94
5/15/2021 7:30:00 PM 14.52 58.136 0.23 8.86 11.8 10.76
5/15/2021 7:45:00 PM 14.51 58.118 0.23 8.81 10.82 10.59
5/15/2021 8:00:00 PM 14.47 58.046 0.23 8.74 11.09 10.39
5/15/2021 8:15:00 PM 14.42 57.956 0.23 8.66 11.53 10.2
5/15/2021 8:30:00 PM 14.34 57.812 0.231 8.57 10.93 10.02
5/15/2021 8:45:00 PM 14.27 57.686 0.231 8.48 11.83 9.87
5/15/2021 9:00:00 PM 14.19 57.542 0.231 8.37 11.95 9.75
5/15/2021 9:15:00 PM 14.11 57.398 0.231 8.26 11.9 9.68
5/15/2021 9:30:00 PM 14.03 57.254 0.231 8.16 11.36 9.64
5/15/2021 9:45:00 PM 13.92 57.056 0.231 8.04 12.5 9.61
5/15/2021 10:00:00 PM 13.82 56.876 0.231 7.96 12.46 9.61
5/15/2021 10:15:00 PM 13.72 56.696 0.231 7.89 12.05 9.6
5/15/2021 10:30:00 PM 13.62 56.516 0.231 7.82 11.47 9.59
5/15/2021 10:45:00 PM 13.51 56.318 0.232 7.77 11.54 9.59
5/15/2021 11:00:00 PM 13.41 56.138 0.232 7.73 11.4 9.63
5/15/2021 11:15:00 PM 13.3 55.94 0.232 7.69 11.03 9.64
5/15/2021 11:30:00 PM 13.18 55.724 0.232 7.65 11.21 9.64
5/15/2021 11:45:00 PM 13.08 55.544 0.232 7.64 11.36 9.66
5/16/2021 12:00:00 AM 12.97 55.346 0.232 7.61 13.46 9.68
5/16/2021 12:15:00 AM 12.87 55.166 0.232 7.59 13.43 9.72
5/16/2021 12:30:00 AM 12.77 54.986 0.232 7.58 13.43 9.74
5/16/2021 12:45:00 AM 12.67 54.806 0.232 7.57 14.21 9.76
5/16/2021 1:00:00 AM 12.57 54.626 0.232 7.55 14.71 9.76
5/16/2021 1:15:00 AM 12.47 54.446 0.232 7.54 15.25 9.79
5/16/2021 1:30:00 AM 12.37 54.266 0.232 7.53 14.11 9.82
5/16/2021 1:45:00 AM 12.27 54.086 0.233 7.52 11.75 9.86
5/16/2021 2:00:00 AM 12.16 53.888 0.233 7.52 14.87 9.88
5/16/2021 2:15:00 AM 12.04 53.672 0.233 7.5 13.51 9.9
5/16/2021 2:30:00 AM 11.93 53.474 0.233 7.51 13.62 9.93
5/16/2021 2:45:00 AM 11.82 53.276 0.233 7.51 12.5 9.96
5/16/2021 3:00:00 AM 11.7 53.06 0.233 7.5 11.16 10
5/16/2021 3:15:00 AM 11.58 52.844 0.233 7.49 13.2 10.06
5/16/2021 3:30:00 AM 11.47 52.646 0.233 7.5 11.56 10.07
5/16/2021 3:45:00 AM 11.36 52.448 0.233 7.49 11.86 10.09
5/16/2021 4:00:00 AM 11.25 52.25 0.233 7.49 12.71 10.12
5/16/2021 4:15:00 AM 11.15 52.07 0.233 7.48 12.84 10.18
5/16/2021 4:30:00 AM 11.04 51.872 0.233 7.49 13.96 10.2
5/16/2021 4:45:00 AM 10.94 51.692 0.233 7.49 13.35 10.23
5/16/2021 5:00:00 AM 10.84 51.512 0.233 7.49 12.57 10.25
5/16/2021 5:15:00 AM 10.76 51.368 0.233 7.48 13.53 10.26
5/16/2021 5:30:00 AM 10.67 51.206 0.233 7.49 11.82 10.29
5/16/2021 5:45:00 AM 10.57 51.026 0.233 7.48 12.78 10.34
5/16/2021 6:00:00 AM 10.48 50.864 0.234 7.49 12.25 10.39
5/16/2021 6:15:00 AM 10.42 50.756 0.234 7.49 13.04 10.47
5/16/2021 6:30:00 AM 10.37 50.666 0.234 7.52 11.1 10.58
5/16/2021 6:45:00 AM 10.31 50.558 0.233 7.53 13.35 10.67
5/16/2021 7:00:00 AM 10.27 50.486 0.233 7.56 10.59 10.83
5/16/2021 7:15:00 AM 10.24 50.432 0.233 7.59 11.13 11.03
5/16/2021 7:30:00 AM 10.22 50.396 0.233 7.64 11.56 11.27
5/16/2021 7:45:00 AM 10.21 50.378 0.233 7.7 10.6 11.51
5/16/2021 8:00:00 AM 10.22 50.396 0.233 7.76 11.39 11.72
5/16/2021 8:15:00 AM 10.22 50.396 0.233 7.82 12.62 11.91
5/16/2021 8:30:00 AM 10.24 50.432 0.232 7.9 12.33 12.14
5/16/2021 8:45:00 AM 10.23 50.414 0.232 7.96 11.5 12.12
5/16/2021 9:00:00 AM 10.23 50.414 0.232 7.97 12.26 12.11
5/16/2021 9:15:00 AM 10.29 50.522 0.232 8.06 10.51 12.38
5/16/2021 9:30:00 AM 10.38 50.684 0.232 8.16 11.36 12.62
5/16/2021 9:45:00 AM 10.44 50.792 0.232 8.23 10.45 12.71
5/16/2021 10:00:00 AM 10.48 50.864 0.232 8.29 9.45 12.81
5/16/2021 10:15:00 AM 10.58 51.044 0.232 8.36 10.05 12.95
5/16/2021 10:30:00 AM 10.72 51.296 0.232 8.44 11.77 13.05
5/16/2021 10:45:00 AM 10.85 51.53 0.232 8.51 11.94 13.14
5/16/2021 11:00:00 AM 10.95 51.71 0.232 8.56 9.4 13.22
5/16/2021 11:15:00 AM 11.06 51.908 0.232 8.61 11.16 13.28
5/16/2021 11:30:00 AM 11.25 52.25 0.232 8.65 11.28 13.35
5/16/2021 11:45:00 AM 11.42 52.556 0.232 8.71 9.28 13.39
5/16/2021 12:00:00 PM 11.6 52.88 0.232 8.76 9.33 13.44
5/16/2021 12:15:00 PM 11.85 53.33 0.232 8.8 9.18 13.51
5/16/2021 12:30:00 PM 12.1 53.78 0.232 8.84 11.3 13.53
5/16/2021 12:45:00 PM 12.31 54.158 0.232 8.87 10.62 13.56
5/16/2021 1:00:00 PM 12.56 54.608 0.233 8.91 10.8 13.51
5/16/2021 1:15:00 PM 12.73 54.914 0.233 8.95 11.2 13.5
5/16/2021 1:30:00 PM 12.83 55.094 0.233 8.98 10.91 13.48
5/16/2021 1:45:00 PM 12.94 55.292 0.232 9 11.03 13.42
5/16/2021 2:00:00 PM 13.03 55.454 0.232 9.03 11.24 13.31
5/16/2021 2:15:00 PM 13.18 55.724 0.232 9.06 11.37 13.32
5/16/2021 2:30:00 PM 13.47 56.246 0.232 9.09 8.83 13.36
5/16/2021 2:45:00 PM 13.69 56.642 0.232 9.12 9.27 13.29
5/16/2021 3:00:00 PM 13.92 57.056 0.232 9.13 9.38 13.27
5/16/2021 3:15:00 PM 14.14 57.452 0.232 9.16 8.92 13.22
5/16/2021 3:30:00 PM 14.36 57.848 0.232 9.18 8.38 13.16
5/16/2021 3:45:00 PM 14.56 58.208 0.232 9.2 9.03 13.1
5/16/2021 4:00:00 PM 14.8 58.64 0.232 9.22 8.24 12.99
5/16/2021 4:15:00 PM 15.04 59.072 0.232 9.24 8.41 12.92
5/16/2021 4:30:00 PM 15.12 59.216 0.232 9.25 8.07 12.79
5/16/2021 4:45:00 PM 15.13 59.234 0.232 9.26 8.23 12.66
5/16/2021 5:00:00 PM 15.08 59.144 0.232 9.26 9.04 12.48
5/16/2021 5:15:00 PM 15.04 59.072 0.232 9.26 9.01 12.36
5/16/2021 5:30:00 PM 15.05 59.09 0.232 9.26 8.43 12.27
5/16/2021 5:45:00 PM 15.05 59.09 0.232 9.27 8.47 12.19
5/16/2021 6:00:00 PM 14.98 58.964 0.232 9.26 9.65 12.05
5/16/2021 6:15:00 PM 14.94 58.892 0.232 9.26 8.84 11.92
5/16/2021 6:30:00 PM 14.89 58.802 0.232 9.25 8.36 11.81
5/16/2021 6:45:00 PM 14.84 58.712 0.232 9.24 7.99 11.65
5/16/2021 7:00:00 PM 14.8 58.64 0.232 9.22 8.09 11.47
5/16/2021 7:15:00 PM 14.74 58.532 0.232 9.2 8.53 11.22
5/16/2021 7:30:00 PM 14.68 58.424 0.232 9.16 8.34 10.97
5/16/2021 7:45:00 PM 14.61 58.298 0.232 9.12 8.36 10.72
5/16/2021 8:00:00 PM 14.52 58.136 0.232 9.07 10.52 10.5
5/16/2021 8:15:00 PM 14.43 57.974 0.232 9.02 8.98 10.3
5/16/2021 8:30:00 PM 14.33 57.794 0.232 8.96 8.89 10.09
5/16/2021 8:45:00 PM 14.23 57.614 0.233 8.89 8.32 9.92
5/16/2021 9:00:00 PM 14.13 57.434 0.233 8.81 8.59 9.78
5/16/2021 9:15:00 PM 14.04 57.272 0.233 8.73 10.73 9.68
5/16/2021 9:30:00 PM 13.94 57.092 0.233 8.65 9.09 9.59
5/16/2021 9:45:00 PM 13.84 56.912 0.234 8.56 8.23 9.57
5/16/2021 10:00:00 PM 13.74 56.732 0.234 8.48 8.52 9.55
5/16/2021 10:15:00 PM 13.63 56.534 0.234 8.39 8.04 9.51
5/16/2021 10:30:00 PM 13.53 56.354 0.234 8.29 8.98 9.53
5/16/2021 10:45:00 PM 13.42 56.156 0.235 8.19 8.64 9.53
5/16/2021 11:00:00 PM 13.32 55.976 0.235 8.11 8.75 9.55
5/16/2021 11:15:00 PM 13.22 55.796 0.235 8.03 8.28 9.57
5/16/2021 11:30:00 PM 13.11 55.598 0.235 7.94 10.94 9.56
5/16/2021 11:45:00 PM 13.01 55.418 0.235 7.87 9.32 9.59
5/17/2021 12:00:00 AM 12.9 55.22 0.235 7.82 10.25 9.6
5/17/2021 12:15:00 AM 12.79 55.022 0.235 7.76 17.24 9.6
5/17/2021 12:30:00 AM 12.67 54.806 0.235 7.72 11.74 9.66
5/17/2021 12:45:00 AM 12.57 54.626 0.235 7.68 11.34 9.67
5/17/2021 1:00:00 AM 12.46 54.428 0.235 7.66 11.25 9.69
5/17/2021 1:15:00 AM 12.35 54.23 0.235 7.64 9.61 9.72
5/17/2021 1:30:00 AM 12.24 54.032 0.235 7.61 11.8 9.76
5/17/2021 1:45:00 AM 12.12 53.816 0.235 7.6 10.89 9.8
5/17/2021 2:00:00 AM 12.02 53.636 0.236 7.59 12.06 9.82
5/17/2021 2:15:00 AM 11.92 53.456 0.236 7.57 11.89 9.83
5/17/2021 2:30:00 AM 11.83 53.294 0.236 7.56 12.06 9.85
5/17/2021 2:45:00 AM 11.74 53.132 0.236 7.55 10.64 9.9
5/17/2021 3:00:00 AM 11.66 52.988 0.236 7.55 12.47 9.93
5/17/2021 3:15:00 AM 11.58 52.844 0.236 7.53 11.86 9.97
5/17/2021 3:30:00 AM 11.49 52.682 0.237 7.54 11.14 9.99
5/17/2021 3:45:00 AM 11.39 52.502 0.237 7.52 12.11 9.99
5/17/2021 4:00:00 AM 11.28 52.304 0.236 7.52 12.03 10.02
5/17/2021 4:15:00 AM 11.17 52.106 0.236 7.52 12.11 10.06
5/17/2021 4:30:00 AM 11.08 51.944 0.236 7.52 10.45 10.1
5/17/2021 4:45:00 AM 10.97 51.746 0.236 7.52 10.18 10.13
5/17/2021 5:00:00 AM 10.85 51.53 0.236 7.5 11.83 10.12
5/17/2021 5:15:00 AM 10.75 51.35 0.236 7.51 10.03 10.17
5/17/2021 5:30:00 AM 10.64 51.152 0.236 7.5 14.56 10.19
5/17/2021 5:45:00 AM 10.54 50.972 0.236 7.49 10.48 10.24
5/17/2021 6:00:00 AM 10.45 50.81 0.236 7.48 10.43 10.29
5/17/2021 6:15:00 AM 10.35 50.63 0.236 7.48 12.52 10.37
5/17/2021 6:30:00 AM 10.27 50.486 0.236 7.49 10.01 10.48
5/17/2021 6:45:00 AM 10.19 50.342 0.236 7.51 11.68 10.63
5/17/2021 7:00:00 AM 10.13 50.234 0.236 7.54 9.54 10.81
5/17/2021 7:15:00 AM 10.08 50.144 0.236 7.58 9.61 11.03
5/17/2021 7:30:00 AM 10.05 50.09 0.236 7.61 13.05 11.27
5/17/2021 7:45:00 AM 10.03 50.054 0.236 7.68 10.1 11.48
5/17/2021 8:00:00 AM 10.05 50.09 0.236 7.75 11.42 11.71
5/17/2021 8:15:00 AM 10.09 50.162 0.236 7.82 9.3 11.9
5/17/2021 8:30:00 AM 10.16 50.288 0.236 7.89 11.1 12.13
5/17/2021 8:45:00 AM 10.25 50.45 0.237 8 9.25 12.33
5/17/2021 9:00:00 AM 10.37 50.666 0.237 8.09 8.86 12.54
5/17/2021 9:15:00 AM 10.56 51.008 0.237 8.21 10.89 12.7
5/17/2021 9:30:00 AM 10.78 51.404 0.237 8.29 11.03 12.83
5/17/2021 9:45:00 AM 11.03 51.854 0.237 8.37 8.73 12.98
5/17/2021 10:00:00 AM 11.32 52.376 0.237 8.44 9.99 13.13
5/17/2021 10:15:00 AM 11.63 52.934 0.237 8.51 10.87 13.24
5/17/2021 10:30:00 AM 11.94 53.492 0.237 8.57 10.34 13.29
5/17/2021 10:45:00 AM 12.27 54.086 0.237 8.62 10.22 13.42
5/17/2021 11:00:00 AM 12.58 54.644 0.238 8.69 10.02 13.39
5/17/2021 11:15:00 AM 12.9 55.22 0.238 8.73 10.2 13.47
5/17/2021 11:30:00 AM 13.2 55.76 0.238 8.77 8.58 13.46
5/17/2021 11:45:00 AM 13.52 56.336 0.238 8.82 10.85 13.46
5/17/2021 12:00:00 PM 13.81 56.858 0.238 8.87 9.33 13.46
5/17/2021 12:15:00 PM 14.01 57.218 0.238 8.89 10.27 13.38
5/17/2021 12:30:00 PM 14.21 57.578 0.238 8.92 9.56 13.29
5/17/2021 12:45:00 PM 14.46 58.028 0.238 8.95 8.41 13.24
5/17/2021 1:00:00 PM 14.8 58.64 0.239 8.99 8.37 13.25
5/17/2021 1:15:00 PM 15 59 0.239 9.01 8.45 13.16
5/17/2021 1:30:00 PM 15.25 59.45 0.239 9.04 7.97 13.04
5/17/2021 1:45:00 PM 15.47 59.846 0.24 9.06 8.62 13.08
5/17/2021 2:00:00 PM 15.65 60.17 0.24 9.08 7.91 12.9
5/17/2021 2:15:00 PM 16.05 60.89 0.24 9.11 8.83 12.95
5/17/2021 2:30:00 PM 16.37 61.466 0.24 9.14 8.04 12.89
5/17/2021 2:45:00 PM 16.56 61.808 0.24 9.16 8.12 12.8
5/17/2021 3:00:00 PM 16.59 61.862 0.24 9.17 7.94 12.68
5/17/2021 3:15:00 PM 16.47 61.646 0.24 9.17 7.62 12.32
5/17/2021 3:30:00 PM 16.39 61.502 0.24 9.16 7.61 12.06
5/17/2021 3:45:00 PM 16.49 61.682 0.239 9.17 7.84 12.12
5/17/2021 4:00:00 PM 16.58 61.844 0.239 9.18 8.39 12.07
5/17/2021 4:15:00 PM 16.59 61.862 0.24 9.18 7.59 11.94
5/17/2021 4:30:00 PM 16.49 61.682 0.239 9.17 7.65 11.82
5/17/2021 4:45:00 PM 16.49 61.682 0.239 9.18 7.62 11.72
5/17/2021 5:00:00 PM 16.47 61.646 0.239 9.18 7.57 11.54
5/17/2021 5:15:00 PM 16.53 61.754 0.239 9.18 7.21 11.58
5/17/2021 5:30:00 PM 16.62 61.916 0.239 9.2 8.08 11.6
5/17/2021 5:45:00 PM 16.64 61.952 0.239 9.2 7.5 11.51
5/17/2021 6:00:00 PM 16.62 61.916 0.239 9.2 7.6 11.45
5/17/2021 6:15:00 PM 16.62 61.916 0.239 9.19 8.2 11.31
5/17/2021 6:30:00 PM 16.58 61.844 0.24 9.17 11.04 11.16
5/17/2021 6:45:00 PM 16.54 61.772 0.24 9.16 7.79 11.08
5/17/2021 7:00:00 PM 16.46 61.628 0.24 9.14 6.87 10.88
5/17/2021 7:15:00 PM 16.4 61.52 0.24 9.11 8.83 10.62
5/17/2021 7:30:00 PM 16.41 61.538 0.241 9.09 7.56 10.49
5/17/2021 7:45:00 PM 16.39 61.502 0.241 9.07 7.68 10.34
5/17/2021 8:00:00 PM 16.34 61.412 0.241 9.02 8.44 10.11
5/17/2021 8:15:00 PM 16.27 61.286 0.242 8.96 8.67 9.86
5/17/2021 8:30:00 PM 16.18 61.124 0.242 8.9 8.3 9.66
5/17/2021 8:45:00 PM 16.11 60.998 0.242 8.83 7.65 9.45
5/17/2021 9:00:00 PM 16.03 60.854 0.242 8.76 7.74 9.28
5/17/2021 9:15:00 PM 15.94 60.692 0.242 8.68 8.53 9.16
5/17/2021 9:30:00 PM 15.85 60.53 0.243 8.61 8.19 9.06
5/17/2021 9:45:00 PM 15.74 60.332 0.243 8.51 8.1 9.01
5/17/2021 10:00:00 PM 15.64 60.152 0.244 8.42 8.21 8.98
5/17/2021 10:15:00 PM 15.54 59.972 0.244 8.33 7.85 8.96
5/17/2021 10:30:00 PM 15.44 59.792 0.244 8.23 8.14 8.95
5/17/2021 10:45:00 PM 15.33 59.594 0.244 8.13 7.88 8.94
5/17/2021 11:00:00 PM 15.23 59.414 0.244 8.04 8.34 8.95
5/17/2021 11:15:00 PM 15.13 59.234 0.244 7.97 8.32 8.95
5/17/2021 11:30:00 PM 15.03 59.054 0.245 7.9 8.22 8.95
5/17/2021 11:45:00 PM 14.92 58.856 0.245 7.83 9.03 8.96
5/18/2021 12:00:00 AM 14.82 58.676 0.245 7.78 8.14 8.97
5/18/2021 12:15:00 AM 14.71 58.478 0.246 7.74 8.99 9.01
5/18/2021 12:30:00 AM 14.59 58.262 0.246 7.7 8.58 9.01
5/18/2021 12:45:00 AM 14.5 58.1 0.246 7.67 8.73 9.06
5/18/2021 1:00:00 AM 14.39 57.902 0.246 7.65 8.55 9.08
5/18/2021 1:15:00 AM 14.3 57.74 0.246 7.63 8.57 9.1
5/18/2021 1:30:00 AM 14.18 57.524 0.246 7.61 8.36 9.1
5/18/2021 1:45:00 AM 14.07 57.326 0.246 7.59 7.6 9.13
5/18/2021 2:00:00 AM 13.95 57.11 0.246 7.57 10.26 9.17
5/18/2021 2:15:00 AM 13.85 56.93 0.246 7.57 8.73 9.22
5/18/2021 2:30:00 AM 13.73 56.714 0.246 7.56 8.89 9.25
5/18/2021 2:45:00 AM 13.61 56.498 0.246 7.55 8.67 9.25
5/18/2021 3:00:00 AM 13.49 56.282 0.246 7.54 8.78 9.29
5/18/2021 3:15:00 AM 13.37 56.066 0.246 7.53 10.66 9.33
5/18/2021 3:30:00 AM 13.24 55.832 0.247 7.53 8.37 9.38
5/18/2021 3:45:00 AM 13.13 55.634 0.247 7.53 7.87 9.4
5/18/2021 4:00:00 AM 13.03 55.454 0.247 7.52 8.5 9.42
5/18/2021 4:15:00 AM 12.9 55.22 0.247 7.51 9.95 9.45
5/18/2021 4:30:00 AM 12.79 55.022 0.247 7.5 8.9 9.5
5/18/2021 4:45:00 AM 12.68 54.824 0.247 7.51 9.16 9.55
5/18/2021 5:00:00 AM 12.56 54.608 0.247 7.5 12.42 9.56
5/18/2021 5:15:00 AM 12.45 54.41 0.247 7.5 9.87 9.57
5/18/2021 5:30:00 AM 12.34 54.212 0.247 7.5 10.56 9.64
5/18/2021 5:45:00 AM 12.23 54.014 0.247 7.5 8.93 9.66
5/18/2021 6:00:00 AM 12.12 53.816 0.247 7.5 10.2 9.73
5/18/2021 6:15:00 AM 12.02 53.636 0.247 7.5 10.77 9.79
5/18/2021 6:30:00 AM 11.94 53.492 0.247 7.52 9.33 9.95
5/18/2021 6:45:00 AM 11.86 53.348 0.247 7.53 9.25 10.07
5/18/2021 7:00:00 AM 11.79 53.222 0.247 7.58 8.95 10.28
5/18/2021 7:15:00 AM 11.74 53.132 0.247 7.62 8.95 10.49
5/18/2021 7:30:00 AM 11.69 53.042 0.247 7.66 8.63 10.77
5/18/2021 7:45:00 AM 11.68 53.024 0.247 7.7 8.08 11
5/18/2021 8:00:00 AM 11.67 53.006 0.247 7.78 8.63 11.24
5/18/2021 8:15:00 AM 11.69 53.042 0.246 7.85 8.93 11.51
5/18/2021 8:30:00 AM 11.75 53.15 0.246 7.92 10.95 11.75
5/18/2021 8:45:00 AM 11.84 53.312 0.246 8.04 11.33 11.99
5/18/2021 9:00:00 AM 11.97 53.546 0.246 8.13 14.85 12.18
5/18/2021 9:15:00 AM 12.15 53.87 0.246 8.23 10.91 12.42
5/18/2021 9:30:00 AM 12.37 54.266 0.246 8.35 8.54 12.62
5/18/2021 9:45:00 AM 12.62 54.716 0.246 8.43 10.78 12.76
5/18/2021 10:00:00 AM 12.92 55.256 0.246 8.52 10.43 12.92
5/18/2021 10:15:00 AM 13.24 55.832 0.246 8.59 10.95 13.07
5/18/2021 10:30:00 AM 13.58 56.444 0.246 8.64 11.73 13.21
5/18/2021 10:45:00 AM 13.91 57.038 0.247 8.7 8.85 13.29
5/18/2021 11:00:00 AM 14.23 57.614 0.247 8.76 8.34 13.37
5/18/2021 11:15:00 AM 14.57 58.226 0.247 8.81 9.35 13.44
5/18/2021 11:30:00 AM 14.92 58.856 0.248 8.85 8.58 13.48
5/18/2021 11:45:00 AM 15.24 59.432 0.248 8.89 8.31 13.47
5/18/2021 12:00:00 PM 15.55 59.99 0.248 8.93 8.12 13.5
5/18/2021 12:15:00 PM 15.85 60.53 0.249 8.97 7.93 13.43
5/18/2021 12:30:00 PM 16.17 61.106 0.249 9 7.42 13.43
5/18/2021 12:45:00 PM 16.45 61.61 0.249 9.03 7.2 13.38
5/18/2021 1:00:00 PM 16.74 62.132 0.249 9.06 7.62 13.39
5/18/2021 1:15:00 PM 17.04 62.672 0.249 9.09 6.92 13.3
5/18/2021 1:30:00 PM 17.18 62.924 0.249 9.1 6.98 13.1
5/18/2021 1:45:00 PM 17.36 63.248 0.249 9.11 11.98 13.04
5/18/2021 2:00:00 PM 17.72 63.896 0.249 9.15 6.89 13.12
5/18/2021 2:15:00 PM 17.98 64.364 0.249 9.18 6.51 13.05
5/18/2021 2:30:00 PM 18.17 64.706 0.249 9.19 14.54 12.93
5/18/2021 2:45:00 PM 18.35 65.03 0.249 9.21 6.57 12.82
5/18/2021 3:00:00 PM 18.53 65.354 0.249 9.22 6.59 12.76
5/18/2021 3:15:00 PM 18.71 65.67799 0.249 9.24 6.12 12.69
5/18/2021 3:30:00 PM 18.89 66.002 0.249 9.25 6.07 12.53
5/18/2021 3:45:00 PM 19.02 66.236 0.25 9.26 5.84 12.45
5/18/2021 4:00:00 PM 19.13 66.434 0.25 9.28 5.72 12.31
5/18/2021 4:15:00 PM 19.22 66.596 0.25 9.29 6.12 12.17
5/18/2021 4:30:00 PM 19.28 66.704 0.25 9.29 6.18 11.99
5/18/2021 4:45:00 PM 19.34 66.812 0.25 9.3 6.76 11.83
5/18/2021 5:00:00 PM 19.36 66.848 0.249 9.29 6.88 11.68
5/18/2021 5:15:00 PM 19.35 66.83 0.249 9.3 6.55 11.52
5/18/2021 5:30:00 PM 19.32 66.776 0.249 9.3 8.38 11.36
5/18/2021 5:45:00 PM 19.27 66.686 0.249 9.29 9.39 11.21
5/18/2021 6:00:00 PM 19.25 66.65 0.249 9.29 6.29 11.09
5/18/2021 6:15:00 PM 19.2 66.56 0.249 9.28 6.66 10.93
5/18/2021 6:30:00 PM 19.12 66.416 0.249 9.27 5.95 10.78
5/18/2021 6:45:00 PM 19.06 66.308 0.249 9.25 6.53 10.57
5/18/2021 7:00:00 PM 18.98 66.164 0.249 9.23 7.97 10.4
5/18/2021 7:15:00 PM 18.89 66.002 0.249 9.2 6.63 10.2
5/18/2021 7:30:00 PM 18.78 65.804 0.249 9.17 6.57 9.98
5/18/2021 7:45:00 PM 18.68 65.624 0.249 9.12 9.21 9.65
5/18/2021 8:00:00 PM 18.56 65.408 0.249 9.08 8.25 9.5
5/18/2021 8:15:00 PM 18.44 65.192 0.25 9.02 13.27 9.26
5/18/2021 8:30:00 PM 18.33 64.994 0.25 8.97 7.07 8.99
5/18/2021 8:45:00 PM 18.2 64.76 0.25 8.91 7.08 8.84
5/18/2021 9:00:00 PM 18.07 64.526 0.25 8.83 7.19 8.61
5/18/2021 9:15:00 PM 17.95 64.31 0.25 8.76 10 8.47
5/18/2021 9:30:00 PM 17.83 64.094 0.25 8.69 7.25 8.38
5/18/2021 9:45:00 PM 17.71 63.878 0.251 8.61 7.53 8.33
5/18/2021 10:00:00 PM 17.6 63.68 0.251 8.51 7.62 8.29
5/18/2021 10:15:00 PM 17.48 63.464 0.251 8.41 7.1 8.25
5/18/2021 10:30:00 PM 17.35 63.23 0.251 8.3 7.88 8.23
5/18/2021 10:45:00 PM 17.21 62.978 0.251 8.2 7.29 8.26
5/18/2021 11:00:00 PM 17.09 62.762 0.252 8.1 6.5 8.27
5/18/2021 11:15:00 PM 16.94 62.492 0.252 8 7.2 8.28
5/18/2021 11:30:00 PM 16.81 62.258 0.252 7.92 6.75 8.34
5/18/2021 11:45:00 PM 16.68 62.024 0.252 7.85 7.54 8.3
5/19/2021 12:00:00 AM 16.55 61.79 0.252 7.79 7.27 8.38
5/19/2021 12:15:00 AM 16.42 61.556 0.252 7.74 7.97 8.35
5/19/2021 12:30:00 AM 16.29 61.322 0.253 7.7 8 8.42
5/19/2021 12:45:00 AM 16.15 61.07 0.253 7.66 7.18 8.42
5/19/2021 1:00:00 AM 16.02 60.836 0.254 7.63 7.71 8.47
5/19/2021 1:15:00 AM 15.9 60.62 0.254 7.61 7.38 8.49
5/19/2021 1:30:00 AM 15.77 60.386 0.254 7.6 7.25 8.53
5/19/2021 1:45:00 AM 15.65 60.17 0.255 7.56 13.3 8.48
5/19/2021 2:00:00 AM 15.53 59.954 0.255 7.57 7.28 8.58
5/19/2021 2:15:00 AM 15.4 59.72 0.255 7.55 6.98 8.61
5/19/2021 2:30:00 AM 15.28 59.504 0.255 7.54 7.37 8.67
5/19/2021 2:45:00 AM 15.16 59.288 0.255 7.53 6.99 8.7
5/19/2021 3:00:00 AM 15.04 59.072 0.255 7.51 7.16 8.72
5/19/2021 3:15:00 AM 14.91 58.838 0.255 7.52 6.75 8.79
5/19/2021 3:30:00 AM 14.8 58.64 0.255 7.52 6.81 8.79
5/19/2021 3:45:00 AM 14.68 58.424 0.255 7.52 7.52 8.84
5/19/2021 4:00:00 AM 14.55 58.19 0.255 7.5 8.29 8.78
5/19/2021 4:15:00 AM 14.43 57.974 0.255 7.49 8.76 8.83
5/19/2021 4:30:00 AM 14.31 57.758 0.256 7.48 13.1 8.85
5/19/2021 4:45:00 AM 14.2 57.56 0.257 7.49 7.18 8.93
5/19/2021 5:00:00 AM 14.07 57.326 0.257 7.49 6.22 9
5/19/2021 5:15:00 AM 13.95 57.11 0.257 7.48 10.7 9.01
5/19/2021 5:30:00 AM 13.84 56.912 0.257 7.48 5.64 9.04
5/19/2021 5:45:00 AM 13.73 56.714 0.258 7.47 5.85 9.02
5/19/2021 6:00:00 AM 13.61 56.498 0.258 7.47 6.33 9.08
5/19/2021 6:15:00 AM 13.52 56.336 0.258 7.49 6.66 9.14
5/19/2021 6:30:00 AM 13.42 56.156 0.258 7.5 5.74 9.3
5/19/2021 6:45:00 AM 13.32 55.976 0.258 7.51 13.96 9.5
5/19/2021 7:00:00 AM 13.26 55.868 0.258 7.53 6.91 9.63
5/19/2021 7:15:00 AM 13.21 55.778 0.258 7.58 7.64 9.94
5/19/2021 7:30:00 AM 13.16 55.688 0.258 7.63 9.94 10.22
5/19/2021 7:45:00 AM 13.13 55.634 0.257 7.68 5.73 10.48
5/19/2021 8:00:00 AM 13.12 55.616 0.257 7.73 5.46 10.65
5/19/2021 8:15:00 AM 13.14 55.652 0.257 7.8 8.2 10.94
5/19/2021 8:30:00 AM 13.18 55.724 0.257 7.88 5.62 11.18
5/19/2021 8:45:00 AM 13.26 55.868 0.257 7.96 7.74 11.46
5/19/2021 9:00:00 AM 13.37 56.066 0.257 8.04 5.25 11.64
5/19/2021 9:15:00 AM 13.55 56.39 0.257 8.17 5.76 11.87
5/19/2021 9:30:00 AM 13.78 56.804 0.257 8.28 8.39 12.1
5/19/2021 9:45:00 AM 14.04 57.272 0.257 8.41 5.48 12.36
5/19/2021 10:00:00 AM 14.34 57.812 0.257 8.48 6.64 12.51
5/19/2021 10:15:00 AM 14.68 58.424 0.257 8.57 6.07 12.71
5/19/2021 10:30:00 AM 15.02 59.036 0.257 8.64 5.35 12.88
5/19/2021 10:45:00 AM 15.38 59.684 0.258 8.69 6.29 12.97
5/19/2021 11:00:00 AM 15.74 60.332 0.258 8.74 5.76 13.1
5/19/2021 11:15:00 AM 16.1 60.98 0.258 8.78 5.16 13.19
5/19/2021 11:30:00 AM 16.47 61.646 0.258 8.83 5.67 13.18
5/19/2021 11:45:00 AM 16.83 62.294 0.259 8.88 5.25 13.25
5/19/2021 12:00:00 PM 17.18 62.924 0.259 8.92 5.34 13.29
5/19/2021 12:15:00 PM 17.51 63.518 0.259 8.94 5.06 13.33
5/19/2021 12:30:00 PM 17.83 64.094 0.26 8.97 5.36 13.29
5/19/2021 12:45:00 PM 18.14 64.652 0.261 9.01 5.12 13.12
5/19/2021 1:00:00 PM 18.47 65.246 0.261 9.03 6.63 13.2
5/19/2021 1:15:00 PM 18.76 65.768 0.261 9.06 4.81 13.09
5/19/2021 1:30:00 PM 19.06 66.308 0.262 9.09 4.79 13.05
5/19/2021 1:45:00 PM 19.33 66.794 0.262 9.11 4.46 13
5/19/2021 2:00:00 PM 19.6 67.28 0.262 9.13 4.73 12.92
5/19/2021 2:15:00 PM 19.84 67.712 0.262 9.16 4.57 12.73
5/19/2021 2:30:00 PM 20.03 68.054 0.263 9.17 4.53 12.66
5/19/2021 2:45:00 PM 20.2 68.36 0.263 9.19 4.68 12.58
5/19/2021 3:00:00 PM 20.35 68.63 0.263 9.2 4.45 12.59
5/19/2021 3:15:00 PM 20.55 68.99 0.263 9.22 4.76 12.56
5/19/2021 3:30:00 PM 20.69 69.242 0.263 9.24 4.39 12.46
5/19/2021 3:45:00 PM 20.74 69.332 0.263 9.24 4.44 12.32
5/19/2021 4:00:00 PM 20.74 69.332 0.263 9.25 4.52 12.05
5/19/2021 4:15:00 PM 20.73 69.314 0.263 9.26 4.24 12
5/19/2021 4:30:00 PM 20.81 69.458 0.263 9.27 4.35 11.96
5/19/2021 4:45:00 PM 20.87 69.566 0.263 9.27 4.64 11.87
5/19/2021 5:00:00 PM 20.86 69.548 0.263 9.27 4.31 11.46
5/19/2021 5:15:00 PM 20.8 69.44 0.263 9.27 4.93 11.35
5/19/2021 5:30:00 PM 20.71 69.278 0.262 9.26 5 11.24
5/19/2021 5:45:00 PM 20.67 69.206 0.262 9.27 4.93 11.14
5/19/2021 6:00:00 PM 20.6 69.08 0.262 9.26 6.57 10.96
5/19/2021 6:15:00 PM 20.48 68.864 0.262 9.26 5.35 10.76
5/19/2021 6:30:00 PM 20.4 68.72 0.262 9.23 4.42 10.59
5/19/2021 6:45:00 PM 20.34 68.612 0.262 9.22 6.06 10.41
5/19/2021 7:00:00 PM 20.25 68.45 0.262 9.2 5.75 10.25
5/19/2021 7:15:00 PM 20.16 68.288 0.262 9.17 4.68 9.97
5/19/2021 7:30:00 PM 20.05 68.09 0.261 9.14 5.75 9.75
5/19/2021 7:45:00 PM 19.94 67.892 0.261 9.1 5.27 9.48
5/19/2021 8:00:00 PM 19.83 67.694 0.261 9.06 5.18 9.26
5/19/2021 8:15:00 PM 19.71 67.478 0.262 9 5.28 9
5/19/2021 8:30:00 PM 19.59 67.262 0.262 8.95 4.86 8.78
5/19/2021 8:45:00 PM 19.45 67.01 0.262 8.87 9.96 8.49
5/19/2021 9:00:00 PM 19.33 66.794 0.263 8.79 4.92 8.24
5/19/2021 9:15:00 PM 19.2 66.56 0.263 8.71 5.75 8.14
5/19/2021 9:30:00 PM 19.1 66.38 0.263 8.63 5.53 8.06
5/19/2021 9:45:00 PM 18.99 66.182 0.264 8.54 5.69 7.99
5/19/2021 10:00:00 PM 18.87 65.966 0.264 8.44 5.4 7.9
5/19/2021 10:15:00 PM 18.74 65.732 0.264 8.33 5.28 7.88
5/19/2021 10:30:00 PM 18.62 65.516 0.265 8.22 5.35 7.81
5/19/2021 10:45:00 PM 18.49 65.282 0.265 8.11 5.84 7.84
5/19/2021 11:00:00 PM 18.36 65.048 0.265 8.01 5.6 7.81
5/19/2021 11:15:00 PM 18.24 64.832 0.265 7.91 6.56 7.82
5/19/2021 11:30:00 PM 18.11 64.598 0.265 7.84 5.99 7.85
5/19/2021 11:45:00 PM 17.99 64.382 0.265 7.79 6.08 7.89
5/20/2021 12:00:00 AM 17.86 64.148 0.265 7.73 5.89 7.9
5/20/2021 12:15:00 AM 17.75 63.95 0.265 7.69 5.93 7.94
5/20/2021 12:30:00 AM 17.62 63.716 0.265 7.66 6.94 7.96
5/20/2021 12:45:00 AM 17.51 63.518 0.265 7.63 5.85 7.95
5/20/2021 1:00:00 AM 17.4 63.32 0.266 7.61 5.7 7.99
5/20/2021 1:15:00 AM 17.28 63.104 0.266 7.59 5.42 8.04
5/20/2021 1:30:00 AM 17.16 62.888 0.266 7.57 5.49 8.06
5/20/2021 1:45:00 AM 17.05 62.69 0.266 7.56 6.24 8.11
5/20/2021 2:00:00 AM 16.93 62.474 0.266 7.55 5.58 8.12
5/20/2021 2:15:00 AM 16.8 62.24 0.266 7.53 5.71 8.13
5/20/2021 2:30:00 AM 16.69 62.042 0.266 7.53 7.88 8.18
5/20/2021 2:45:00 AM 16.58 61.844 0.267 7.52 7.01 8.21
5/20/2021 3:00:00 AM 16.45 61.61 0.267 7.51 5.76 8.22
5/20/2021 3:15:00 AM 16.34 61.412 0.267 7.51 5.91 8.26
5/20/2021 3:30:00 AM 16.22 61.196 0.267 7.5 6.03 8.3
5/20/2021 3:45:00 AM 16.11 60.998 0.267 7.5 5.67 8.35
5/20/2021 4:00:00 AM 16 60.8 0.268 7.49 6.63 8.37
5/20/2021 4:15:00 AM 15.91 60.638 0.268 7.49 5.82 8.37
5/20/2021 4:30:00 AM 15.82 60.476 0.268 7.49 6.24 8.42
5/20/2021 4:45:00 AM 15.72 60.296 0.269 7.48 5.88 8.46
5/20/2021 5:00:00 AM 15.61 60.098 0.269 7.48 9.72 8.48
5/20/2021 5:15:00 AM 15.51 59.918 0.269 7.48 5.65 8.52
5/20/2021 5:30:00 AM 15.39 59.702 0.27 7.47 6.69 8.56
5/20/2021 5:45:00 AM 15.28 59.504 0.27 7.47 6.39 8.56
5/20/2021 6:00:00 AM 15.18 59.324 0.27 7.47 5.75 8.63
5/20/2021 6:15:00 AM 15.08 59.144 0.27 7.47 6.27 8.68
5/20/2021 6:30:00 AM 14.98 58.964 0.27 7.48 6.13 8.82
5/20/2021 6:45:00 AM 14.9 58.82 0.269 7.5 6.28 8.94
5/20/2021 7:00:00 AM 14.83 58.694 0.27 7.52 6.82 9.15
5/20/2021 7:15:00 AM 14.79 58.622 0.269 7.56 5.8 9.38
5/20/2021 7:30:00 AM 14.75 58.55 0.269 7.61 6.15 9.69
5/20/2021 7:45:00 AM 14.71 58.478 0.269 7.65 7.48 9.87
5/20/2021 8:00:00 AM 14.68 58.424 0.269 7.69 6.43 10.02
5/20/2021 8:15:00 AM 14.67 58.406 0.269 7.73 6.13 10.25
5/20/2021 8:30:00 AM 14.7 58.46 0.269 7.81 5.93 10.61
5/20/2021 8:45:00 AM 14.77 58.586 0.269 7.93 6.22 11
5/20/2021 9:00:00 AM 14.88 58.784 0.269 8.02 7.7 11.27
5/20/2021 9:15:00 AM 15 59 0.269 8.1 6.74 11.58
5/20/2021 9:30:00 AM 15.17 59.306 0.269 8.21 7.14 11.68
5/20/2021 9:45:00 AM 15.38 59.684 0.269 8.3 7.18 11.95
5/20/2021 10:00:00 AM 15.56 60.008 0.269 8.39 8.56 12.19
5/20/2021 10:15:00 AM 15.78 60.404 0.269 8.46 9.12 12.36
5/20/2021 10:30:00 AM 16.05 60.89 0.269 8.53 8.36 12.45
5/20/2021 10:45:00 AM 16.41 61.538 0.269 8.57 8.07 12.61
5/20/2021 11:00:00 AM 16.87 62.366 0.27 8.63 7.84 12.74
5/20/2021 11:15:00 AM 17.33 63.194 0.27 8.72 8.12 12.88
5/20/2021 11:30:00 AM 17.79 64.022 0.271 8.76 7.92 12.95
5/20/2021 11:45:00 AM 18.07 64.526 0.272 8.84 7.67 12.93
5/20/2021 12:00:00 PM 18.24 64.832 0.272 8.88 7.43 12.84
5/20/2021 12:15:00 PM 18.45 65.21 0.272 8.91 7.39 13
5/20/2021 12:30:00 PM 18.72 65.696 0.273 8.92 7.63 12.98
5/20/2021 12:45:00 PM 19.06 66.308 0.273 8.95 7.49 12.91
5/20/2021 1:00:00 PM 19.25 66.65 0.273 8.98 7.36 12.8
5/20/2021 1:15:00 PM 19.31 66.758 0.273 9.01 6.94 12.45
5/20/2021 1:30:00 PM 19.55 67.19 0.273 9.01 7.16 12.43
5/20/2021 1:45:00 PM 19.83 67.694 0.274 9.02 7.39 12.54
5/20/2021 2:00:00 PM 20.16 68.288 0.274 9.06 6.72 12.5
5/20/2021 2:15:00 PM 20.3 68.54 0.274 9.09 6.7 12.27
5/20/2021 2:30:00 PM 20.42 68.756 0.274 9.1 6.98 12.25
5/20/2021 2:45:00 PM 20.62 69.116 0.274 9.11 7.03 12.15
5/20/2021 3:00:00 PM 20.94 69.692 0.274 9.13 6.43 12.17
5/20/2021 3:15:00 PM 21.13 70.034 0.274 9.15 6.4 12.1
5/20/2021 3:30:00 PM 21.15 70.07 0.274 9.16 6.34 11.89
5/20/2021 3:45:00 PM 21.13 70.034 0.274 9.15 6.43 11.69
5/20/2021 4:00:00 PM 21.19 70.142 0.274 9.15 5.84 11.57
5/20/2021 4:15:00 PM 21.32 70.376 0.273 9.16 5.46 11.49
5/20/2021 4:30:00 PM 21.45 70.61 0.274 9.17 5.71 11.42
5/20/2021 4:45:00 PM 21.56 70.808 0.274 9.17 5.15 11.39
5/20/2021 5:00:00 PM 21.6 70.88 0.274 9.18 5.12 11.29
5/20/2021 5:15:00 PM 21.54 70.772 0.274 9.18 7.51 11.23
5/20/2021 5:30:00 PM 21.45 70.61 0.274 9.18 5.64 11.12
5/20/2021 5:45:00 PM 21.34 70.412 0.274 9.17 5.02 10.96
5/20/2021 6:00:00 PM 21.25 70.25 0.274 9.16 5.69 10.79
5/20/2021 6:15:00 PM 21.17 70.106 0.274 9.16 5.5 10.6
5/20/2021 6:30:00 PM 21.06 69.908 0.274 9.15 5.62 10.35
5/20/2021 6:45:00 PM 20.94 69.692 0.274 9.13 5.14 10.19
5/20/2021 7:00:00 PM 20.85 69.53 0.274 9.11 5.33 9.95
5/20/2021 7:15:00 PM 20.76 69.368 0.274 9.08 5.43 9.69
5/20/2021 7:30:00 PM 20.65 69.17 0.274 9.04 5.52 9.49
5/20/2021 7:45:00 PM 20.54 68.972 0.274 9 6.37 9.27
5/20/2021 8:00:00 PM 20.43 68.774 0.274 8.96 6.7 8.97
5/20/2021 8:15:00 PM 20.31 68.558 0.274 8.91 5.73 8.82
5/20/2021 8:30:00 PM 20.19 68.342 0.274 8.85 6.32 8.57
5/20/2021 8:45:00 PM 20.06 68.108 0.274 8.78 6.15 8.39
5/20/2021 9:00:00 PM 19.94 67.892 0.274 8.7 6.58 8.13
5/20/2021 9:15:00 PM 19.83 67.694 0.274 8.61 6.95 7.91
5/20/2021 9:30:00 PM 19.72 67.496 0.275 8.51 5.63 7.8
5/20/2021 9:45:00 PM 19.61 67.298 0.275 8.41 6.47 7.66
5/20/2021 10:00:00 PM 19.5 67.1 0.275 8.3 6.05 7.7
5/20/2021 10:15:00 PM 19.4 66.92 0.276 8.19 5.94 7.66
5/20/2021 10:30:00 PM 19.3 66.74 0.276 8.09 5.55 7.47
5/20/2021 10:45:00 PM 19.19 66.542 0.276 7.99 5.56 7.56
5/20/2021 11:00:00 PM 19.08 66.344 0.276 7.9 5.51 7.59
5/20/2021 11:15:00 PM 18.97 66.146 0.277 7.82 5.55 7.5
5/20/2021 11:30:00 PM 18.86 65.948 0.277 7.77 5.76 7.56
5/20/2021 11:45:00 PM 18.75 65.75 0.277 7.72 7.02 7.55
5/21/2021 12:00:00 AM 18.65 65.57 0.278 7.68 6.24 7.51
5/21/2021 12:15:00 AM 18.53 65.354 0.278 7.65 6.13 7.58
5/21/2021 12:30:00 AM 18.42 65.156 0.278 7.63 6.06 7.67
5/21/2021 12:45:00 AM 18.3 64.94 0.279 7.6 5.81 7.7
5/21/2021 1:00:00 AM 18.19 64.742 0.279 7.58 5.86 7.63
5/21/2021 1:15:00 AM 18.07 64.526 0.279 7.57 6.2 7.75
5/21/2021 1:30:00 AM 17.96 64.328 0.28 7.55 6.17 7.72
5/21/2021 1:45:00 AM 17.85 64.13 0.28 7.54 14.54 7.81
5/21/2021 2:00:00 AM 17.74 63.932 0.28 7.53 6.03 7.85
5/21/2021 2:15:00 AM 17.64 63.752 0.28 7.52 6.07 7.83
5/21/2021 2:30:00 AM 17.53 63.554 0.28 7.51 5.98 7.86
5/21/2021 2:45:00 AM 17.42 63.356 0.28 7.51 5.96 7.84
5/21/2021 3:00:00 AM 17.31 63.158 0.28 7.5 8.19 7.95
5/21/2021 3:15:00 AM 17.2 62.96 0.28 7.5 6.68 7.98
5/21/2021 3:30:00 AM 17.08 62.744 0.28 7.49 5.9 8
5/21/2021 3:45:00 AM 16.98 62.564 0.28 7.49 6.47 8.01
5/21/2021 4:00:00 AM 16.87 62.366 0.28 7.49 5.81 8.07
5/21/2021 4:15:00 AM 16.77 62.186 0.28 7.48 5.71 8.06
5/21/2021 4:30:00 AM 16.67 62.006 0.28 7.48 6.13 8.12
5/21/2021 4:45:00 AM 16.57 61.826 0.281 7.48 7.8 8.16
5/21/2021 5:00:00 AM 16.47 61.646 0.28 7.48 5.54 8.21
5/21/2021 5:15:00 AM 16.36 61.448 0.28 7.47 5.61 8.23
5/21/2021 5:30:00 AM 16.25 61.25 0.28 7.47 5.62 8.29
5/21/2021 5:45:00 AM 16.15 61.07 0.28 7.47 5.6 8.28
5/21/2021 6:00:00 AM 16.05 60.89 0.281 7.47 5.86 8.26
5/21/2021 6:15:00 AM 15.96 60.728 0.281 7.47 5.93 8.38
5/21/2021 6:30:00 AM 15.88 60.584 0.281 7.48 5.89 8.41
5/21/2021 6:45:00 AM 15.8 60.44 0.281 7.5 6.15 8.69
5/21/2021 7:00:00 AM 15.74 60.332 0.281 7.52 5.93 8.84
5/21/2021 7:15:00 AM 15.7 60.26 0.281 7.53 7.16 8.93
5/21/2021 7:30:00 AM 15.67 60.206 0.282 7.56 20.34 9.14
5/21/2021 7:45:00 AM 15.64 60.152 0.282 7.62 8.22 9.42
5/21/2021 8:00:00 AM 15.63 60.134 0.282 7.66 9 9.69
5/21/2021 8:15:00 AM 15.65 60.17 0.283 7.7 6.09 9.88
5/21/2021 8:30:00 AM 15.69 60.242 0.283 7.75 5.94 10.09
5/21/2021 8:45:00 AM 15.76 60.368 0.283 7.79 6.16 10.25
5/21/2021 9:00:00 AM 15.87 60.566 0.284 7.86 6.26 10.38
5/21/2021 9:15:00 AM 16.03 60.854 0.284 7.9 6.29 10.55
5/21/2021 9:30:00 AM 16.26 61.268 0.284 7.98 6.44 10.87
5/21/2021 9:45:00 AM 16.54 61.772 0.284 8.11 5.99 11.1
5/21/2021 10:00:00 AM 16.82 62.276 0.284 8.18 6.22 11.22
5/21/2021 10:15:00 AM 17.16 62.888 0.284 8.28 6.36 11.53
5/21/2021 10:30:00 AM 17.48 63.464 0.284 8.34 6.71 11.69
5/21/2021 10:45:00 AM 17.85 64.13 0.284 8.41 6.74 11.75
5/21/2021 11:00:00 AM 18.15 64.67 0.285 8.39 10.93 11.66
5/21/2021 11:15:00 AM 18.37 65.066 0.285 8.47 7.3 11.85
5/21/2021 11:30:00 AM 18.61 65.498 0.285 8.53 7.1 11.81
5/21/2021 11:45:00 AM 18.71 65.67799 0.286 8.51 7.28 11.88
5/21/2021 12:00:00 PM 19.32 66.776 0.285 8.65 6.29 12.11
5/21/2021 12:15:00 PM 19.87 67.766 0.285 8.73 6.39 12.37
5/21/2021 12:30:00 PM 20.32 68.576 0.285 8.78 5.99 12.24
5/21/2021 12:45:00 PM 20.78 69.404 0.285 8.8 6.08 12.28
5/21/2021 1:00:00 PM 21.12 70.016 0.286 8.85 5.87 12.14
5/21/2021 1:15:00 PM 21.43 70.574 0.285 8.89 5.77 12.11
5/21/2021 1:30:00 PM 21.74 71.132 0.284 8.92 6.13 12.18
5/21/2021 1:45:00 PM 22.05 71.69 0.284 8.93 5.87 11.99
5/21/2021 2:00:00 PM 22.33 72.194 0.285 8.94 5.79 11.95
5/21/2021 2:15:00 PM 22.56 72.608 0.285 8.98 5.6 11.99
5/21/2021 2:30:00 PM 22.79 73.022 0.285 9.01 5.45 11.87
5/21/2021 2:45:00 PM 23.02 73.436 0.286 9.03 5.83 11.7
5/21/2021 3:00:00 PM 23.21 73.778 0.286 9.03 7.61 11.61
5/21/2021 3:15:00 PM 23.33 73.994 0.286 9.04 6.42 11.43
5/21/2021 3:30:00 PM 23.45 74.21 0.286 9.04 5.64 11.23
5/21/2021 3:45:00 PM 23.5 74.3 0.287 9.06 5.1 11.08
5/21/2021 4:00:00 PM 23.54 74.372 0.287 9.05 6.2 10.92
5/21/2021 4:15:00 PM 23.6 74.48 0.287 9.04 5.2 10.72
5/21/2021 4:30:00 PM 23.6 74.48 0.287 9.04 5.37 10.6
5/21/2021 4:45:00 PM 23.61 74.498 0.287 9.05 4.84 10.32
5/21/2021 5:00:00 PM 23.63 74.534 0.287 9.05 5.01 10.36
5/21/2021 5:15:00 PM 23.61 74.498 0.287 9.05 5.12 10.23
5/21/2021 5:30:00 PM 23.53 74.354 0.287 9.04 5.23 10.02
5/21/2021 5:45:00 PM 23.46 74.228 0.287 9.03 52.02 9.95
5/21/2021 6:00:00 PM 23.35 74.03 0.287 9.01 14.87 9.77
5/21/2021 6:15:00 PM 23.2 73.76 0.287 9.01 12.42 9.71
5/21/2021 6:30:00 PM 23.04 73.472 0.287 8.98 10.22 9.55
5/21/2021 6:45:00 PM 22.89 73.202 0.287 8.95 9.87 9.34
5/21/2021 7:00:00 PM 22.75 72.95 0.286 8.93 10.03 9.18
5/21/2021 7:15:00 PM 22.6 72.68 0.286 8.9 9.75 8.99
5/21/2021 7:30:00 PM 22.44 72.392 0.286 8.87 9.91 8.9
5/21/2021 7:45:00 PM 22.26 72.068 0.286 8.82 9.78 8.65
5/21/2021 8:00:00 PM 22.07 71.726 0.286 8.77 9.7 8.38
5/21/2021 8:15:00 PM 21.87 71.366 0.286 8.71 10.1 8.16
5/21/2021 8:30:00 PM 21.67 71.006 0.287 8.62 9.86 7.95
5/21/2021 8:45:00 PM 21.47 70.646 0.287 8.53 12.48 7.66
5/21/2021 9:00:00 PM 21.32 70.376 0.287 8.46 10.67 7.59
5/21/2021 9:15:00 PM 21.15 70.07 0.288 8.36 10.95 7.5
5/21/2021 9:30:00 PM 21 69.8 0.288 8.26 11.23 7.38
5/21/2021 9:45:00 PM 20.85 69.53 0.288 8.15 11.21 7.32
5/21/2021 10:00:00 PM 20.72 69.296 0.289 8.03 9.37 7.26
5/21/2021 10:15:00 PM 20.6 69.08 0.289 7.96 9.94 7.25
5/21/2021 10:30:00 PM 20.48 68.864 0.289 7.88 9.7 7.23
5/21/2021 10:45:00 PM 20.37 68.666 0.289 7.81 9.79 7.24
5/21/2021 11:00:00 PM 20.25 68.45 0.289 7.75 9.78 7.17
5/21/2021 11:15:00 PM 20.15 68.27 0.289 7.7 10.33 7.2
5/21/2021 11:30:00 PM 20.03 68.054 0.289 7.67 10.31 7.2
5/21/2021 11:45:00 PM 19.92 67.856 0.289 7.64 10.08 7.26
5/22/2021 12:00:00 AM 19.82 67.676 0.289 7.62 9.8 7.23
5/22/2021 12:15:00 AM 19.71 67.478 0.29 7.6 9.7 7.27
5/22/2021 12:30:00 AM 19.6 67.28 0.29 7.57 9.95 7.3
5/22/2021 12:45:00 AM 19.49 67.082 0.29 7.56 9.78 7.3
5/22/2021 1:00:00 AM 19.37 66.866 0.29 7.55 9.79 7.35
5/22/2021 1:15:00 AM 19.25 66.65 0.29 7.54 10.02 7.34
5/22/2021 1:30:00 AM 19.14 66.452 0.29 7.53 10.05 7.39
5/22/2021 1:45:00 AM 19.02 66.236 0.29 7.53 9.91 7.42
5/22/2021 2:00:00 AM 18.92 66.056 0.29 7.52 10.44 7.44
5/22/2021 2:15:00 AM 18.81 65.858 0.291 7.52 9.96 7.54
5/22/2021 2:30:00 AM 18.69 65.642 0.291 7.51 9.62 7.52
5/22/2021 2:45:00 AM 18.58 65.444 0.291 7.5 9.5 7.58
5/22/2021 3:00:00 AM 18.47 65.246 0.291 7.5 9.25 7.58
5/22/2021 3:15:00 AM 18.36 65.048 0.291 7.5 9.42 7.64
5/22/2021 3:30:00 AM 18.25 64.85 0.292 7.5 10.11 7.64
5/22/2021 3:45:00 AM 18.13 64.634 0.292 7.49 9.38 7.6
5/22/2021 4:00:00 AM 18.04 64.472 0.292 7.49 9.51 7.67
5/22/2021 4:15:00 AM 17.93 64.274 0.293 7.49 9.92 7.66
5/22/2021 4:30:00 AM 17.84 64.112 0.293 7.49 9.61 7.7
5/22/2021 4:45:00 AM 17.73 63.914 0.293 7.49 9.54 7.8
5/22/2021 5:00:00 AM 17.61 63.698 0.294 7.48 9.6 7.81
5/22/2021 5:15:00 AM 17.51 63.518 0.294 7.48 9.23 7.8
5/22/2021 5:30:00 AM 17.39 63.302 0.294 7.48 8.78 7.84
5/22/2021 5:45:00 AM 17.28 63.104 0.294 7.48 10.33 7.9
5/22/2021 6:00:00 AM 17.2 62.96 0.294 7.48 10.17 7.93
5/22/2021 6:15:00 AM 17.12 62.816 0.294 7.49 8.62 7.96
5/22/2021 6:30:00 AM 17.04 62.672 0.294 7.5 9.08 8.1
5/22/2021 6:45:00 AM 16.98 62.564 0.294 7.51 8.66 8.28
5/22/2021 7:00:00 AM 16.92 62.456 0.293 7.53 9.42 8.42
5/22/2021 7:15:00 AM 16.89 62.402 0.293 7.54 9.03 8.6
5/22/2021 7:30:00 AM 16.87 62.366 0.293 7.58 8.8 8.93
5/22/2021 7:45:00 AM 16.87 62.366 0.294 7.63 7.36 9.17
5/22/2021 8:00:00 AM 16.86 62.348 0.294 7.68 7.77 9.43
5/22/2021 8:15:00 AM 16.87 62.366 0.293 7.72 8.59 9.54
5/22/2021 8:30:00 AM 16.89 62.402 0.293 7.73 6.89 9.6
5/22/2021 8:45:00 AM 16.93 62.474 0.293 7.77 7.45 9.77
5/22/2021 9:00:00 AM 17.01 62.618 0.293 7.86 7.47 10.08
5/22/2021 9:15:00 AM 17.15 62.87 0.293 7.94 7.7 10.39
5/22/2021 9:30:00 AM 17.35 63.23 0.293 7.97 7.23 10.56
5/22/2021 9:45:00 AM 17.55 63.59 0.293 8.07 6.85 10.69
5/22/2021 10:00:00 AM 17.75 63.95 0.293 8.12 7.53 10.87
5/22/2021 10:15:00 AM 17.94 64.292 0.293 8.22 6.93 10.98
5/22/2021 10:30:00 AM 18.09 64.562 0.293 8.25 7.23 11.06
5/22/2021 10:45:00 AM 18.26 64.868 0.293 8.33 7.6 10.94
5/22/2021 11:00:00 AM 18.43 65.174 0.293 8.39 7.11 11.11
5/22/2021 11:15:00 AM 18.59 65.462 0.294 8.45 6.27 11.49
5/22/2021 11:30:00 AM 18.82 65.876 0.294 8.5 6.74 11.53
5/22/2021 11:45:00 AM 19.1 66.38 0.294 8.55 6.19 11.53
5/22/2021 12:00:00 PM 19.34 66.812 0.295 8.55 7.56 11.54
5/22/2021 12:15:00 PM 19.61 67.298 0.295 8.59 7.29 11.59
5/22/2021 12:30:00 PM 19.85 67.73 0.296 8.61 6.61 11.55
5/22/2021 12:45:00 PM 20.1 68.18 0.296 8.65 6.7 11.45
5/22/2021 1:00:00 PM 20.37 68.666 0.296 8.75 6.68 11.86
5/22/2021 1:15:00 PM 20.5 68.9 0.295 8.81 8.12 11.73
5/22/2021 1:30:00 PM 20.54 68.972 0.295 8.85 5.71 11.74
5/22/2021 1:45:00 PM 20.63 69.134 0.294 8.84 6 11.62
5/22/2021 2:00:00 PM 20.79 69.422 0.294 8.85 6.04 11.52
5/22/2021 2:15:00 PM 20.95 69.71 0.294 8.88 6.81 11.71
5/22/2021 2:30:00 PM 21.1 69.98 0.294 8.89 6.67 11.51
5/22/2021 2:45:00 PM 21.22 70.196 0.294 8.92 6.02 11.5
5/22/2021 3:00:00 PM 21.31 70.358 0.293 8.94 7.02 11.56
5/22/2021 3:15:00 PM 21.43 70.574 0.293 8.95 6.11 11.51
5/22/2021 3:30:00 PM 21.5 70.7 0.293 8.96 7.3 11.41
5/22/2021 3:45:00 PM 21.6 70.88 0.293 8.96 6.45 11.34
5/22/2021 4:00:00 PM 21.63 70.934 0.292 8.98 6.09 11.27
5/22/2021 4:15:00 PM 21.6 70.88 0.292 8.99 5.97 11.08
5/22/2021 4:30:00 PM 21.53 70.754 0.292 8.99 5.21 10.99
5/22/2021 4:45:00 PM 21.44 70.592 0.292 8.97 4.89 10.68
5/22/2021 5:00:00 PM 21.37 70.466 0.291 8.95 6.15 10.54
5/22/2021 5:15:00 PM 21.32 70.376 0.291 8.95 5.07 10.57
5/22/2021 5:30:00 PM 21.24 70.232 0.292 8.96 5.98 10.59
5/22/2021 5:45:00 PM 21.16 70.088 0.292 8.96 5.12 10.5
5/22/2021 6:00:00 PM 21.08 69.944 0.292 8.95 5.72 10.3
5/22/2021 6:15:00 PM 21 69.8 0.292 8.95 5.01 10.25
5/22/2021 6:30:00 PM 20.88 69.584 0.292 8.93 4.57 10.14
5/22/2021 6:45:00 PM 20.76 69.368 0.292 8.9 4.98 9.9
5/22/2021 7:00:00 PM 20.64 69.152 0.292 8.87 4.73 9.6
5/22/2021 7:15:00 PM 20.51 68.918 0.292 8.82 5.22 9.3
5/22/2021 7:30:00 PM 20.41 68.738 0.292 8.77 13.75 9.03
5/22/2021 7:45:00 PM 20.31 68.558 0.292 8.75 5.75 9.11
5/22/2021 8:00:00 PM 20.21 68.378 0.292 8.73 6.4 9.01
5/22/2021 8:15:00 PM 20.1 68.18 0.292 8.7 6.62 8.81
5/22/2021 8:30:00 PM 19.99 67.982 0.292 8.64 5.73 8.59
5/22/2021 8:45:00 PM 19.87 67.766 0.292 8.56 8.45 8.31
5/22/2021 9:00:00 PM 19.76 67.568 0.293 8.47 9.92 8.09
5/22/2021 9:15:00 PM 19.66 67.388 0.293 8.36 7.37 7.88
5/22/2021 9:30:00 PM 19.58 67.244 0.293 8.28 5.91 7.78
5/22/2021 9:45:00 PM 19.51 67.118 0.294 8.22 5.92 7.72
5/22/2021 10:00:00 PM 19.43 66.974 0.294 8.13 5.58 7.66
5/22/2021 10:15:00 PM 19.36 66.848 0.294 8.05 7.3 7.59
5/22/2021 10:30:00 PM 19.3 66.74 0.294 7.99 6.08 7.54
5/22/2021 10:45:00 PM 19.23 66.614 0.295 7.91 5.77 7.52
5/22/2021 11:00:00 PM 19.16 66.488 0.295 7.83 6.03 7.48
5/22/2021 11:15:00 PM 19.1 66.38 0.295 7.79 5.93 7.44
5/22/2021 11:30:00 PM 19.03 66.254 0.296 7.75 5.47 7.44
5/22/2021 11:45:00 PM 18.98 66.164 0.296 7.71 5.41 7.45
5/23/2021 12:00:00 AM 18.92 66.056 0.297 7.68 5.43 7.42
5/23/2021 12:15:00 AM 18.86 65.948 0.297 7.65 5.57 7.43
5/23/2021 12:30:00 AM 18.8 65.84 0.298 7.64 5.49 7.36
5/23/2021 12:45:00 AM 18.73 65.714 0.298 7.62 6.04 7.43
5/23/2021 1:00:00 AM 18.67 65.606 0.299 7.6 5.67 7.45
5/23/2021 1:15:00 AM 18.6 65.48 0.299 7.59 6.31 7.35
5/23/2021 1:30:00 AM 18.53 65.354 0.299 7.58 6.17 7.22
5/23/2021 1:45:00 AM 18.44 65.192 0.3 7.56 5.9 7.46
5/23/2021 2:00:00 AM 18.37 65.066 0.3 7.55 5.69 7.14
5/23/2021 2:15:00 AM 18.29 64.922 0.3 7.55 6.68 7.41
5/23/2021 2:30:00 AM 18.21 64.778 0.3 7.55 5.86 7.5
5/23/2021 2:45:00 AM 18.13 64.634 0.3 7.53 9.78 7.48
5/23/2021 3:00:00 AM 18.06 64.508 0.3 7.53 7.15 7.55
5/23/2021 3:15:00 AM 17.99 64.382 0.3 7.54 5.57 7.65
5/23/2021 3:30:00 AM 17.9 64.22 0.3 7.54 6 7.68
5/23/2021 3:45:00 AM 17.83 64.094 0.3 7.53 6.22 7.68
5/23/2021 4:00:00 AM 17.76 63.968 0.3 7.53 6.17 7.74
5/23/2021 4:15:00 AM 17.7 63.86 0.3 7.53 6.95 7.77
5/23/2021 4:30:00 AM 17.63 63.734 0.299 7.53 6.56 7.78
5/23/2021 4:45:00 AM 17.57 63.626 0.299 7.52 6.49 7.77
5/23/2021 5:00:00 AM 17.5 63.5 0.299 7.53 6.79 7.73
5/23/2021 5:15:00 AM 17.42 63.356 0.299 7.51 7.11 7.77
5/23/2021 5:30:00 AM 17.36 63.248 0.299 7.52 6 7.82
5/23/2021 5:45:00 AM 17.3 63.14 0.299 7.52 5.89 7.86
5/23/2021 6:00:00 AM 17.23 63.014 0.299 7.52 6.28 7.77
5/23/2021 6:15:00 AM 17.16 62.888 0.299 7.52 6.64 7.89
5/23/2021 6:30:00 AM 17.11 62.798 0.299 7.52 8.7 7.93
5/23/2021 6:45:00 AM 17.06 62.708 0.299 7.54 6.32 8.08
5/23/2021 7:00:00 AM 17.02 62.636 0.299 7.56 5.68 8.29
5/23/2021 7:15:00 AM 17 62.6 0.3 7.58 6.97 8.43
5/23/2021 7:30:00 AM 16.99 62.582 0.3 7.6 5.97 8.62
5/23/2021 7:45:00 AM 17 62.6 0.3 7.63 6.09 8.75
5/23/2021 8:00:00 AM 17.02 62.636 0.3 7.67 5.78 8.97
5/23/2021 8:15:00 AM 17.06 62.708 0.3 7.7 5.95 9.15
5/23/2021 8:30:00 AM 17.11 62.798 0.3 7.73 5.69 9.29
5/23/2021 8:45:00 AM 17.18 62.924 0.301 7.77 5.94 9.48
5/23/2021 9:00:00 AM 17.28 63.104 0.301 7.82 6.18 9.67
5/23/2021 9:15:00 AM 17.45 63.41 0.301 7.89 6.23 9.92
5/23/2021 9:30:00 AM 17.61 63.698 0.301 7.91 6.93 9.97
5/23/2021 9:45:00 AM 17.81 64.058 0.301 7.95 5.53 10.12
5/23/2021 10:00:00 AM 18.06 64.508 0.301 8 5.68 10.26
5/23/2021 10:15:00 AM 18.21 64.778 0.302 7.99 7.75 10.2
5/23/2021 10:30:00 AM 18.19 64.742 0.302 8.02 7.74 10.7
5/23/2021 10:45:00 AM 18.21 64.778 0.302 8 6.99 10.67
5/23/2021 11:00:00 AM 18.16 64.688 0.302 8.09 7.12 10.86
5/23/2021 11:15:00 AM 18.33 64.994 0.301 8.07 6.8 10.81
5/23/2021 11:30:00 AM 18.6 65.48 0.302 8.12 6.53 10.91
5/23/2021 11:45:00 AM 18.86 65.948 0.302 8.16 7.36 10.95
5/23/2021 12:00:00 PM 19.07 66.326 0.303 8.19 6.73 11.05
5/23/2021 12:15:00 PM 19.42 66.956 0.304 8.24 7.46 11.05
5/23/2021 12:30:00 PM 19.71 67.478 0.304 8.3 9.82 11.07
5/23/2021 12:45:00 PM 19.67 67.406 0.303 8.27 8.99 10.98
5/23/2021 1:00:00 PM 20.46 68.828 0.303 8.42 6.27 10.74
5/23/2021 1:15:00 PM 20.98 69.764 0.302 8.61 6.78 10.74
5/23/2021 1:30:00 PM 21.12 70.016 0.301 8.64 5.75 10.73
5/23/2021 1:45:00 PM 21.14 70.052 0.301 8.63 5.8 10.57
5/23/2021 2:00:00 PM 21.14 70.052 0.301 8.65 6.04 10.48
5/23/2021 2:15:00 PM 21.14 70.052 0.301 8.64 5.48 10.36
5/23/2021 2:30:00 PM 21.18 70.124 0.301 8.65 7.15 10.45
5/23/2021 2:45:00 PM 21.23 70.214 0.301 8.66 5.12 10.49
5/23/2021 3:00:00 PM 21.33 70.394 0.302 8.66 5.31 10.48
5/23/2021 3:15:00 PM 21.45 70.61 0.302 8.7 5.76 10.69
5/23/2021 3:30:00 PM 21.53 70.754 0.302 8.72 5.33 10.54
5/23/2021 3:45:00 PM 21.52 70.736 0.302 8.75 5.23 10.61
5/23/2021 4:00:00 PM 21.47 70.646 0.301 8.74 4.95 10.27
5/23/2021 4:15:00 PM 21.41 70.538 0.301 8.7 4.79 10.07
5/23/2021 4:30:00 PM 21.34 70.412 0.301 8.69 5.06 10.09
5/23/2021 4:45:00 PM 21.26 70.268 0.301 8.7 5.11 10.17
5/23/2021 5:00:00 PM 21.23 70.214 0.3 8.7 5.47 10.05
5/23/2021 5:15:00 PM 21.19 70.142 0.3 8.7 6.64 10
5/23/2021 5:30:00 PM 21.15 70.07 0.3 8.7 6.99 10.01
5/23/2021 5:45:00 PM 21.08 69.944 0.3 8.69 7.56 9.86
5/23/2021 6:00:00 PM 20.97 69.746 0.3 8.67 5.49 9.75
5/23/2021 6:15:00 PM 20.83 69.494 0.299 8.63 5.89 9.49
5/23/2021 6:30:00 PM 20.63 69.134 0.3 8.57 5.89 9.18
5/23/2021 6:45:00 PM 20.47 68.846 0.3 8.5 5.55 8.85
5/23/2021 7:00:00 PM 20.31 68.558 0.3 8.43 5.59 8.65
5/23/2021 7:15:00 PM 20.16 68.288 0.3 8.39 5.27 8.58
5/23/2021 7:30:00 PM 20.03 68.054 0.3 8.35 7.15 8.51
5/23/2021 7:45:00 PM 19.88 67.784 0.3 8.33 5.15 8.5
5/23/2021 8:00:00 PM 19.75 67.55 0.3 8.28 5.56 8.33
5/23/2021 8:15:00 PM 19.62 67.316 0.3 8.22 5.13 8.19
5/23/2021 8:30:00 PM 19.51 67.118 0.301 8.14 5.36 8.03
5/23/2021 8:45:00 PM 19.38 66.884 0.301 8.05 5.49 7.91
5/23/2021 9:00:00 PM 19.25 66.65 0.301 7.98 6.21 7.81
5/23/2021 9:15:00 PM 19.11 66.398 0.302 7.92 5.32 7.79
5/23/2021 9:30:00 PM 18.98 66.164 0.302 7.86 5.66 7.68
5/23/2021 9:45:00 PM 18.85 65.93 0.302 7.81 5.97 7.69
5/23/2021 10:00:00 PM 18.73 65.714 0.303 7.77 6.21 7.65
5/23/2021 10:15:00 PM 18.62 65.516 0.303 7.74 5.79 7.62
5/23/2021 10:30:00 PM 18.5 65.3 0.303 7.71 5.63 7.65
5/23/2021 10:45:00 PM 18.36 65.048 0.303 7.68 6.19 7.6
5/23/2021 11:00:00 PM 18.22 64.796 0.304 7.66 6.59 7.65
5/23/2021 11:15:00 PM 18.08 64.544 0.304 7.65 6.46 7.69
5/23/2021 11:30:00 PM 17.95 64.31 0.304 7.62 6.09 7.65
5/23/2021 11:45:00 PM 17.82 64.076 0.304 7.62 7.51 7.71
5/24/2021 12:00:00 AM 17.69 63.842 0.304 7.61 5.82 7.75
5/24/2021 12:15:00 AM 17.58 63.644 0.304 7.6 5.66 7.81
5/24/2021 12:30:00 AM 17.47 63.446 0.303 7.6 5.51 7.83
5/24/2021 12:45:00 AM 17.36 63.248 0.303 7.59 5.55 7.86
5/24/2021 1:00:00 AM 17.26 63.068 0.303 7.58 6.38 7.8
5/24/2021 1:15:00 AM 17.15 62.87 0.303 7.58 5.59 7.84
5/24/2021 1:30:00 AM 17.04 62.672 0.303 7.58 5.3 7.92
5/24/2021 1:45:00 AM 16.93 62.474 0.303 7.54 5.33 7.9
5/24/2021 2:00:00 AM 16.82 62.276 0.303 7.53 5.08 7.98
5/24/2021 2:15:00 AM 16.7 62.06 0.303 7.52 5.29 7.99
5/24/2021 2:30:00 AM 16.59 61.862 0.303 7.52 5.99 8.09
5/24/2021 2:45:00 AM 16.48 61.664 0.303 7.51 5.99 8.08
5/24/2021 3:00:00 AM 16.37 61.466 0.303 7.51 5.83 8.07
5/24/2021 3:15:00 AM 16.26 61.268 0.304 7.5 6.02 8.13
5/24/2021 3:30:00 AM 16.16 61.088 0.304 7.5 5.77 8.17
5/24/2021 3:45:00 AM 16.06 60.908 0.304 7.49 6.57 8.19
5/24/2021 4:00:00 AM 15.95 60.71 0.305 7.5 6.51 8.22
5/24/2021 4:15:00 AM 15.85 60.53 0.305 7.49 6.57 8.21
5/24/2021 4:30:00 AM 15.74 60.332 0.305 7.49 7.28 8.26
5/24/2021 4:45:00 AM 15.64 60.152 0.305 7.48 7.11 8.27
5/24/2021 5:00:00 AM 15.54 59.972 0.306 7.48 6.77 8.34
5/24/2021 5:15:00 AM 15.45 59.81 0.306 7.48 6.26 8.33
5/24/2021 5:30:00 AM 15.36 59.648 0.306 7.48 5.67 8.37
5/24/2021 5:45:00 AM 15.28 59.504 0.306 7.48 6.05 8.41
5/24/2021 6:00:00 AM 15.2 59.36 0.306 7.48 6.01 8.41
5/24/2021 6:15:00 AM 15.13 59.234 0.306 7.49 5.91 8.52
5/24/2021 6:30:00 AM 15.08 59.144 0.306 7.5 6.02 8.55
5/24/2021 6:45:00 AM 15.05 59.09 0.306 7.53 6.02 8.62
5/24/2021 7:00:00 AM 15 59 0.306 7.55 6.47 8.88
5/24/2021 7:15:00 AM 14.98 58.964 0.306 7.57 7.31 9.06
5/24/2021 7:30:00 AM 14.96 58.928 0.306 7.62 6.96 9.27
5/24/2021 7:45:00 AM 14.96 58.928 0.306 7.67 6.54 9.55
5/24/2021 8:00:00 AM 14.96 58.928 0.305 7.72 6.77 9.74
5/24/2021 8:15:00 AM 14.97 58.946 0.305 7.74 6.57 9.84
5/24/2021 8:30:00 AM 15 59 0.305 7.79 6.31 9.79
5/24/2021 8:45:00 AM 15.04 59.072 0.305 7.82 6.11 10.21
5/24/2021 9:00:00 AM 15.08 59.144 0.305 7.87 6.16 10.27
5/24/2021 9:15:00 AM 15.14 59.252 0.304 7.93 6.27 10.46
5/24/2021 9:30:00 AM 15.2 59.36 0.304 7.96 6.46 10.59
5/24/2021 9:45:00 AM 15.27 59.486 0.304 8 8.67 10.75
5/24/2021 10:00:00 AM 15.38 59.684 0.304 8.04 6.11 10.84
5/24/2021 10:15:00 AM 15.57 60.026 0.304 8.11 8.59 11.01
5/24/2021 10:30:00 AM 15.79 60.422 0.304 8.17 6.34 11.1
5/24/2021 10:45:00 AM 16 60.8 0.305 8.17 6.08 11.19
5/24/2021 11:00:00 AM 16.24 61.232 0.305 8.18 6.33 11.09
5/24/2021 11:15:00 AM 16.29 61.322 0.306 8.18 6.99 11.48
5/24/2021 11:30:00 AM 16.29 61.322 0.305 8.23 6.57 11.73
5/24/2021 11:45:00 AM 16.39 61.502 0.305 8.17 9.95 11.32
5/24/2021 12:00:00 PM 16.54 61.772 0.306 8.24 6.17 11.65
5/24/2021 12:15:00 PM 16.71 62.078 0.306 8.27 6.23 11.87
5/24/2021 12:30:00 PM 17.02 62.636 0.306 8.3 7.31 11.7
5/24/2021 12:45:00 PM 17.29 63.122 0.306 8.35 6.56 12.09
5/24/2021 1:00:00 PM 17.55 63.59 0.307 8.39 6.26 12.19
5/24/2021 1:15:00 PM 18.3 64.94 0.309 8.49 5.83 11.88
5/24/2021 1:30:00 PM 18.65 65.57 0.31 8.51 7.69 11.66
5/24/2021 1:45:00 PM 18.72 65.696 0.31 8.47 7.65 11.2
5/24/2021 2:00:00 PM 19.51 67.118 0.308 8.53 6.33 11.31
5/24/2021 2:15:00 PM 19.73 67.514 0.308 8.6 7.63 11
5/24/2021 2:30:00 PM 20.02 68.036 0.308 8.71 8.63 11.33
5/24/2021 2:45:00 PM 20.07 68.126 0.308 8.68 5.48 11.2
5/24/2021 3:00:00 PM 20.31 68.558 0.307 8.73 6.22 11.33
5/24/2021 3:15:00 PM 20.55 68.99 0.307 8.75 5.65 11.42
5/24/2021 3:30:00 PM 20.7 69.26 0.307 8.76 5.41 11.12
5/24/2021 3:45:00 PM 20.84 69.512 0.307 8.75 5.67 11.25
5/24/2021 4:00:00 PM 20.98 69.764 0.307 8.8 5.9 11.19
5/24/2021 4:15:00 PM 21.03 69.854 0.306 8.8 5.95 10.92
5/24/2021 4:30:00 PM 21.01 69.818 0.306 8.81 6.64 10.74
5/24/2021 4:45:00 PM 20.93 69.674 0.305 8.82 5.21 10.63
5/24/2021 5:00:00 PM 20.84 69.512 0.305 8.79 5.42 10.35
5/24/2021 5:15:00 PM 20.67 69.206 0.305 8.76 6.67 10.26
5/24/2021 5:30:00 PM 20.49 68.882 0.305 8.75 5.36 10.14
5/24/2021 5:45:00 PM 20.38 68.684 0.305 8.74 5.85 10.01
5/24/2021 6:00:00 PM 20.31 68.558 0.305 8.74 5.5 9.71
5/24/2021 6:15:00 PM 20.23 68.414 0.304 8.72 5.82 9.82
5/24/2021 6:30:00 PM 20.12 68.216 0.304 8.72 5.77 9.79
5/24/2021 6:45:00 PM 20.02 68.036 0.304 8.69 5.42 9.66
5/24/2021 7:00:00 PM 19.92 67.856 0.304 8.68 5.49 9.66
5/24/2021 7:15:00 PM 19.8 67.64 0.304 8.68 5.83 9.62
5/24/2021 7:30:00 PM 19.66 67.388 0.304 8.65 6.08 9.48
5/24/2021 7:45:00 PM 19.51 67.118 0.304 8.62 6.48 9.31
5/24/2021 8:00:00 PM 19.36 66.848 0.304 8.58 5.67 9.12
5/24/2021 8:15:00 PM 19.19 66.542 0.304 8.52 5.67 8.92
5/24/2021 8:30:00 PM 19.03 66.254 0.304 8.45 5.44 8.69
5/24/2021 8:45:00 PM 18.85 65.93 0.304 8.38 8 8.49
5/24/2021 9:00:00 PM 18.69 65.642 0.304 8.32 6.54 8.38
5/24/2021 9:15:00 PM 18.55 65.39 0.304 8.25 7.77 8.24
5/24/2021 9:30:00 PM 18.43 65.174 0.304 8.19 7.6 8.11
5/24/2021 9:45:00 PM 18.33 64.994 0.304 8.13 6.6 8.01
5/24/2021 10:00:00 PM 18.23 64.814 0.305 8.06 9.25 7.97
5/24/2021 10:15:00 PM 18.12 64.616 0.305 8 6.89 7.89
5/24/2021 10:30:00 PM 18.03 64.454 0.305 7.95 7.39 7.86
5/24/2021 10:45:00 PM 17.95 64.31 0.305 7.9 7.38 7.83
5/24/2021 11:00:00 PM 17.86 64.148 0.306 7.85 7.41 7.77
5/24/2021 11:15:00 PM 17.8 64.04 0.306 7.81 7.6 7.8
5/24/2021 11:30:00 PM 17.72 63.896 0.307 7.77 7.36 7.73
5/24/2021 11:45:00 PM 17.64 63.752 0.307 7.74 7.13 7.78
5/25/2021 12:00:00 AM 17.57 63.626 0.308 7.72 7.18 7.74
5/25/2021 12:15:00 AM 17.49 63.482 0.308 7.69 6.68 7.72
5/25/2021 12:30:00 AM 17.42 63.356 0.309 7.67 8.27 7.79
5/25/2021 12:45:00 AM 17.37 63.266 0.309 7.66 7.11 7.74
5/25/2021 1:00:00 AM 17.3 63.14 0.309 7.64 7.59 7.79
5/25/2021 1:15:00 AM 17.24 63.032 0.31 7.63 7.16 7.75
5/25/2021 1:30:00 AM 17.18 62.924 0.31 7.61 7.46 7.72
5/25/2021 1:45:00 AM 17.13 62.834 0.31 7.61 7.26 7.78
5/25/2021 2:00:00 AM 17.09 62.762 0.31 7.61 6.98 7.82
5/25/2021 2:15:00 AM 17.06 62.708 0.31 7.6 7.58 7.8
5/25/2021 2:30:00 AM 17.02 62.636 0.31 7.6 7.63 7.8
5/25/2021 2:45:00 AM 16.98 62.564 0.31 7.6 6.64 7.84
5/25/2021 3:00:00 AM 16.95 62.51 0.31 7.6 6.66 7.88
5/25/2021 3:15:00 AM 16.92 62.456 0.31 7.59 7.14 7.87
5/25/2021 3:30:00 AM 16.88 62.384 0.31 7.59 6.8 7.91
5/25/2021 3:45:00 AM 16.84 62.312 0.31 7.58 7.09 7.93
5/25/2021 4:00:00 AM 16.81 62.258 0.31 7.58 6.83 7.92
5/25/2021 4:15:00 AM 16.77 62.186 0.31 7.58 7.42 7.84
5/25/2021 4:30:00 AM 16.74 62.132 0.31 7.58 8.72 7.91
5/25/2021 4:45:00 AM 16.7 62.06 0.311 7.57 9.74 7.95
5/25/2021 5:00:00 AM 16.67 62.006 0.311 7.58 8.43 7.97
5/25/2021 5:15:00 AM 16.63 61.934 0.311 7.56 12.35 7.88
5/25/2021 5:30:00 AM 16.59 61.862 0.311 7.55 8.29 7.86
5/25/2021 5:45:00 AM 16.56 61.808 0.311 7.56 13.01 7.93
5/25/2021 6:00:00 AM 16.53 61.754 0.311 7.57 7.45 7.99
5/25/2021 6:15:00 AM 16.51 61.718 0.311 7.58 6.64 8.07
5/25/2021 6:30:00 AM 16.49 61.682 0.312 7.57 7.78 8
5/25/2021 6:45:00 AM 16.47 61.646 0.312 7.58 6.61 8.11
5/25/2021 7:00:00 AM 16.45 61.61 0.313 7.61 6.44 8.3
5/25/2021 7:15:00 AM 16.44 61.592 0.313 7.62 6.61 8.42
5/25/2021 7:30:00 AM 16.44 61.592 0.313 7.63 6.54 8.49
5/25/2021 7:45:00 AM 16.45 61.61 0.314 7.66 6.78 8.77
5/25/2021 8:00:00 AM 16.47 61.646 0.314 7.7 6.75 8.97
5/25/2021 8:15:00 AM 16.49 61.682 0.314 7.74 7 9.15
5/25/2021 8:30:00 AM 16.52 61.736 0.315 7.78 6.41 9.44
5/25/2021 8:45:00 AM 16.56 61.808 0.315 7.8 6.42 9.53
5/25/2021 9:00:00 AM 16.61 61.898 0.315 7.85 6.85 9.64
5/25/2021 9:15:00 AM 16.67 62.006 0.315 7.88 6.49 9.87
5/25/2021 9:30:00 AM 16.78 62.204 0.315 7.95 6.77 10.28
5/25/2021 9:45:00 AM 16.91 62.438 0.315 7.98 6.82 10.42
5/25/2021 10:00:00 AM 17.03 62.654 0.315 8.03 6.72 10.62
5/25/2021 10:15:00 AM 17.22 62.996 0.315 8.12 6.58 10.87
5/25/2021 10:30:00 AM 17.43 63.374 0.315 8.14 6.92 10.97
5/25/2021 10:45:00 AM 17.68 63.824 0.315 8.16 7.03 11.08
5/25/2021 11:00:00 AM 17.85 64.13 0.315 8.14 6.97 11.1
5/25/2021 11:15:00 AM 17.83 64.094 0.315 8.19 7.82 11.45
5/25/2021 11:30:00 AM 17.88 64.184 0.315 8.23 7.63 11.61
5/25/2021 11:45:00 AM 18.06 64.508 0.315 8.25 7.23 11.45
5/25/2021 12:00:00 PM 18.16 64.688 0.315 8.21 7.4 11.47
5/25/2021 12:15:00 PM 18.37 65.066 0.315 8.32 7.53 11.72
5/25/2021 12:30:00 PM 18.51 65.318 0.315 8.28 8.64 11.74
5/25/2021 12:45:00 PM 18.76 65.768 0.315 8.27 8.27 11.68
5/25/2021 1:00:00 PM 19.01 66.218 0.315 8.32 7.58 11.69
5/25/2021 1:15:00 PM 19.17 66.506 0.315 8.36 7.37 11.76
5/25/2021 1:30:00 PM 19.34 66.812 0.315 8.42 8.22 11.88
5/25/2021 1:45:00 PM 19.46 67.028 0.316 8.41 7.9 11.99
5/25/2021 2:00:00 PM 19.71 67.478 0.317 8.36 7.73 11.53
5/25/2021 2:15:00 PM 19.47 67.046 0.318 8.38 8.16 12.51
5/25/2021 2:30:00 PM 19.46 67.028 0.316 8.47 8.29 12.57
5/25/2021 2:45:00 PM 19.74 67.532 0.316 8.49 7.26 12.36
5/25/2021 3:00:00 PM 20.04 68.07201 0.316 8.51 8.07 12.1
5/25/2021 3:15:00 PM 20.36 68.648 0.316 8.51 6.84 11.71
5/25/2021 3:30:00 PM 20.6 69.08 0.317 8.51 6.76 11.14
5/25/2021 3:45:00 PM 20.49 68.882 0.317 8.38 8.1 11.19
5/25/2021 4:00:00 PM 20.57 69.026 0.317 8.43 7.77 11.27
5/25/2021 4:15:00 PM 20.44 68.792 0.316 8.48 8.51 12.13
5/25/2021 4:30:00 PM 20.24 68.432 0.316 8.56 8.56 12.63
5/25/2021 4:45:00 PM 20.45 68.81 0.316 8.54 8.57 12.28
5/25/2021 5:00:00 PM 20.4 68.72 0.317 8.53 7.93 12.19
5/25/2021 5:15:00 PM 20.27 68.486 0.317 8.53 8.16 12.12
5/25/2021 5:30:00 PM 20.22 68.396 0.318 8.55 8.02 12.22
5/25/2021 5:45:00 PM 20.45 68.81 0.314 8.54 7.56 11.54
5/25/2021 6:00:00 PM 20.39 68.702 0.308 8.54 7.57 11.63
5/25/2021 6:15:00 PM 21.41 70.538 0.312 8.56 8.08 11.04
5/25/2021 6:30:00 PM 21.64 70.952 0.31 8.55 8.05 10.73
5/25/2021 6:45:00 PM 22.04 71.672 0.311 8.57 5.41 10.03
5/25/2021 7:00:00 PM 21.84 71.312 0.313 8.51 6.69 10.16
5/25/2021 7:15:00 PM 22.25 72.05 0.312 8.55 5.79 9.01
5/25/2021 7:30:00 PM 22.24 72.032 0.312 8.52 5.27 8.79
5/25/2021 7:45:00 PM 22.17 71.906 0.313 8.48 5.73 8.56
5/25/2021 8:00:00 PM 22.1 71.78 0.313 8.43 8.12 8.38
5/25/2021 8:15:00 PM 22.02 71.636 0.314 8.38 5.36 8.19
5/25/2021 8:30:00 PM 21.91 71.438 0.314 8.29 6.31 8
5/25/2021 8:45:00 PM 21.8 71.24 0.314 8.24 5.66 7.73
5/25/2021 9:00:00 PM 21.67 71.006 0.315 8.18 5.27 7.54
5/25/2021 9:15:00 PM 21.54 70.772 0.315 8.09 5.8 7.37
5/25/2021 9:30:00 PM 21.4 70.52 0.316 8.01 5.4 7.23
5/25/2021 9:45:00 PM 21.25 70.25 0.316 7.94 5.56 7.13
5/25/2021 10:00:00 PM 21.1 69.98 0.316 7.89 7.37 7.03
5/25/2021 10:15:00 PM 20.97 69.746 0.317 7.85 6 7.03
5/25/2021 10:30:00 PM 20.85 69.53 0.317 7.82 5.94 7
5/25/2021 10:45:00 PM 20.72 69.296 0.317 7.78 6.42 7.01
5/25/2021 11:00:00 PM 20.6 69.08 0.317 7.74 5.9 6.98
5/25/2021 11:15:00 PM 20.47 68.846 0.317 7.72 5.92 7.01
5/25/2021 11:30:00 PM 20.35 68.63 0.317 7.7 5.61 7.02
5/25/2021 11:45:00 PM 20.22 68.396 0.317 7.68 5.93 7.02
5/26/2021 12:00:00 AM 20.08 68.144 0.318 7.65 5.85 6.98
5/26/2021 12:15:00 AM 19.96 67.92799 0.318 7.64 6.46 7.06
5/26/2021 12:30:00 AM 19.84 67.712 0.318 7.62 5.59 7.05
5/26/2021 12:45:00 AM 19.72 67.496 0.318 7.61 5.87 7.08
5/26/2021 1:00:00 AM 19.61 67.298 0.318 7.6 5.68 7.07
5/26/2021 1:15:00 AM 19.51 67.118 0.318 7.59 5.77 7.15
5/26/2021 1:30:00 AM 19.42 66.956 0.318 7.58 5.47 7.09
5/26/2021 1:45:00 AM 19.33 66.794 0.319 7.57 5.75 7.07
5/26/2021 2:00:00 AM 19.24 66.632 0.319 7.57 5.65 7.18
5/26/2021 2:15:00 AM 19.15 66.47 0.319 7.56 5.68 7.15
5/26/2021 2:30:00 AM 19.07 66.326 0.319 7.56 6.65 7.24
5/26/2021 2:45:00 AM 19 66.2 0.32 7.56 6.09 7.25
5/26/2021 3:00:00 AM 18.91 66.038 0.32 7.55 6.39 7.15
5/26/2021 3:15:00 AM 18.83 65.894 0.32 7.54 6.1 7.21
5/26/2021 3:30:00 AM 18.76 65.768 0.321 7.54 6.3 7.22
5/26/2021 3:45:00 AM 18.68 65.624 0.321 7.54 6.36 7.31
5/26/2021 4:00:00 AM 18.62 65.516 0.321 7.54 6.44 7.35
5/26/2021 4:15:00 AM 18.56 65.408 0.321 7.54 6.29 7.36
5/26/2021 4:30:00 AM 18.49 65.282 0.321 7.54 6.47 7.33
5/26/2021 4:45:00 AM 18.43 65.174 0.321 7.54 6.14 7.41
5/26/2021 5:00:00 AM 18.37 65.066 0.322 7.53 6.59 7.36
5/26/2021 5:15:00 AM 18.31 64.958 0.322 7.52 7.39 7.39
5/26/2021 5:30:00 AM 18.25 64.85 0.322 7.51 8.03 7.36
5/26/2021 5:45:00 AM 18.19 64.742 0.322 7.52 6.33 7.43
5/26/2021 6:00:00 AM 18.12 64.616 0.322 7.48 69.02 7.25
5/26/2021 6:15:00 AM 18.05 64.49 0.321 7.52 9.97 7.5
5/26/2021 6:30:00 AM 17.99 64.382 0.321 7.53 11.84 7.56
5/26/2021 6:45:00 AM 17.92 64.256 0.321 7.53 12.31 7.64
5/26/2021 7:00:00 AM 17.89 64.202 0.321 7.54 8.2 7.79
5/26/2021 7:15:00 AM 17.88 64.184 0.321 7.57 143.76 8.01
5/26/2021 7:30:00 AM 17.89 64.202 0.321 7.59 6.86 8.24
5/26/2021 7:45:00 AM 17.93 64.274 0.321 7.62 7.3 8.47
5/26/2021 8:00:00 AM 17.98 64.364 0.322 7.67 7.76 8.65
5/26/2021 8:15:00 AM 18.05 64.49 0.322 7.71 10.02 8.94
5/26/2021 8:30:00 AM 18.13 64.634 0.322 7.77 9.54 9.09
5/26/2021 8:45:00 AM 18.22 64.796 0.322 7.81 8.7 9.35
5/26/2021 9:00:00 AM 18.31 64.958 0.322 7.84 9.61 9.3
5/26/2021 9:15:00 AM 18.42 65.156 0.322 7.83 11.65 9.54
5/26/2021 9:30:00 AM 18.55 65.39 0.322 7.83 7.29 9.57
5/26/2021 9:45:00 AM 18.68 65.624 0.322 7.82 125.26 9.61
5/26/2021 10:00:00 AM 18.89 66.002 0.323 7.84 9.73 9.6
5/26/2021 10:15:00 AM 18.96 66.128 0.323 7.89 8.85 10.04
5/26/2021 10:30:00 AM 18.99 66.182 0.323 7.93 6.83 10.37
5/26/2021 10:45:00 AM 19.01 66.218 0.323 8 6.78 10.48
5/26/2021 11:00:00 AM 19.06 66.308 0.323 7.99 6.4 10.43
5/26/2021 11:15:00 AM 19.21 66.578 0.323 7.99 7.39 10.38
5/26/2021 11:30:00 AM 19.3 66.74 0.323 8.05 6.74 10.55
5/26/2021 11:45:00 AM 19.38 66.884 0.323 8.09 6.27 10.62
5/26/2021 12:00:00 PM 19.54 67.172 0.323 8.11 6.4 10.51
5/26/2021 12:15:00 PM 19.8 67.64 0.323 8.14 6.08 10.67
5/26/2021 12:30:00 PM 19.97 67.946 0.324 8.13 5.99 10.63
5/26/2021 12:45:00 PM 20.18 68.324 0.324 8.19 6.72 10.89
5/26/2021 1:00:00 PM 20.36 68.648 0.324 8.1 8.99 10.51
5/26/2021 1:15:00 PM 20.26 68.468 0.324 8.07 8.94 10.47
5/26/2021 1:30:00 PM 20.56 69.008 0.324 8.2 8.63 10.63
5/26/2021 1:45:00 PM 20.23 68.414 0.324 8.11 10.18 10.51
5/26/2021 2:00:00 PM 20.58 69.044 0.324 8.2 8.74 10.98
5/26/2021 2:15:00 PM 20.52 68.936 0.326 8.13 10.2 10.48
5/26/2021 2:30:00 PM 20.3 68.54 0.326 8.13 10.41 10.85
5/26/2021 2:45:00 PM 20.29 68.522 0.328 8.17 10.03 11.2
5/26/2021 3:00:00 PM 20.33 68.594 0.325 8.21 8.45 11.12
5/26/2021 3:15:00 PM 20.52 68.936 0.325 8.17 9.15 11.02
5/26/2021 3:30:00 PM 20.8 69.44 0.328 8.23 13.19 11.14
5/26/2021 3:45:00 PM 20.73 69.314 0.33 8.19 37.61 10.96
5/26/2021 4:00:00 PM 21.74 71.132 0.327 8.18 13.15 10.06
5/26/2021 4:15:00 PM 22.32 72.176 0.326 8.13 9.77 9.04
5/26/2021 4:30:00 PM 22.45 72.41 0.324 8.25 8.61 9.37
5/26/2021 4:45:00 PM 22.53 72.554 0.325 8.22 8.17 9.73
5/26/2021 5:00:00 PM 22.69 72.842 0.324 8.3 10.8 9.41
5/26/2021 5:15:00 PM 22.29 72.122 0.325 8.26 7.54 9.93
5/26/2021 5:30:00 PM 22.89 73.202 0.323 8.28 8.25 8.93
5/26/2021 5:45:00 PM 22.64 72.752 0.323 8.24 54.78 9.05
5/26/2021 6:00:00 PM 22.75 72.95 0.323 8.28 12.07 9
5/26/2021 6:15:00 PM 22.71 72.878 0.322 8.32 7.9 9.13
5/26/2021 6:30:00 PM 22.65 72.77 0.322 8.3 8.92 9.07
5/26/2021 6:45:00 PM 22.52 72.536 0.321 8.3 12.03 8.98
5/26/2021 7:00:00 PM 22.36 72.248 0.321 8.24 9.94 8.76
5/26/2021 7:15:00 PM 22.2 71.96 0.322 8.22 7 8.63
5/26/2021 7:30:00 PM 22.05 71.69 0.321 8.15 8.52 8.41
5/26/2021 7:45:00 PM 21.91 71.438 0.321 8.09 6.95 8.14
5/26/2021 8:00:00 PM 21.8 71.24 0.321 8.03 6.76 7.92
5/26/2021 8:15:00 PM 21.69 71.042 0.322 7.96 7.33 7.72
5/26/2021 8:30:00 PM 21.59 70.862 0.321 7.92 7.37 7.54
5/26/2021 8:45:00 PM 21.49 70.682 0.322 7.87 7.69 7.44
5/26/2021 9:00:00 PM 21.38 70.484 0.322 7.82 8.21 7.28
5/26/2021 9:15:00 PM 21.26 70.268 0.322 7.79 8.02 7.17
5/26/2021 9:30:00 PM 21.13 70.034 0.322 7.76 7.81 7.1
5/26/2021 9:45:00 PM 20.98 69.764 0.323 7.72 8.47 7.01
5/26/2021 10:00:00 PM 20.82 69.476 0.323 7.7 7.81 7.01
5/26/2021 10:15:00 PM 20.66 69.188 0.323 7.67 8.88 6.98
5/26/2021 10:30:00 PM 20.49 68.882 0.323 7.66 8.05 7
5/26/2021 10:45:00 PM 20.32 68.576 0.324 7.64 8.08 7.03
5/26/2021 11:00:00 PM 20.16 68.288 0.324 7.62 8.13 7.01
5/26/2021 11:15:00 PM 20.02 68.036 0.324 7.63 7.52 7.05
5/26/2021 11:30:00 PM 19.87 67.766 0.324 7.6 43.05 7.04
5/26/2021 11:45:00 PM 19.74 67.532 0.325 7.59 17.92 6.98
5/27/2021 12:00:00 AM 19.59 67.262 0.326 7.59 9.04 7.07
5/27/2021 12:15:00 AM 19.47 67.046 0.327 7.58 8.57 7.1
5/27/2021 12:30:00 AM 19.35 66.83 0.328 7.57 8.6 7.13
5/27/2021 12:45:00 AM 19.23 66.614 0.33 7.56 10 7.12
5/27/2021 1:00:00 AM 19.13 66.434 0.332 7.55 8.37 7.16
5/27/2021 1:15:00 AM 19.02 66.236 0.334 7.54 9.79 7.17
5/27/2021 1:30:00 AM 18.92 66.056 0.338 7.55 8.43 7.15
5/27/2021 1:45:00 AM 18.84 65.912 0.341 7.54 8.64 7.23
5/27/2021 2:00:00 AM 18.76 65.768 0.345 7.53 8.2 7.21
5/27/2021 2:15:00 AM 18.68 65.624 0.348 7.53 8.43 7.29
5/27/2021 2:30:00 AM 18.61 65.498 0.351 7.53 8.17 7.3
5/27/2021 2:45:00 AM 18.52 65.336 0.353 7.53 9.24 7.33
5/27/2021 3:00:00 AM 18.42 65.156 0.355 7.53 8.8 7.35
5/27/2021 3:15:00 AM 18.34 65.012 0.356 7.54 8.86 7.41
5/27/2021 3:30:00 AM 18.25 64.85 0.356 7.54 8.94 7.44
5/27/2021 3:45:00 AM 18.18 64.724 0.356 7.53 8.54 7.41
5/27/2021 4:00:00 AM 18.1 64.58 0.355 7.53 9.02 7.43
5/27/2021 4:15:00 AM 18.02 64.436 0.355 7.54 8.83 7.52
5/27/2021 4:30:00 AM 17.92 64.256 0.354 7.54 9.03 7.56
5/27/2021 4:45:00 AM 17.83 64.094 0.353 7.54 8.79 7.59
5/27/2021 5:00:00 AM 17.74 63.932 0.352 7.55 9.48 7.64
5/27/2021 5:15:00 AM 17.64 63.752 0.351 7.55 7.81 7.68
5/27/2021 5:30:00 AM 17.56 63.608 0.35 7.55 7.82 7.67
5/27/2021 5:45:00 AM 17.47 63.446 0.349 7.55 8.39 7.71
5/27/2021 6:00:00 AM 17.38 63.284 0.348 7.55 8.3 7.73
5/27/2021 6:15:00 AM 17.29 63.122 0.346 7.56 8.09 7.84
5/27/2021 6:30:00 AM 17.21 62.978 0.345 7.57 7.86 7.93
5/27/2021 6:45:00 AM 17.13 62.834 0.344 7.59 7.89 8.03
5/27/2021 7:00:00 AM 17.07 62.726 0.343 7.59 9.14 8.16
5/27/2021 7:15:00 AM 17.03 62.654 0.342 7.59 7.75 8.27
5/27/2021 7:30:00 AM 16.99 62.582 0.341 7.62 7.89 8.41
5/27/2021 7:45:00 AM 16.95 62.51 0.34 7.64 7.83 8.57
5/27/2021 8:00:00 AM 16.9 62.42 0.339 7.66 7.66 8.7
5/27/2021 8:15:00 AM 16.88 62.384 0.338 7.67 7.47 8.75
5/27/2021 8:30:00 AM 16.87 62.366 0.337 7.7 7.52 8.92
5/27/2021 8:45:00 AM 16.89 62.402 0.336 7.73 7.51 9.07
5/27/2021 9:00:00 AM 16.95 62.51 0.335 7.78 7.51 9.24
5/27/2021 9:15:00 AM 17.09 62.762 0.334 7.82 7.29 9.43
5/27/2021 9:30:00 AM 17.25 63.05 0.333 7.88 7.18 9.65
5/27/2021 9:45:00 AM 17.35 63.23 0.333 7.86 21.66 9.61
5/27/2021 10:00:00 AM 17.53 63.554 0.333 7.96 10.5 9.92
5/27/2021 10:15:00 AM 17.73 63.914 0.332 8.01 8.34 10.05
5/27/2021 10:30:00 AM 17.94 64.292 0.332 8.04 7.28 10.05
5/27/2021 10:45:00 AM 18.13 64.634 0.332 7.99 7.98 9.99
5/27/2021 11:00:00 AM 18.16 64.688 0.332 8.02 10.46 10.18
5/27/2021 11:15:00 AM 18.12 64.616 0.332 8.08 9.68 10.46
5/27/2021 11:30:00 AM 18.17 64.706 0.331 8.08 8.48 10.29
5/27/2021 11:45:00 AM 18.34 65.012 0.332 8.11 8.79 10.48
5/27/2021 12:00:00 PM 18.45 65.21 0.331 8.1 8.61 10.4
5/27/2021 12:15:00 PM 18.77 65.786 0.331 8.04 10.26 10.08
5/27/2021 12:30:00 PM 19.04 66.272 0.331 8.12 9.83 10.51
5/27/2021 12:45:00 PM 19.31 66.758 0.331 8.12 10.37 10.61
5/27/2021 1:00:00 PM 19.6 67.28 0.332 8.21 9.67 10.76
5/27/2021 1:15:00 PM 19.91 67.838 0.331 8.2 9.35 10.74
5/27/2021 1:30:00 PM 20.22 68.396 0.332 8.24 8.46 10.63
5/27/2021 1:45:00 PM 20.51 68.918 0.333 8.28 8.48 10.71
5/27/2021 2:00:00 PM 21.32 70.376 0.336 8.28 8.62 10.41
5/27/2021 2:15:00 PM 22.12 71.816 0.334 8.37 8.15 10.21
5/27/2021 2:30:00 PM 22.47 72.446 0.335 8.39 8.03 9.86
5/27/2021 2:45:00 PM 23.08 73.544 0.332 8.53 7.16 10.45
5/27/2021 3:00:00 PM 23.2 73.76 0.332 8.53 7.36 10.31
5/27/2021 3:15:00 PM 23.34 74.012 0.33 8.56 7.28 10.44
5/27/2021 3:30:00 PM 23.3 73.94 0.33 8.57 7.29 10.28
5/27/2021 3:45:00 PM 23.3 73.94 0.329 8.58 8.4 10.17
5/27/2021 4:00:00 PM 23.3 73.94 0.329 8.58 6.9 10.03
5/27/2021 4:15:00 PM 23.34 74.012 0.329 8.57 7.23 9.88
5/27/2021 4:30:00 PM 23.25 73.85 0.328 8.58 6.66 9.79
5/27/2021 4:45:00 PM 23.21 73.778 0.327 8.57 6.72 9.67
5/27/2021 5:00:00 PM 23.23 73.814 0.326 8.56 6.56 9.44
5/27/2021 5:15:00 PM 23.2 73.76 0.326 8.55 6.34 9.36
5/27/2021 5:30:00 PM 23.09 73.562 0.325 8.55 6.54 9.34
5/27/2021 5:45:00 PM 22.91 73.238 0.325 8.53 8.34 9.26
5/27/2021 6:00:00 PM 22.76 72.968 0.324 8.51 10.15 9.09
5/27/2021 6:15:00 PM 22.53 72.554 0.323 8.5 7.35 9.08
5/27/2021 6:30:00 PM 22.28 72.104 0.323 8.48 7.43 8.99
5/27/2021 6:45:00 PM 22.09 71.762 0.323 8.45 7.38 8.87
5/27/2021 7:00:00 PM 21.88 71.384 0.322 8.42 6.99 8.74
5/27/2021 7:15:00 PM 21.65 70.97 0.322 8.39 8.34 8.66
5/27/2021 7:30:00 PM 21.46 70.628 0.321 8.35 8.03 8.55
5/27/2021 7:45:00 PM 21.25 70.25 0.321 8.32 7.81 8.48
5/27/2021 8:00:00 PM 21.01 69.818 0.321 8.25 8.53 8.29
5/27/2021 8:15:00 PM 20.77 69.386 0.321 8.23 7.95 8.22
5/27/2021 8:30:00 PM 20.56 69.008 0.32 8.16 7.55 7.98
5/27/2021 8:45:00 PM 20.33 68.594 0.32 8.13 7.9 7.97
5/27/2021 9:00:00 PM 20.1 68.18 0.32 8.06 8.53 7.79
5/27/2021 9:15:00 PM 19.91 67.838 0.32 8.01 7.97 7.7
5/27/2021 9:30:00 PM 19.7 67.46 0.32 7.95 8.11 7.6
5/27/2021 9:45:00 PM 19.48 67.064 0.32 7.89 8.67 7.52
5/27/2021 10:00:00 PM 19.27 66.686 0.32 7.85 8.45 7.5
5/27/2021 10:15:00 PM 19.05 66.29 0.32 7.82 9.03 7.54
5/27/2021 10:30:00 PM 18.86 65.948 0.32 7.79 8.98 7.52
5/27/2021 10:45:00 PM 18.68 65.624 0.32 7.77 9.2 7.56
5/27/2021 11:00:00 PM 18.5 65.3 0.32 7.74 9.25 7.55
5/27/2021 11:15:00 PM 18.32 64.976 0.32 7.72 9.03 7.55
5/27/2021 11:30:00 PM 18.14 64.652 0.32 7.7 9.49 7.57
5/27/2021 11:45:00 PM 17.99 64.382 0.32 7.68 9.45 7.58
5/28/2021 12:00:00 AM 17.85 64.13 0.32 7.66 9.38 7.61
5/28/2021 12:15:00 AM 17.72 63.896 0.32 7.65 9.12 7.61
5/28/2021 12:30:00 AM 17.6 63.68 0.32 7.62 8.62 7.64
5/28/2021 12:45:00 AM 17.49 63.482 0.32 7.61 9.33 7.66
5/28/2021 1:00:00 AM 17.38 63.284 0.32 7.6 8.54 7.65
5/28/2021 1:15:00 AM 17.28 63.104 0.32 7.59 7.79 7.71
5/28/2021 1:30:00 AM 17.18 62.924 0.32 7.58 9.03 7.64
5/28/2021 1:45:00 AM 17.09 62.762 0.32 7.58 8.8 7.77
5/28/2021 2:00:00 AM 16.99 62.582 0.32 7.58 9 7.79
5/28/2021 2:15:00 AM 16.89 62.402 0.32 7.57 8.7 7.87
5/28/2021 2:30:00 AM 16.79 62.222 0.32 7.56 9.24 7.86
5/28/2021 2:45:00 AM 16.7 62.06 0.32 7.56 8.47 7.88
5/28/2021 3:00:00 AM 16.61 61.898 0.32 7.55 9.3 7.88
5/28/2021 3:15:00 AM 16.53 61.754 0.319 7.54 8.1 7.86
5/28/2021 3:30:00 AM 16.45 61.61 0.319 7.55 8.02 7.92
5/28/2021 3:45:00 AM 16.37 61.466 0.319 7.54 8.42 8
5/28/2021 4:00:00 AM 16.29 61.322 0.319 7.55 8.49 8.01
5/28/2021 4:15:00 AM 16.21 61.178 0.319 7.54 8.44 8.03
5/28/2021 4:30:00 AM 16.14 61.052 0.319 7.54 8.62 8.04
5/28/2021 4:45:00 AM 16.06 60.908 0.319 7.54 8.07 8.04
5/28/2021 5:00:00 AM 15.98 60.764 0.319 7.53 10.22 7.99
5/28/2021 5:15:00 AM 15.9 60.62 0.319 7.54 6.96 8.08
5/28/2021 5:30:00 AM 15.84 60.512 0.319 7.54 6.72 8.06
5/28/2021 5:45:00 AM 15.78 60.404 0.319 7.54 6.5 8.1
5/28/2021 6:00:00 AM 15.72 60.296 0.319 7.54 6.62 8.16
5/28/2021 6:15:00 AM 15.66 60.188 0.32 7.55 6.51 8.17
5/28/2021 6:30:00 AM 15.61 60.098 0.32 7.55 6.65 8.2
5/28/2021 6:45:00 AM 15.57 60.026 0.32 7.56 6.9 8.23
5/28/2021 7:00:00 AM 15.52 59.936 0.32 7.56 7.43 8.28
5/28/2021 7:15:00 AM 15.45 59.81 0.32 7.57 7.08 8.34
5/28/2021 7:30:00 AM 15.42 59.756 0.32 7.59 6.9 8.46
5/28/2021 7:45:00 AM 15.39 59.702 0.32 7.6 7.32 8.52
5/28/2021 8:00:00 AM 15.35 59.63 0.32 7.62 6.85 8.65
5/28/2021 8:15:00 AM 15.33 59.594 0.319 7.62 7.33 8.68
5/28/2021 8:30:00 AM 15.3 59.54 0.32 7.65 8.38 8.84
5/28/2021 8:45:00 AM 15.28 59.504 0.319 7.67 7.04 9.07
5/28/2021 9:00:00 AM 15.26 59.468 0.319 7.7 7.27 9.14
5/28/2021 9:15:00 AM 15.24 59.432 0.319 7.71 8.45 9.08
5/28/2021 9:30:00 AM 15.22 59.396 0.319